Provisional Data: South Branch Tunkhannock Creek near La Plume, PA


Please select a monitoring station.
Please select start date.
Please select start date.

Toggle Unit: C/F Toggle Unit: C/F
Sample Time Temperature (C) Temperature (F) Specific Conductivity (mS/cm) pH   Turbidity (NTU+) DO (mg/L)
5/17/2022 12:00:00 AM 12.43 54.374 0 6.93 9.24 10.15
5/17/2022 12:15:00 AM 12.21 53.978 0 6.94 8.96 10.19
5/17/2022 12:30:00 AM 12 53.6 0 6.94 7.1 10.22
5/17/2022 12:45:00 AM 11.77 53.186 0 6.95 7.07 10.28
5/17/2022 1:00:00 AM 11.56 52.808 0 6.96 7.09 10.34
5/17/2022 1:15:00 AM 11.36 52.448 0 6.98 7.14 10.38
5/17/2022 1:30:00 AM 11.15 52.07 0 6.97 8.03 10.43
5/17/2022 1:45:00 AM 10.95 51.71 0 7 7.14 10.49
5/17/2022 2:00:00 AM 10.75 51.35 0 6.98 7.1 10.53
5/17/2022 2:15:00 AM 10.55 50.99 0 6.98 7.11 10.57
5/17/2022 2:30:00 AM 10.38 50.684 0 7.02 7.12 10.62
5/17/2022 2:45:00 AM 10.23 50.414 0 7.12 8.69 10.66
5/17/2022 3:00:00 AM 10.11 50.198 0 7.07 7.07 10.69
5/17/2022 3:15:00 AM 9.95 49.91 0 7.04 7.09 10.73
5/17/2022 3:30:00 AM 9.82 49.676 0 7.07 7.06 10.76
5/17/2022 3:45:00 AM 9.72 49.496 0 7.08 6.99 10.79
5/17/2022 4:00:00 AM 9.66 49.388 0 7.11 6.93 10.79
5/17/2022 4:15:00 AM 9.57 49.226 0 7.13 7.02 10.82
5/17/2022 4:30:00 AM 9.47 49.046 0 7.11 7.1 10.85
5/17/2022 4:45:00 AM 9.42 48.956 0 7.16 7.02 10.86
5/17/2022 5:00:00 AM 9.37 48.866 0 7.16 6.91 10.87
5/17/2022 5:15:00 AM 9.3 48.74 0 7.17 6.85 10.89
5/17/2022 5:30:00 AM 9.21 48.578 0 7.17 6.93 10.91
5/17/2022 5:45:00 AM 9.14 48.452 0 7.16 6.86 10.93
5/17/2022 6:00:00 AM 9.1 48.38 0 7.18 6.83 10.94
5/17/2022 6:15:00 AM 9.06 48.308 0 7.19 6.84 10.94
5/17/2022 6:30:00 AM 9.02 48.236 0 7.19 6.85 10.96
5/17/2022 6:45:00 AM 9.01 48.218 0 7.2 6.79 10.96
5/17/2022 7:00:00 AM 9.26 48.668 0 7.2 6.46 10.89
5/17/2022 7:15:00 AM 9.69 49.442 0 7.16 6.43 10.78
5/17/2022 7:30:00 AM 10.29 50.522 0 7.13 5.92 10.62
5/17/2022 7:45:00 AM 11.71 53.078 0 7.2 6.8 10.3
5/17/2022 8:00:00 AM 13.27 55.886 0 6.97 6.62 9.94
5/17/2022 8:15:00 AM 13.9 57.02 0 7.04 6.65 9.8
5/17/2022 8:30:00 AM 14.59 58.262 0 6.99 6.92 9.65
5/17/2022 8:45:00 AM 15.94 60.692 0 7.08 7.67 9.38
5/17/2022 9:00:00 AM 16.89 62.402 0 6.91 13.22 9.22
5/17/2022 9:15:00 AM 17.45 63.41 0 7.01 8.49 9.12
5/17/2022 9:30:00 AM 17.7 63.86 0 7.11 7.38 9.06
5/17/2022 9:45:00 AM 17.82 64.076 0 7.1 6.81 9.05
5/17/2022 10:00:00 AM 17.99 64.382 0 7.17 13.52 9.03
5/17/2022 10:15:00 AM 18.3 64.94 0 7.19 6.44 8.98
5/17/2022 10:30:00 AM 18.6 65.48 0.001 7.21 4.56 8.93
5/17/2022 10:45:00 AM 18.86 65.948 0.002 7.22 5.39 8.88
5/17/2022 11:00:00 AM 19.06 66.308 0.001 7.19 13.96 8.84
5/17/2022 11:15:00 AM 19.2 66.56 0.001 7.07 5.48 8.82
5/17/2022 11:30:00 AM 19.36 66.848 0.001 7.17 15.08 8.79
5/17/2022 11:45:00 AM 19.52 67.136 0.001 7.17 29.03 8.77
5/17/2022 12:00:00 PM 19.75 67.55 0.001 7.16 7.3 8.74
5/17/2022 12:15:00 PM 19.83 67.694 0 7.12 5.35 8.72
5/17/2022 12:30:00 PM 19.68 67.424 0 7.08 23.02 8.74
5/17/2022 12:45:00 PM 19.62 67.316 0 7.07 9.96 8.76
5/17/2022 1:00:00 PM 19.73 67.514 0 7.1 6.36 8.74
5/17/2022 1:15:00 PM 19.88 67.784 0 7.08 5.91 8.72
5/17/2022 1:30:00 PM 20.19 68.342 0 7.09 19.66 8.66
5/17/2022 1:45:00 PM 20.22 68.396 0 7.01 8.98 8.67
5/17/2022 2:00:00 PM 20.28 68.504 0 7.05 6.71 8.65
5/17/2022 2:15:00 PM 20.32 68.576 0 7.08 6.25 8.64
5/17/2022 2:30:00 PM 20.5 68.9 0 7.28 10.7 8.63
5/17/2022 2:45:00 PM 20.8 69.44 0 7.11 8.18 8.58
5/17/2022 3:00:00 PM 21.11 69.998 0.001 7.1 6.22 8.53
5/17/2022 3:15:00 PM 21.4 70.52 0 7.15 13.52 8.5
5/17/2022 3:30:00 PM 21.99 71.582 0 7.07 5.1 8.41
5/17/2022 3:45:00 PM 22.8 73.04 0 7.09 6.44 8.31
5/17/2022 4:00:00 PM 23.97 75.146 0.001 7.09 4.46 8.15
5/17/2022 4:15:00 PM 24.86 76.748 0 7.04 7.71 8.06
5/17/2022 4:30:00 PM 25.64 78.152 0 6.95 7.76 7.95
5/17/2022 4:45:00 PM 26.11 78.998 0 6.87 7.05 7.88
5/17/2022 5:00:00 PM 26.28 79.304 0 6.81 29.03 7.87
5/17/2022 5:15:00 PM 26.06 78.908 0 6.72 7.18 7.9
5/17/2022 5:30:00 PM 25.83 78.494 0 6.66 16.62 7.95
5/17/2022 5:45:00 PM 25.49 77.882 0 6.62 68.44 7.98
5/17/2022 6:00:00 PM 25.13 77.234 0 6.71 11.5 8.03
5/17/2022 6:15:00 PM 24.86 76.748 0 6.55 13.85 8.08
5/17/2022 6:30:00 PM 24.34 75.812 0 6.49 8.33 8.13
5/17/2022 6:45:00 PM 23.81 74.858 0 6.58 8.59 8.21
5/17/2022 7:00:00 PM 23.15 73.67 0 6.49 38.14 8.3
5/17/2022 7:15:00 PM 22.34 72.212 0 6.49 8.64 8.42
5/17/2022 7:30:00 PM 21.24 70.232 0 6.56 37.14 8.57
5/17/2022 7:45:00 PM 19.91 67.838 0 6.6 13.24 8.78
5/17/2022 8:00:00 PM 18.86 65.948 0 6.11 10.34 8.95
5/17/2022 8:15:00 PM 17.86 64.148 0 6.67 9.11 9.12
5/17/2022 8:30:00 PM 17.12 62.816 0 6.69 11.1 9.24
5/17/2022 8:45:00 PM 16.26 61.268 0 6.71 9.18 9.42
5/17/2022 9:00:00 PM 15.59 60.062 0 6.72 10.63 9.54
5/17/2022 9:15:00 PM 14.98 58.964 0 6.74 8.28 9.67
5/17/2022 9:30:00 PM 14.44 57.992 0 6.81 7.18 9.78
5/17/2022 9:45:00 PM 13.93 57.074 0 6.87 7.2 9.89
5/17/2022 10:00:00 PM 13.47 56.246 0 6.91 7.21 9.98
5/17/2022 10:15:00 PM 13 55.4 0 6.91 11.91 10.08
5/17/2022 10:30:00 PM 12.57 54.626 0 6.91 8.71 10.17
5/17/2022 10:45:00 PM 12.12 53.816 0 6.94 7.23 10.27
5/17/2022 11:00:00 PM 11.69 53.042 0 6.94 7.97 10.38
5/17/2022 11:15:00 PM 11.3 52.34 0 6.97 7.26 10.47
5/17/2022 11:30:00 PM 10.94 51.692 0 6.98 7.29 10.55
5/17/2022 11:45:00 PM 10.63 51.134 0 7.02 7.95 10.63
5/18/2022 12:00:00 AM 10.36 50.648 0 7.04 7.21 10.7
5/18/2022 12:15:00 AM 10.14 50.252 0 7.05 7.22 10.75
5/18/2022 12:30:00 AM 9.94 49.892 0 7.07 7.11 10.79
5/18/2022 12:45:00 AM 9.73 49.514 0 7.07 7.03 10.85
5/18/2022 1:00:00 AM 9.5 49.1 0 7.06 6.96 10.91
5/18/2022 1:15:00 AM 9.28 48.704 0 7.07 6.88 10.96
5/18/2022 1:30:00 AM 9.07 48.326 0 7.08 6.8 11.02
5/18/2022 1:45:00 AM 8.86 47.948 0 7.08 6.78 11.07
5/18/2022 2:00:00 AM 8.64 47.552 0 7.09 6.8 11.14
5/18/2022 2:15:00 AM 8.43 47.174 0 7.11 6.87 11.19
5/18/2022 2:30:00 AM 8.24 46.832 0 7.11 7.41 11.24
5/18/2022 2:45:00 AM 8.08 46.544 0 7.12 6.75 11.29
5/18/2022 3:00:00 AM 7.92 46.256 0 7.11 6.72 11.33
5/18/2022 3:15:00 AM 7.76 45.968 0 7.13 6.77 11.39
5/18/2022 3:30:00 AM 7.62 45.716 0 7.15 6.65 11.42
5/18/2022 3:45:00 AM 7.49 45.482 0 7.14 6.75 11.46
5/18/2022 4:00:00 AM 7.35 45.23 0 7.13 6.68 11.5
5/18/2022 4:15:00 AM 7.2 44.96 0 7.14 6.66 11.54
5/18/2022 4:30:00 AM 7.04 44.672 0 7.13 6.69 11.59
5/18/2022 4:45:00 AM 6.89 44.402 0 7.15 6.78 11.64
5/18/2022 5:00:00 AM 6.75 44.15 0 7.16 6.7 11.68
5/18/2022 5:15:00 AM 6.6 43.88 0 7.14 6.77 11.73
5/18/2022 5:30:00 AM 6.47 43.646 0 7.15 6.73 11.77
5/18/2022 5:45:00 AM 6.37 43.466 0 7.16 6.69 11.79
5/18/2022 6:00:00 AM 6.31 43.358 0 7.21 6.53 11.81
5/18/2022 6:15:00 AM 6.31 43.358 0 7.21 6.49 11.81
5/18/2022 6:30:00 AM 6.35 43.43 0 7.26 6.77 11.8
5/18/2022 6:45:00 AM 6.42 43.556 0 7.26 6 11.77
5/18/2022 7:00:00 AM 6.84 44.312 0 7.21 5.69 11.63
5/18/2022 7:15:00 AM 7.47 45.446 0 7.17 5.69 11.46
5/18/2022 7:30:00 AM 8.31 46.958 0 7.15 5.36 11.23
5/18/2022 7:45:00 AM 10.11 50.198 0 7.07 5.95 10.76
5/18/2022 8:00:00 AM 12.56 54.608 0.001 6.96 6.65 10.19
5/18/2022 8:15:00 AM 14.67 58.406 0 6.79 8.1 9.71
5/18/2022 8:30:00 AM 16.12 61.016 0 6.74 11.5 9.41
5/18/2022 8:45:00 AM 17.02 62.636 0 6.67 10.84 9.25
5/18/2022 9:00:00 AM 17.42 63.356 0 6.77 9.1 9.22
5/18/2022 9:15:00 AM 17.48 63.464 0 6.73 8.36 9.22
5/18/2022 9:30:00 AM 17.27 63.086 0 6.81 7.41 9.26
5/18/2022 9:45:00 AM 16.86 62.348 0 6.91 6.88 9.34
5/18/2022 10:00:00 AM 16.52 61.736 0 7 6.7 9.41
5/18/2022 10:15:00 AM 16.32 61.376 0 7.07 11.26 9.45
5/18/2022 10:30:00 AM 16.23 61.214 0 7.1 9.24 9.46
5/18/2022 10:45:00 AM 16.21 61.178 0 7.15 7.81 9.46
5/18/2022 11:00:00 AM 15.65 60.17 0.263 7.91 3.13 10.47
5/18/2022 11:15:00 AM 15.88 60.584 0.262 8 54.98 10.52
5/18/2022 11:30:00 AM 16.08 60.944 0.261 8.06 3.04 10.55
5/18/2022 11:45:00 AM 16.28 61.304 0.257 8.12 2.75 10.6
5/18/2022 12:00:00 PM 16.52 61.736 0.255 8.19 1.91 10.66
5/18/2022 12:15:00 PM 16.76 62.168 0.255 8.28 1.84 10.66
5/18/2022 12:30:00 PM 17.02 62.636 0.253 8.29 1.71 10.68
5/18/2022 12:45:00 PM 17.28 63.104 0.252 8.33 1.83 10.67
5/18/2022 1:00:00 PM 17.53 63.554 0.25 8.4 2.37 10.7
5/18/2022 1:15:00 PM 17.74 63.932 0.249 8.43 1.78 10.67
5/18/2022 1:30:00 PM 17.96 64.328 0.248 8.45 1.67 10.64
5/18/2022 1:45:00 PM 18.08 64.544 0.246 8.49 3.54 10.61
5/18/2022 2:00:00 PM 18.14 64.652 0.247 8.5 1.62 10.56
5/18/2022 2:15:00 PM 18.24 64.832 0.244 8.52 1.42 10.57
5/18/2022 2:30:00 PM 18.31 64.958 0.228 8.53 4.43 10.55
5/18/2022 2:45:00 PM 18.39 65.102 0.243 8.54 5.79 10.52
5/18/2022 3:00:00 PM 18.46 65.228 0.243 8.53 1.74 10.47
5/18/2022 3:15:00 PM 18.61 65.498 0.244 8.54 3.52 10.43
5/18/2022 3:30:00 PM 18.75 65.75 0.24 8.55 5.04 10.41
5/18/2022 3:45:00 PM 18.77 65.786 0.241 8.53 1.76 10.33
5/18/2022 4:00:00 PM 18.86 65.948 0.241 8.51 4.86 10.27
5/18/2022 4:15:00 PM 18.82 65.876 0.241 8.47 5.63 10.14
5/18/2022 4:30:00 PM 18.82 65.876 0.109 8.45 1.87 10.1
5/18/2022 4:45:00 PM 18.8 65.84 0.243 8.42 6.6 10
5/18/2022 5:00:00 PM 18.77 65.786 0.244 8.36 13.37 9.89
5/18/2022 5:15:00 PM 18.66 65.588 0.24 8.19 1.78 9.51
5/18/2022 5:30:00 PM 18.6 65.48 0.241 8.07 1.86 9.32
5/18/2022 5:45:00 PM 18.49 65.282 0.227 7.91 4.45 9.04
5/18/2022 6:00:00 PM 18.4 65.12 0.242 7.78 1.42 8.78
5/18/2022 6:15:00 PM 18.32 64.976 0.243 7.7 0.91 8.62
5/18/2022 6:30:00 PM 18.25 64.85 0.242 7.65 1.82 8.57
5/18/2022 6:45:00 PM 18.19 64.742 0.243 7.63 1.97 8.61
5/18/2022 7:00:00 PM 18.12 64.616 0.242 7.62 1.86 8.61
5/18/2022 7:15:00 PM 18.05 64.49 0.243 7.59 1.77 8.53
5/18/2022 7:30:00 PM 17.96 64.328 0.243 7.54 2.98 8.45
5/18/2022 7:45:00 PM 17.86 64.148 0.244 7.51 8.06 8.34
5/18/2022 8:00:00 PM 17.76 63.968 0.243 7.49 2.05 8.24
5/18/2022 8:15:00 PM 17.64 63.752 0.243 7.45 6.77 8.18
5/18/2022 8:30:00 PM 17.53 63.554 0.244 7.42 2.03 8.12
5/18/2022 8:45:00 PM 17.42 63.356 0.244 7.41 1.97 8.09
5/18/2022 9:00:00 PM 17.3 63.14 0.244 7.38 0.9 8.07
5/18/2022 9:15:00 PM 17.2 62.96 0.246 7.37 28.82 8.07
5/18/2022 9:30:00 PM 17.09 62.762 0.246 7.36 2.13 8.07
5/18/2022 9:45:00 PM 16.99 62.582 0.244 7.36 2.94 8.09
5/18/2022 10:00:00 PM 16.9 62.42 0.245 7.35 2.28 8.1
5/18/2022 10:15:00 PM 16.81 62.258 0.246 7.38 2.2 8.13
5/18/2022 10:30:00 PM 16.71 62.078 0.246 7.33 1.31 8.13
5/18/2022 10:45:00 PM 16.63 61.934 0.246 7.33 0.83 8.15
5/18/2022 11:00:00 PM 16.55 61.79 0.242 7.34 4.06 8.16
5/18/2022 11:15:00 PM 16.47 61.646 0.245 7.32 10.45 8.18
5/18/2022 11:30:00 PM 16.4 61.52 0.247 7.32 3.52 8.19
5/18/2022 11:45:00 PM 16.33 61.394 0.244 7.32 3.95 8.21
5/19/2022 12:00:00 AM 16.25 61.25 0.245 7.32 3.81 8.22
5/19/2022 12:15:00 AM 16.18 61.124 0.245 7.32 2.18 8.24
5/19/2022 12:30:00 AM 16.11 60.998 0.198 7.32 3.21 8.25
5/19/2022 12:45:00 AM 16.04 60.872 0.246 7.32 4.77 8.26
5/19/2022 1:00:00 AM 15.98 60.764 0.244 7.32 3.74 8.27
5/19/2022 1:15:00 AM 15.93 60.674 0.243 7.31 2.37 8.28
5/19/2022 1:30:00 AM 15.88 60.584 0.245 7.32 6.66 8.29
5/19/2022 1:45:00 AM 15.83 60.494 0.246 7.31 3.34 8.3
5/19/2022 2:00:00 AM 15.79 60.422 0.246 7.31 3.13 8.31
5/19/2022 2:15:00 AM 15.74 60.332 0.143 7.3 2.9 8.31
5/19/2022 2:30:00 AM 15.7 60.26 0.246 7.31 2.68 8.33
5/19/2022 2:45:00 AM 15.67 60.206 0.247 7.27 4.59 8.34
5/19/2022 3:00:00 AM 15.63 60.134 0.247 7.3 3.34 8.36
5/19/2022 3:15:00 AM 15.6 60.08 0.246 7.29 2.49 8.37
5/19/2022 3:30:00 AM 15.57 60.026 0.246 7.29 2.72 8.38
5/19/2022 3:45:00 AM 15.54 59.972 0.246 7.29 2.63 8.39
5/19/2022 4:00:00 AM 15.51 59.918 0.212 7.29 5.11 8.4
5/19/2022 4:15:00 AM 15.48 59.864 0.246 7.3 6.37 8.41
5/19/2022 4:30:00 AM 15.45 59.81 0.248 7.29 27.08 8.41
5/19/2022 4:45:00 AM 15.42 59.756 0.248 7.29 3.03 8.42
5/19/2022 5:00:00 AM 15.4 59.72 0.25 7.29 3.41 8.43
5/19/2022 5:15:00 AM 15.37 59.666 0.25 7.31 2.84 8.44
5/19/2022 5:30:00 AM 15.34 59.612 0.251 7.3 4.68 8.46
5/19/2022 5:45:00 AM 15.3 59.54 0.254 7.29 3.29 8.48
5/19/2022 6:00:00 AM 15.26 59.468 0.255 7.29 3 8.48
5/19/2022 6:15:00 AM 15.23 59.414 0.258 7.31 3.07 8.52
5/19/2022 6:30:00 AM 15.2 59.36 0.259 7.36 3.13 8.56
5/19/2022 6:45:00 AM 15.17 59.306 0.261 7.31 2.92 8.61
5/19/2022 7:00:00 AM 15.16 59.288 0.261 7.3 3.04 8.66
5/19/2022 7:15:00 AM 15.15 59.27 0.262 7.35 2.95 8.76
5/19/2022 7:30:00 AM 15.15 59.27 0.262 7.4 3.29 8.93
5/19/2022 7:45:00 AM 15.14 59.252 0.188 7.41 3.44 9
5/19/2022 8:00:00 AM 15.12 59.216 0.265 7.41 3.78 8.99
5/19/2022 8:15:00 AM 15.1 59.18 0.229 7.46 3.88 9
5/19/2022 8:30:00 AM 15.08 59.144 0.267 7.41 2.83 8.97
5/19/2022 8:45:00 AM 15.07 59.126 0.269 7.41 3.53 8.96
5/19/2022 9:00:00 AM 15.07 59.126 0.269 7.42 2.67 9.06
5/19/2022 9:15:00 AM 15.08 59.144 0.269 7.47 3.03 9.17
5/19/2022 9:30:00 AM 15.09 59.162 0.271 7.49 2.82 9.22
5/19/2022 9:45:00 AM 15.09 59.162 0.272 7.47 3.04 9.24
5/19/2022 10:00:00 AM 15.1 59.18 0.273 7.49 2.74 9.26
5/19/2022 10:15:00 AM 15.12 59.216 0.275 7.5 2.77 9.33
5/19/2022 10:30:00 AM 15.15 59.27 0.276 7.53 2.96 9.43
5/19/2022 10:45:00 AM 15.19 59.342 0.278 7.58 2.78 9.47
5/19/2022 11:00:00 AM 15.2 59.36 0.281 7.55 2.84 9.47
5/19/2022 11:15:00 AM 15.25 59.45 0.281 7.58 2.53 9.56
5/19/2022 11:30:00 AM 15.29 59.522 0.281 7.59 2.65 9.58
5/19/2022 11:45:00 AM 15.36 59.648 0.28 7.64 2.66 9.71
5/19/2022 12:00:00 PM 15.45 59.81 0.28 7.7 2.41 9.9
5/19/2022 12:15:00 PM 15.52 59.936 0.28 7.79 2.41 10.02
5/19/2022 12:30:00 PM 15.64 60.152 0.276 7.83 2.41 10.16
5/19/2022 12:45:00 PM 15.84 60.512 0.275 7.93 2.02 10.36
5/19/2022 1:00:00 PM 16.01 60.818 0.25 8.01 3.15 10.49
5/19/2022 1:15:00 PM 16.17 61.106 0.27 8.08 2.18 10.56
5/19/2022 1:30:00 PM 16.31 61.358 0.269 8.12 2.06 10.53
5/19/2022 1:45:00 PM 16.4 61.52 0.267 8.14 1.96 10.48
5/19/2022 2:00:00 PM 16.46 61.628 0.264 8.09 2.06 10.35
5/19/2022 2:15:00 PM 16.6 61.88 0.262 8.16 10.92 10.45
5/19/2022 2:30:00 PM 16.8 62.24 0.261 8.2 2.19 10.47
5/19/2022 2:45:00 PM 17.02 62.636 0.259 8.25 2.14 10.51
5/19/2022 3:00:00 PM 17.35 63.23 0.258 8.31 2 10.59
5/19/2022 3:15:00 PM 17.53 63.554 0.258 8.33 9.02 10.53
5/19/2022 3:30:00 PM 17.65 63.77 0.256 8.35 2.08 10.48
5/19/2022 3:45:00 PM 17.81 64.058 0.256 8.34 2.02 10.42
5/19/2022 4:00:00 PM 17.95 64.31 0.255 8.34 2.22 10.35
5/19/2022 4:15:00 PM 18 64.4 0.254 8.3 2.23 10.26
5/19/2022 4:30:00 PM 18.02 64.436 0.254 8.26 2 10.07
5/19/2022 4:45:00 PM 18.05 64.49 0.253 8.19 1.58 9.93
5/19/2022 5:00:00 PM 17.98 64.364 0.253 7.99 2.04 9.44
5/19/2022 5:15:00 PM 17.95 64.31 0.252 7.86 2.03 9.23
5/19/2022 5:30:00 PM 18 64.4 0.252 7.85 2 9.25
5/19/2022 5:45:00 PM 18.06 64.508 0.251 7.84 2.09 9.27
5/19/2022 6:00:00 PM 18.07 64.526 0.252 7.82 2.33 9.25
5/19/2022 6:15:00 PM 18.08 64.544 0.251 7.8 2.05 9.21
5/19/2022 6:30:00 PM 18.06 64.508 0.251 7.77 1.99 9.12
5/19/2022 6:45:00 PM 18.01 64.418 0.251 7.72 2.11 8.99
5/19/2022 7:00:00 PM 17.95 64.31 0.251 7.67 2.13 8.84
5/19/2022 7:15:00 PM 17.91 64.238 0.25 7.6 2.2 8.7
5/19/2022 7:30:00 PM 17.86 64.148 0.25 7.56 1.92 8.57
5/19/2022 7:45:00 PM 17.79 64.022 0.25 7.53 2.01 8.46
5/19/2022 8:00:00 PM 17.72 63.896 0.25 7.48 2.19 8.38
5/19/2022 8:15:00 PM 17.65 63.77 0.25 7.46 2.03 8.31
5/19/2022 8:30:00 PM 17.56 63.608 0.228 7.41 2.85 8.26
5/19/2022 8:45:00 PM 17.47 63.446 0.249 7.38 2.3 8.21
5/19/2022 9:00:00 PM 17.38 63.284 0.25 7.37 2.4 8.19
5/19/2022 9:15:00 PM 17.28 63.104 0.25 7.38 2.15 8.18
5/19/2022 9:30:00 PM 17.17 62.906 0.25 7.3 2.68 8.18
5/19/2022 9:45:00 PM 17.06 62.708 0.25 7.32 2.38 8.2
5/19/2022 10:00:00 PM 16.95 62.51 0.249 7.32 5.96 8.22
5/19/2022 10:15:00 PM 16.82 62.276 0.25 7.31 2.96 8.24
5/19/2022 10:30:00 PM 16.69 62.042 0.25 7.3 3.1 8.27
5/19/2022 10:45:00 PM 16.56 61.808 0.25 7.29 2.52 8.3
5/19/2022 11:00:00 PM 16.42 61.556 0.249 7.29 3.25 8.33
5/19/2022 11:15:00 PM 16.29 61.322 0.25 7.31 3.22 8.36
5/19/2022 11:30:00 PM 16.17 61.106 0.25 7.28 3.34 8.39
5/19/2022 11:45:00 PM 16.04 60.872 0.25 7.29 2.39 8.42
5/20/2022 12:00:00 AM 15.93 60.674 0.25 7.29 2.29 8.44
5/20/2022 12:15:00 AM 15.82 60.476 0.249 7.31 4.06 8.47
5/20/2022 12:30:00 AM 15.73 60.314 0.249 7.3 2.59 8.48
5/20/2022 12:45:00 AM 15.66 60.188 0.249 7.3 4.44 8.51
5/20/2022 1:00:00 AM 15.61 60.098 0.249 7.3 2.7 8.54
5/20/2022 1:15:00 AM 15.57 60.026 0.249 7.29 2.38 8.54
5/20/2022 1:30:00 AM 15.53 59.954 0.249 7.29 2.42 8.55
5/20/2022 1:45:00 AM 15.5 59.9 0.248 7.29 2.97 8.55
5/20/2022 2:00:00 AM 15.46 59.828 0.248 7.29 2.86 8.56
5/20/2022 2:15:00 AM 15.42 59.756 0.248 7.31 2.62 8.57
5/20/2022 2:30:00 AM 15.38 59.684 0.248 7.31 2.56 8.59
5/20/2022 2:45:00 AM 15.34 59.612 0.248 7.29 2.39 8.58
5/20/2022 3:00:00 AM 15.31 59.558 0.248 7.3 2.43 8.58
5/20/2022 3:15:00 AM 15.28 59.504 0.247 7.3 2.54 8.61
5/20/2022 3:30:00 AM 15.24 59.432 0.247 7.3 2.62 8.6
5/20/2022 3:45:00 AM 15.21 59.378 0.247 7.32 2.39 8.61
5/20/2022 4:00:00 AM 15.18 59.324 0.247 7.31 2.53 8.61
5/20/2022 4:15:00 AM 15.16 59.288 0.247 7.3 2.49 8.64
5/20/2022 4:30:00 AM 15.12 59.216 0.246 7.3 2.86 8.63
5/20/2022 4:45:00 AM 15.09 59.162 0.246 7.3 2.39 8.65
5/20/2022 5:00:00 AM 15.05 59.09 0.246 7.3 2.5 8.67
5/20/2022 5:15:00 AM 15.02 59.036 0.246 7.3 2.68 8.67
5/20/2022 5:30:00 AM 14.98 58.964 0.246 7.33 2.56 8.68
5/20/2022 5:45:00 AM 14.95 58.91 0.245 7.32 2.61 8.7
5/20/2022 6:00:00 AM 14.92 58.856 0.245 7.29 2.37 8.73
5/20/2022 6:15:00 AM 14.9 58.82 0.245 7.33 2.57 8.81
5/20/2022 6:30:00 AM 14.87 58.766 0.245 7.33 2.71 8.88
5/20/2022 6:45:00 AM 14.87 58.766 0.245 7.36 2.26 9.03
5/20/2022 7:00:00 AM 14.88 58.784 0.245 7.38 2.35 9.17
5/20/2022 7:15:00 AM 14.91 58.838 0.245 7.42 3.29 9.33
5/20/2022 7:30:00 AM 14.95 58.91 0.245 7.45 2.29 9.51
5/20/2022 7:45:00 AM 14.99 58.982 0.245 7.5 2.22 9.67
5/20/2022 8:00:00 AM 15.05 59.09 0.244 7.56 2.57 9.84
5/20/2022 8:15:00 AM 15.12 59.216 0.244 7.58 2.16 9.95
5/20/2022 8:30:00 AM 15.21 59.378 0.244 7.63 2.03 10.03
5/20/2022 8:45:00 AM 15.23 59.414 0.244 7.6 2.02 9.85
5/20/2022 9:00:00 AM 15.31 59.558 0.244 7.64 2.06 9.98
5/20/2022 9:15:00 AM 15.47 59.846 0.244 7.7 2.04 10.2
5/20/2022 9:30:00 AM 15.61 60.098 0.244 7.78 2.3 10.33
5/20/2022 9:45:00 AM 15.68 60.224 0.243 7.81 3.99 10.34
5/20/2022 10:00:00 AM 15.72 60.296 0.244 7.81 2.06 10.23
5/20/2022 10:15:00 AM 15.78 60.404 0.207 7.8 2.47 10.15
5/20/2022 10:30:00 AM 15.86 60.548 0.244 7.78 2.09 10.07
5/20/2022 10:45:00 AM 15.94 60.692 0.238 7.78 3.23 10.02
5/20/2022 11:00:00 AM 16.01 60.818 0.244 7.79 2.06 10
5/20/2022 11:15:00 AM 16.07 60.926 0.244 7.78 1.99 9.94
5/20/2022 11:30:00 AM 16.15 61.07 0.244 7.81 2.1 10.01
5/20/2022 11:45:00 AM 16.23 61.214 0.244 7.85 2.01 10.1
5/20/2022 12:00:00 PM 16.29 61.322 0.242 7.82 2.66 9.96
5/20/2022 12:15:00 PM 16.36 61.448 0.237 7.85 3.06 10.01
5/20/2022 12:30:00 PM 16.46 61.628 0.235 7.91 2.9 10.16
5/20/2022 12:45:00 PM 16.65 61.97 0.244 8.01 4.8 10.38
5/20/2022 1:00:00 PM 16.96 62.528 0.244 8.14 2.98 10.58
5/20/2022 1:15:00 PM 17.23 63.014 0.243 8.25 2.1 10.71
5/20/2022 1:30:00 PM 17.54 63.572 0.244 8.32 2.94 10.8
5/20/2022 1:45:00 PM 17.83 64.094 0.243 8.42 2.1 10.88
5/20/2022 2:00:00 PM 17.99 64.382 0.243 8.45 2.73 10.82
5/20/2022 2:15:00 PM 18.1 64.58 0.243 8.45 3.72 10.67
5/20/2022 2:30:00 PM 18.2 64.76 0.243 8.43 3.78 10.61
5/20/2022 2:45:00 PM 18.19 64.742 0.244 8.31 2.18 10.18
5/20/2022 3:00:00 PM 18.16 64.688 0.239 8.04 3.52 9.7
5/20/2022 3:15:00 PM 18.29 64.922 0.239 8.09 3.88 9.9
5/20/2022 3:30:00 PM 18.41 65.138 0.239 8.14 4.73 9.99
5/20/2022 3:45:00 PM 18.48 65.264 0.239 8.14 6.98 10
5/20/2022 4:00:00 PM 18.5 65.3 0.239 8.16 5.57 9.99
5/20/2022 4:15:00 PM 18.56 65.408 0.241 8.15 5.17 10.01
5/20/2022 4:30:00 PM 18.5 65.3 0.242 8.09 4.22 9.78
5/20/2022 4:45:00 PM 18.5 65.3 0.244 8.05 3.51 9.72
5/20/2022 5:00:00 PM 18.48 65.264 0.246 7.93 3.29 9.41
5/20/2022 5:15:00 PM 18.42 65.156 0.251 7.86 1.93 9.27
5/20/2022 5:30:00 PM 18.33 64.994 0.255 7.75 3.63 8.97
5/20/2022 5:45:00 PM 18.29 64.922 0.253 7.65 3.51 8.75
5/20/2022 6:00:00 PM 18.27 64.886 0.247 7.59 5.06 8.61
5/20/2022 6:15:00 PM 18.19 64.742 0.247 7.52 11.56 8.46
5/20/2022 6:30:00 PM 18.05 64.49 0.238 7.48 24.84 8.42
5/20/2022 6:45:00 PM 17.97 64.346 0.234 7.45 26.53 8.44
5/20/2022 7:00:00 PM 17.77 63.986 0.254 7.44 26.46 8.45
5/20/2022 7:15:00 PM 17.33 63.194 0.267 7.37 59.95 8.38
5/20/2022 7:30:00 PM 17.19 62.942 0.225 7.33 162.59 8.45
5/20/2022 7:45:00 PM 17.14 62.852 0.206 7.32 144.35 8.51
5/20/2022 8:00:00 PM 17.21 62.978 0.193 7.28 115.03 8.51
5/20/2022 8:15:00 PM 17.29 63.122 0.186 7.27 108.86 8.49
5/20/2022 8:30:00 PM 17.28 63.104 0.192 7.27 96.56 8.49
5/20/2022 8:45:00 PM 17.23 63.014 0.199 7.29 89.33 8.49
5/20/2022 9:00:00 PM 17.15 62.87 0.205 7.26 75.93 8.51
5/20/2022 9:15:00 PM 17.06 62.708 0.214 7.27 64.04 8.52
5/20/2022 9:30:00 PM 17 62.6 0.225 7.29 60.52 8.53
5/20/2022 9:45:00 PM 16.96 62.528 0.239 7.28 24.17 8.54
5/20/2022 10:00:00 PM 16.93 62.474 0.247 7.3 39.29 8.57
5/20/2022 10:15:00 PM 16.91 62.438 0.251 7.3 26.45 8.59
5/20/2022 10:30:00 PM 16.94 62.492 0.25 7.3 32.16 8.59
5/20/2022 10:45:00 PM 16.96 62.528 0.247 7.31 35.03 8.58
5/20/2022 11:00:00 PM 16.99 62.582 0.241 7.32 32.08 8.58
5/20/2022 11:15:00 PM 17.02 62.636 0.185 7.31 31.92 8.58
5/20/2022 11:30:00 PM 17.05 62.69 0.231 7.31 30.72 8.58
5/20/2022 11:45:00 PM 17.07 62.726 0.227 7.32 28.86 8.58
5/21/2022 12:00:00 AM 17.05 62.69 0.223 7.33 28.48 8.61
5/21/2022 12:15:00 AM 17.02 62.636 0.221 7.32 21.64 8.62
5/21/2022 12:30:00 AM 17.01 62.618 0.219 7.31 23.68 8.63
5/21/2022 12:45:00 AM 17.02 62.636 0.218 7.32 21.75 8.63
5/21/2022 1:00:00 AM 17.05 62.69 0.216 7.33 24.01 8.63
5/21/2022 1:15:00 AM 17.09 62.762 0.215 7.33 20.11 8.62
5/21/2022 1:30:00 AM 17.14 62.852 0.214 7.35 18.2 8.62
5/21/2022 1:45:00 AM 17.18 62.924 0.212 7.33 16.32 8.62
5/21/2022 2:00:00 AM 17.22 62.996 0.212 7.33 16.26 8.61
5/21/2022 2:15:00 AM 17.24 63.032 0.211 7.33 14.84 8.61
5/21/2022 2:30:00 AM 17.25 63.05 0.21 7.33 18.74 8.62
5/21/2022 2:45:00 AM 17.23 63.014 0.209 7.33 13.79 8.62
5/21/2022 3:00:00 AM 17.19 62.942 0.209 7.33 12.92 8.63
5/21/2022 3:15:00 AM 17.13 62.834 0.209 7.34 13.4 8.65
5/21/2022 3:30:00 AM 17.05 62.69 0.207 7.32 25.69 8.66
5/21/2022 3:45:00 AM 16.96 62.528 0.208 7.32 12.31 8.69
5/21/2022 4:00:00 AM 16.87 62.366 0.208 7.32 10.56 8.71
5/21/2022 4:15:00 AM 16.78 62.204 0.208 7.3 3.83 8.74
5/21/2022 4:30:00 AM 16.72 62.096 0.208 7.31 16.12 8.75
5/21/2022 4:45:00 AM 16.67 62.006 0.207 7.32 9.76 8.76
5/21/2022 5:00:00 AM 16.64 61.952 0.195 7.31 13.12 8.77
5/21/2022 5:15:00 AM 16.63 61.934 0.208 7.31 9.34 8.77
5/21/2022 5:30:00 AM 16.64 61.952 0.208 7.31 9.07 8.76
5/21/2022 5:45:00 AM 16.64 61.952 0.208 7.32 9.09 8.76
5/21/2022 6:00:00 AM 16.65 61.97 0.208 7.33 8.01 8.76
5/21/2022 6:15:00 AM 16.65 61.97 0.208 7.31 7.48 8.78
5/21/2022 6:30:00 AM 16.65 61.97 0.209 7.32 7.71 8.8
5/21/2022 6:45:00 AM 16.66 61.988 0.209 7.33 7.58 8.83
5/21/2022 7:00:00 AM 16.66 61.988 0.209 7.34 7.06 8.86
5/21/2022 7:15:00 AM 16.67 62.006 0.21 7.33 7.25 8.89
5/21/2022 7:30:00 AM 16.7 62.06 0.204 7.35 8.33 8.94
5/21/2022 7:45:00 AM 16.73 62.114 0.209 7.36 7.82 9
5/21/2022 8:00:00 AM 16.78 62.204 0.21 7.37 7.35 9.05
5/21/2022 8:15:00 AM 16.83 62.294 0.209 7.39 7.77 9.11
5/21/2022 8:30:00 AM 16.9 62.42 0.21 7.42 5.96 9.17
5/21/2022 8:45:00 AM 16.97 62.546 0.209 7.44 5.99 9.21
5/21/2022 9:00:00 AM 17.06 62.708 0.209 7.46 5.57 9.26
5/21/2022 9:15:00 AM 17.15 62.87 0.209 7.49 5.94 9.3
5/21/2022 9:30:00 AM 17.26 63.068 0.209 7.52 6.22 9.33
5/21/2022 9:45:00 AM 17.38 63.284 0.209 7.54 5.9 9.37
5/21/2022 10:00:00 AM 17.52 63.536 0.209 7.57 5.88 9.4
5/21/2022 10:15:00 AM 17.69 63.842 0.209 7.59 5.63 9.43
5/21/2022 10:30:00 AM 17.86 64.148 0.209 7.63 5.4 9.46
5/21/2022 10:45:00 AM 18.05 64.49 0.21 7.66 5.33 9.48
5/21/2022 11:00:00 AM 18.25 64.85 0.21 7.68 5.52 9.49
5/21/2022 11:15:00 AM 18.46 65.228 0.21 7.71 6.43 9.51
5/21/2022 11:30:00 AM 18.68 65.624 0.21 7.74 5.68 9.52
5/21/2022 11:45:00 AM 18.9 66.02 0.21 7.77 5.59 9.52
5/21/2022 12:00:00 PM 19.13 66.434 0.21 7.8 6.25 9.52
5/21/2022 12:15:00 PM 19.38 66.884 0.21 7.82 5.46 9.51
5/21/2022 12:30:00 PM 19.61 67.298 0.211 7.84 5.42 9.51
5/21/2022 12:45:00 PM 19.85 67.73 0.211 7.87 5.18 9.5
5/21/2022 1:00:00 PM 20.06 68.108 0.211 7.89 5.35 9.49
5/21/2022 1:15:00 PM 20.23 68.414 0.211 7.91 5.24 9.45
5/21/2022 1:30:00 PM 20.44 68.792 0.212 7.92 7.49 9.44
5/21/2022 1:45:00 PM 20.62 69.116 0.212 7.93 10.64 9.42
5/21/2022 2:00:00 PM 20.78 69.404 0.212 7.95 5.46 9.39
5/21/2022 2:15:00 PM 20.92 69.656 0.212 7.95 5.24 9.35
5/21/2022 2:30:00 PM 21.03 69.854 0.212 7.95 5.21 9.32
5/21/2022 2:45:00 PM 21.11 69.998 0.212 7.93 12.88 9.29
5/21/2022 3:00:00 PM 21.16 70.088 0.212 7.92 4.22 9.24
5/21/2022 3:15:00 PM 21.19 70.142 0.212 7.91 1.68 9.2
5/21/2022 3:30:00 PM 21.2 70.16 0.212 7.89 4.48 9.15
5/21/2022 3:45:00 PM 21.19 70.142 0.213 7.86 5.29 9.1
5/21/2022 4:00:00 PM 21.18 70.124 0.213 7.85 26.84 9.05
5/21/2022 4:15:00 PM 21.15 70.07 0.214 7.82 5.43 8.99
5/21/2022 4:30:00 PM 21.12 70.016 0.214 7.8 27.26 8.94
5/21/2022 4:45:00 PM 21.08 69.944 0.097 7.78 5.21 8.87
5/21/2022 5:00:00 PM 21.04 69.872 0.215 7.74 5.01 8.83
5/21/2022 5:15:00 PM 20.96 69.728 0.216 7.7 7.5 8.73
5/21/2022 5:30:00 PM 20.89 69.602 0.215 7.67 12.79 8.68
5/21/2022 5:45:00 PM 20.83 69.494 0.207 7.65 7.26 8.62
5/21/2022 6:00:00 PM 20.74 69.332 0.217 7.62 21.79 8.57
5/21/2022 6:15:00 PM 20.65 69.17 0.217 7.59 10.01 8.51
5/21/2022 6:30:00 PM 20.53 68.954 0.217 7.57 5.26 8.45
5/21/2022 6:45:00 PM 20.4 68.72 0.218 7.54 5 8.4
5/21/2022 7:00:00 PM 20.26 68.468 0.217 7.5 10.17 8.34
5/21/2022 7:15:00 PM 20.11 68.198 0.215 7.48 8.15 8.3
5/21/2022 7:30:00 PM 19.94 67.892 0.217 7.45 7.83 8.27
5/21/2022 7:45:00 PM 19.76 67.568 0.217 7.42 5.55 8.24
5/21/2022 8:00:00 PM 19.55 67.19 0.217 7.41 5.7 8.24
5/21/2022 8:15:00 PM 19.35 66.83 0.217 7.38 5.71 8.23
5/21/2022 8:30:00 PM 19.16 66.488 0.217 7.37 5.96 8.22
5/21/2022 8:45:00 PM 19 66.2 0.218 7.35 6.45 8.22
5/21/2022 9:00:00 PM 18.87 65.966 0.218 7.33 5.98 8.22
5/21/2022 9:15:00 PM 18.75 65.75 0.218 7.32 6.05 8.23
5/21/2022 9:30:00 PM 18.62 65.516 0.218 7.31 6.24 8.24
5/21/2022 9:45:00 PM 18.5 65.3 0.218 7.3 6.14 8.26
5/21/2022 10:00:00 PM 18.37 65.066 0.218 7.3 6.1 8.28
5/21/2022 10:15:00 PM 18.24 64.832 0.218 7.28 6.61 8.31
5/21/2022 10:30:00 PM 18.11 64.598 0.218 7.29 6.56 8.33
5/21/2022 10:45:00 PM 18.02 64.436 0.218 7.27 4.18 8.34
5/21/2022 11:00:00 PM 17.96 64.328 0.219 7.27 12.73 8.35
5/21/2022 11:15:00 PM 17.97 64.346 0.22 7.27 7.27 8.34
5/21/2022 11:30:00 PM 18.03 64.454 0.22 7.27 6.34 8.33
5/21/2022 11:45:00 PM 18.12 64.616 0.221 7.27 6.23 8.3
5/22/2022 12:00:00 AM 18.23 64.814 0.221 7.27 5.99 8.28
5/22/2022 12:15:00 AM 18.33 64.994 0.221 7.28 5.67 8.24
5/22/2022 12:30:00 AM 18.43 65.174 0.221 7.27 5.55 8.23
5/22/2022 12:45:00 AM 18.5 65.3 0.221 7.27 5.81 8.21
5/22/2022 1:00:00 AM 18.55 65.39 0.222 7.27 5.43 8.2
5/22/2022 1:15:00 AM 18.58 65.444 0.222 7.28 5.33 8.19
5/22/2022 1:30:00 AM 18.61 65.498 0.222 7.27 5.21 8.18
5/22/2022 1:45:00 AM 18.63 65.534 0.222 7.27 25.33 8.18
5/22/2022 2:00:00 AM 18.67 65.606 0.222 7.28 31.96 8.17
5/22/2022 2:15:00 AM 18.7 65.66 0.222 7.28 5.08 8.17
5/22/2022 2:30:00 AM 18.73 65.714 0.222 7.29 5.22 8.16
5/22/2022 2:45:00 AM 18.78 65.804 0.222 7.3 5.33 8.15
5/22/2022 3:00:00 AM 18.83 65.894 0.223 7.3 4.67 8.14
5/22/2022 3:15:00 AM 18.87 65.966 0.223 7.3 4.63 8.12
5/22/2022 3:30:00 AM 18.92 66.056 0.223 7.3 4.86 8.12
5/22/2022 3:45:00 AM 18.95 66.11 0.223 7.3 4.65 8.11
5/22/2022 4:00:00 AM 18.97 66.146 0.223 7.3 4.31 8.09
5/22/2022 4:15:00 AM 19 66.2 0.223 7.3 3.87 8.1
5/22/2022 4:30:00 AM 19.01 66.218 0.224 7.3 4.44 8.09
5/22/2022 4:45:00 AM 19.01 66.218 0.224 7.3 4.77 8.09
5/22/2022 5:00:00 AM 19 66.2 0.224 7.3 4.58 8.09
5/22/2022 5:15:00 AM 18.99 66.182 0.224 7.31 5.05 8.09
5/22/2022 5:30:00 AM 18.97 66.146 0.224 7.3 4.56 8.08
5/22/2022 5:45:00 AM 18.95 66.11 0.224 7.3 4.68 8.09
5/22/2022 6:00:00 AM 18.92 66.056 0.224 7.3 4.25 8.11
5/22/2022 6:15:00 AM 18.9 66.02 0.224 7.31 3.88 8.16
5/22/2022 6:30:00 AM 18.87 65.966 0.225 7.31 5.02 8.21
5/22/2022 6:45:00 AM 18.86 65.948 0.225 7.33 3.95 8.27
5/22/2022 7:00:00 AM 18.85 65.93 0.225 7.34 4.2 8.33
5/22/2022 7:15:00 AM 18.84 65.912 0.225 7.35 3.81 8.39
5/22/2022 7:30:00 AM 18.85 65.93 0.225 7.37 3.85 8.49
5/22/2022 7:45:00 AM 18.87 65.966 0.225 7.4 4.11 8.63
5/22/2022 8:00:00 AM 18.89 66.002 0.225 7.42 11.53 8.74
5/22/2022 8:15:00 AM 18.93 66.074 0.225 7.45 1.69 8.86
5/22/2022 8:30:00 AM 18.98 66.164 0.225 7.48 3.66 8.94
5/22/2022 8:45:00 AM 19.01 66.218 0.225 7.51 23.07 9
5/22/2022 9:00:00 AM 19.09 66.362 0.225 7.54 14.09 9.08
5/22/2022 9:15:00 AM 19.18 66.524 0.225 7.58 3.37 9.17
5/22/2022 9:30:00 AM 19.25 66.65 0.225 7.61 5.58 9.25
5/22/2022 9:45:00 AM 19.35 66.83 0.225 7.65 3.51 9.33
5/22/2022 10:00:00 AM 19.43 66.974 0.225 7.68 13.98 9.4
5/22/2022 10:15:00 AM 19.61 67.298 0.224 7.75 17.49 9.52
5/22/2022 10:30:00 AM 19.79 67.622 0.226 7.79 4.92 9.57
5/22/2022 10:45:00 AM 19.98 67.964 0.225 7.85 3.32 9.63
5/22/2022 11:00:00 AM 20.02 68.036 0.226 7.84 2.68 9.54
5/22/2022 11:15:00 AM 20.12 68.216 0.226 7.85 2.52 9.5
5/22/2022 11:30:00 AM 20.25 68.45 0.226 7.89 3.25 9.54
5/22/2022 11:45:00 AM 20.31 68.558 0.226 7.89 3.66 9.49
5/22/2022 12:00:00 PM 20.48 68.864 0.226 7.93 3.55 9.55
5/22/2022 12:15:00 PM 20.73 69.314 0.226 7.99 3.46 9.64
5/22/2022 12:30:00 PM 20.95 69.71 0.226 8.01 23.93 9.63
5/22/2022 12:45:00 PM 21.16 70.088 0.072 8.04 4.2 9.64
5/22/2022 1:00:00 PM 21.41 70.538 0.226 8.07 3.62 9.62
5/22/2022 1:15:00 PM 21.65 70.97 0.226 8.09 8.79 9.6
5/22/2022 1:30:00 PM 21.87 71.366 0.226 8.11 23.19 9.59
5/22/2022 1:45:00 PM 22.08 71.744 0.226 8.13 17.4 9.56
5/22/2022 2:00:00 PM 22.27 72.086 0.22 8.14 7.12 9.53
5/22/2022 2:15:00 PM 22.44 72.392 0.227 8.15 6.33 9.51
5/22/2022 2:30:00 PM 22.58 72.644 0.2 8.15 5.44 9.46
5/22/2022 2:45:00 PM 22.71 72.878 0.115 8.16 3.54 9.42
5/22/2022 3:00:00 PM 22.82 73.076 0.17 8.15 5.88 9.37
5/22/2022 3:15:00 PM 22.91 73.238 0.227 8.13 4.52 9.32
5/22/2022 3:30:00 PM 22.92 73.256 0.225 8.09 9.79 9.19
5/22/2022 3:45:00 PM 22.89 73.202 0.226 8.03 4.51 9.04
5/22/2022 4:00:00 PM 22.93 73.274 0.149 8.02 5.37 9.03
5/22/2022 4:15:00 PM 22.84 73.112 0.229 7.94 4.77 8.77
5/22/2022 4:30:00 PM 22.76 72.968 0.228 7.82 4.5 8.55
5/22/2022 4:45:00 PM 22.66 72.788 0.228 7.74 3.77 8.34
5/22/2022 5:00:00 PM 22.57 72.626 0.228 7.69 6.48 8.27
5/22/2022 5:15:00 PM 22.5 72.5 0.225 7.66 10.23 8.24
5/22/2022 5:30:00 PM 22.42 72.356 0.212 7.65 5.9 8.26
5/22/2022 5:45:00 PM 22.33 72.194 0.228 7.65 5.42 8.3
5/22/2022 6:00:00 PM 22.25 72.05 0.229 7.66 3.81 8.36
5/22/2022 6:15:00 PM 22.11 71.798 0.228 7.65 6.85 8.34
5/22/2022 6:30:00 PM 21.94 71.492 0.228 7.58 5.89 8.14
5/22/2022 6:45:00 PM 21.77 71.186 0.229 7.52 22.97 7.99
5/22/2022 7:00:00 PM 21.57 70.826 0.229 7.48 5.82 7.9
5/22/2022 7:15:00 PM 21.4 70.52 0.228 7.45 5.24 7.85
5/22/2022 7:30:00 PM 21.23 70.214 0.229 7.44 4.3 7.87
5/22/2022 7:45:00 PM 21.05 69.89 0.228 7.41 4.12 7.83
5/22/2022 8:00:00 PM 20.89 69.602 0.183 7.4 4.75 7.83
5/22/2022 8:15:00 PM 20.72 69.296 0.229 7.39 5.18 7.83
5/22/2022 8:30:00 PM 20.57 69.026 0.225 7.37 3.57 7.81
5/22/2022 8:45:00 PM 20.41 68.738 0.23 7.37 3.81 7.81
5/22/2022 9:00:00 PM 20.26 68.468 0.23 7.36 3.78 7.82
5/22/2022 9:15:00 PM 20.09 68.162 0.23 7.36 2.06 7.84
5/22/2022 9:30:00 PM 19.91 67.838 0.23 7.35 3.84 7.87
5/22/2022 9:45:00 PM 19.72 67.496 0.23 7.35 1.75 7.9
5/22/2022 10:00:00 PM 19.52 67.136 0.23 7.35 3.9 7.94
5/22/2022 10:15:00 PM 19.34 66.812 0.23 7.34 3.94 7.97
5/22/2022 10:30:00 PM 19.16 66.488 0.23 7.33 4.13 8.02
5/22/2022 10:45:00 PM 18.99 66.182 0.229 7.34 4.25 8.05
5/22/2022 11:00:00 PM 18.83 65.894 0.229 7.33 4.2 8.08
5/22/2022 11:15:00 PM 18.69 65.642 0.229 7.33 4.09 8.11
5/22/2022 11:30:00 PM 18.57 65.426 0.23 7.33 4.4 8.14
5/22/2022 11:45:00 PM 18.49 65.282 0.23 7.33 4.24 8.15
5/23/2022 12:00:00 AM 18.45 65.21 0.23 7.33 3.76 8.16
5/23/2022 12:15:00 AM 18.43 65.174 0.231 7.33 3.9 8.15
5/23/2022 12:30:00 AM 18.44 65.192 0.231 7.33 3.62 8.16
5/23/2022 12:45:00 AM 18.46 65.228 0.232 7.34 7.56 8.14
5/23/2022 1:00:00 AM 18.51 65.318 0.233 7.33 3.51 8.14
5/23/2022 1:15:00 AM 18.54 65.372 0.234 7.35 3.93 8.13
5/23/2022 1:30:00 AM 18.56 65.408 0.235 7.34 3.73 8.11
5/23/2022 1:45:00 AM 18.57 65.426 0.235 7.34 3.23 8.12
5/23/2022 2:00:00 AM 18.54 65.372 0.236 7.34 3.87 8.13
5/23/2022 2:15:00 AM 18.51 65.318 0.235 7.34 3.29 8.14
5/23/2022 2:30:00 AM 18.46 65.228 0.235 7.34 9.6 8.15
5/23/2022 2:45:00 AM 18.41 65.138 0.236 7.34 2.75 8.15
5/23/2022 3:00:00 AM 18.37 65.066 0.236 7.34 3.76 8.17
5/23/2022 3:15:00 AM 18.33 64.994 0.236 7.34 7.44 8.18
5/23/2022 3:30:00 AM 18.29 64.922 0.236 7.34 12.94 8.19
5/23/2022 3:45:00 AM 18.25 64.85 0.237 7.34 15.62 8.2
5/23/2022 4:00:00 AM 18.2 64.76 0.237 7.34 1.37 8.21
5/23/2022 4:15:00 AM 18.15 64.67 0.237 7.34 3.68 8.22
5/23/2022 4:30:00 AM 18.1 64.58 0.237 7.34 10.94 8.23
5/23/2022 4:45:00 AM 18.05 64.49 0.237 7.34 3.15 8.25
5/23/2022 5:00:00 AM 18.01 64.418 0.237 7.34 3.18 8.25
5/23/2022 5:15:00 AM 17.95 64.31 0.237 7.34 2.63 8.27
5/23/2022 5:30:00 AM 17.91 64.238 0.237 7.3 28.66 8.27
5/23/2022 5:45:00 AM 17.86 64.148 0.237 7.32 30.72 8.29
5/23/2022 6:00:00 AM 17.8 64.04 0.237 7.33 3.07 8.33
5/23/2022 6:15:00 AM 17.74 63.932 0.237 7.34 2.1 8.39
5/23/2022 6:30:00 AM 17.68 63.824 0.238 7.35 1.52 8.46
5/23/2022 6:45:00 AM 17.63 63.734 0.238 7.37 2.86 8.53
5/23/2022 7:00:00 AM 17.58 63.644 0.239 7.38 2.66 8.6
5/23/2022 7:15:00 AM 17.55 63.59 0.239 7.4 2.55 8.68
5/23/2022 7:30:00 AM 17.54 63.572 0.239 7.42 2.81 8.85
5/23/2022 7:45:00 AM 17.51 63.518 0.24 7.44 2.72 8.96
5/23/2022 8:00:00 AM 17.49 63.482 0.24 7.49 2.63 9.08
5/23/2022 8:15:00 AM 17.5 63.5 0.241 7.5 2.75 9.17
5/23/2022 8:30:00 AM 17.5 63.5 0.242 7.53 2.54 9.26
5/23/2022 8:45:00 AM 17.56 63.608 0.242 7.58 2.46 9.46
5/23/2022 9:00:00 AM 17.58 63.644 0.242 7.62 2.35 9.53
5/23/2022 9:15:00 AM 17.55 63.59 0.242 7.63 1.68 9.55
5/23/2022 9:30:00 AM 17.67 63.806 0.242 7.69 2.5 9.72
5/23/2022 9:45:00 AM 17.65 63.77 0.242 7.69 2.52 9.68
5/23/2022 10:00:00 AM 17.72 63.896 0.241 7.73 11.48 9.78
5/23/2022 10:15:00 AM 17.84 64.112 0.24 7.79 18.56 9.93
5/23/2022 10:30:00 AM 17.98 64.364 0.24 7.85 19.95 10.03
5/23/2022 10:45:00 AM 18.11 64.598 0.24 7.9 36.52 10.09
5/23/2022 11:00:00 AM 18.25 64.85 0.239 7.94 2.47 10.11
5/23/2022 11:15:00 AM 18.36 65.048 0.239 7.99 2.44 10.17
5/23/2022 11:30:00 AM 18.46 65.228 0.239 8.02 8.81 10.19
5/23/2022 11:45:00 AM 18.53 65.354 0.238 8.04 16.45 10.15
5/23/2022 12:00:00 PM 18.71 65.67799 0.238 8.07 1.64 10.2
5/23/2022 12:15:00 PM 18.94 66.092 0.238 8.12 2.25 10.25
5/23/2022 12:30:00 PM 19.08 66.344 0.237 8.15 2.79 10.24
5/23/2022 12:45:00 PM 19.19 66.542 0.237 8.18 2.92 10.24
5/23/2022 1:00:00 PM 19.42 66.956 0.237 8.23 2.82 10.29
5/23/2022 1:15:00 PM 19.45 67.01 0.237 8.21 9.56 10.15
5/23/2022 1:30:00 PM 19.45 67.01 0.236 8.2 26.15 10.09
5/23/2022 1:45:00 PM 19.48 67.064 0.236 8.22 25.33 10.11
5/23/2022 2:00:00 PM 19.47 67.046 0.236 8.22 17.37 10.07
5/23/2022 2:15:00 PM 19.55 67.19 0.236 8.27 21.9 10.14
5/23/2022 2:30:00 PM 19.57 67.226 0.236 8.26 24.6 10.12
5/23/2022 2:45:00 PM 19.59 67.262 0.236 8.27 2.1 10.11
5/23/2022 3:00:00 PM 19.63 67.334 0.236 8.27 2.26 10.05
5/23/2022 3:15:00 PM 19.66 67.388 0.236 8.27 2.53 10.01
5/23/2022 3:30:00 PM 19.71 67.478 0.236 8.27 3.43 10
5/23/2022 3:45:00 PM 19.73 67.514 0.236 8.24 18.95 9.91
5/23/2022 4:00:00 PM 19.75 67.55 0.236 8.21 7.84 9.83
5/23/2022 4:15:00 PM 19.75 67.55 0.236 8.15 7.84 9.69
5/23/2022 4:30:00 PM 19.74 67.532 0.236 8.11 2.4 9.62
5/23/2022 4:45:00 PM 19.72 67.496 0.237 8.07 12.29 9.54
5/23/2022 5:00:00 PM 19.67 67.406 0.237 8.02 2.4 9.45
5/23/2022 5:15:00 PM 19.62 67.316 0.237 7.96 2.13 9.35
5/23/2022 5:30:00 PM 19.55 67.19 0.237 7.91 27.13 9.28
5/23/2022 5:45:00 PM 19.49 67.082 0.237 7.87 19.34 9.22
5/23/2022 6:00:00 PM 19.41 66.938 0.238 7.83 2.28 9.13
5/23/2022 6:15:00 PM 19.34 66.812 0.238 7.78 2.03 9.04
5/23/2022 6:30:00 PM 19.26 66.668 0.238 7.72 30.94 8.95
5/23/2022 6:45:00 PM 19.19 66.542 0.238 7.67 16.95 8.81
5/23/2022 7:00:00 PM 19.11 66.398 0.238 7.62 2.42 8.7
5/23/2022 7:15:00 PM 19.04 66.272 0.237 7.58 20.02 8.61
5/23/2022 7:30:00 PM 18.96 66.128 0.239 7.55 21.88 8.53
5/23/2022 7:45:00 PM 18.88 65.984 0.239 7.51 19.82 8.43
5/23/2022 8:00:00 PM 18.8 65.84 0.17 7.48 5.71 8.35
5/23/2022 8:15:00 PM 18.72 65.696 0.236 7.45 18.64 8.29
5/23/2022 8:30:00 PM 18.65 65.57 0.239 7.43 2.39 8.24
5/23/2022 8:45:00 PM 18.58 65.444 0.239 7.42 2.61 8.21
5/23/2022 9:00:00 PM 18.5 65.3 0.24 7.4 2.45 8.19
5/23/2022 9:15:00 PM 18.42 65.156 0.24 7.39 2.56 8.18
5/23/2022 9:30:00 PM 18.35 65.03 0.24 7.38 31.55 8.18
5/23/2022 9:45:00 PM 18.28 64.904 0.159 7.38 5.99 8.19
5/23/2022 10:00:00 PM 18.22 64.796 0.122 7.37 4.81 8.2
5/23/2022 10:15:00 PM 18.15 64.67 0.232 7.36 19.43 8.2
5/23/2022 10:30:00 PM 18.09 64.562 0.24 7.36 5.64 8.21
5/23/2022 10:45:00 PM 18.02 64.436 0.225 7.35 20.89 8.22
5/23/2022 11:00:00 PM 17.96 64.328 0.24 7.35 4.11 8.23
5/23/2022 11:15:00 PM 17.91 64.238 0.234 7.34 36.24 8.24
5/23/2022 11:30:00 PM 17.85 64.13 0.24 7.34 5.45 8.25
5/23/2022 11:45:00 PM 17.8 64.04 0.241 7.34 5.14 8.26
5/24/2022 12:00:00 AM 17.74 63.932 0.241 7.34 2.83 8.27
5/24/2022 12:15:00 AM 17.68 63.824 0.238 7.34 2.84 8.29
5/24/2022 12:30:00 AM 17.61 63.698 0.241 7.34 2.04 8.3
5/24/2022 12:45:00 AM 17.55 63.59 0.241 7.32 2.4 8.31
5/24/2022 1:00:00 AM 17.5 63.5 0.241 7.31 4.3 8.32
5/24/2022 1:15:00 AM 17.46 63.428 0.241 7.32 10.91 8.33
5/24/2022 1:30:00 AM 17.41 63.338 0.238 7.32 133.79 8.35
5/24/2022 1:45:00 AM 17.36 63.248 0.241 7.31 2.46 8.36
5/24/2022 2:00:00 AM 17.31 63.158 0.241 7.32 23.44 8.36
5/24/2022 2:15:00 AM 17.27 63.086 0.241 7.31 2.59 8.38
5/24/2022 2:30:00 AM 17.22 62.996 0.241 7.32 2.88 8.4
5/24/2022 2:45:00 AM 17.17 62.906 0.241 7.31 30.11 8.41
5/24/2022 3:00:00 AM 17.11 62.798 0.239 7.31 21.15 8.41
5/24/2022 3:15:00 AM 17.05 62.69 0.241 7.31 2.03 8.43
5/24/2022 3:30:00 AM 17 62.6 0.241 7.31 2.81 8.44
5/24/2022 3:45:00 AM 16.94 62.492 0.24 7.31 3.13 8.45
5/24/2022 4:00:00 AM 16.9 62.42 0.24 7.31 2.89 8.46
5/24/2022 4:15:00 AM 16.85 62.33 0.24 7.3 2.66 8.47
5/24/2022 4:30:00 AM 16.81 62.258 0.24 7.31 2.47 8.48
5/24/2022 4:45:00 AM 16.78 62.204 0.24 7.31 2.58 8.5
5/24/2022 5:00:00 AM 16.74 62.132 0.24 7.33 2.85 8.5
5/24/2022 5:15:00 AM 16.7 62.06 0.24 7.32 2.6 8.51
5/24/2022 5:30:00 AM 16.66 61.988 0.24 7.31 3.2 8.5
5/24/2022 5:45:00 AM 16.61 61.898 0.24 7.32 18.36 8.54
5/24/2022 6:00:00 AM 16.58 61.844 0.24 7.31 21.33 8.55
5/24/2022 6:15:00 AM 16.55 61.79 0.24 7.32 2.45 8.62
5/24/2022 6:30:00 AM 16.53 61.754 0.239 7.33 18.01 8.66
5/24/2022 6:45:00 AM 16.51 61.718 0.24 7.35 11.48 8.75
5/24/2022 7:00:00 AM 16.5 61.7 0.24 7.36 6.69 8.82
5/24/2022 7:15:00 AM 16.5 61.7 0.24 7.39 2.9 8.96
5/24/2022 7:30:00 AM 16.5 61.7 0.24 7.42 16.88 9.1
5/24/2022 7:45:00 AM 16.52 61.736 0.238 7.46 11.25 9.27
5/24/2022 8:00:00 AM 16.52 61.736 0.24 7.49 2.06 9.37
5/24/2022 8:15:00 AM 16.56 61.808 0.24 7.52 4.19 9.5
5/24/2022 8:30:00 AM 16.63 61.934 0.173 7.59 15.73 9.73
5/24/2022 8:45:00 AM 16.69 62.042 0.24 7.65 21.6 9.93
5/24/2022 9:00:00 AM 16.75 62.15 0.24 7.71 1.37 10.04
5/24/2022 9:15:00 AM 16.8 62.24 0.24 7.76 29.18 10.16
5/24/2022 9:30:00 AM 16.83 62.294 0.24 7.79 1.03 10.18
5/24/2022 9:45:00 AM 16.89 62.402 0.24 7.83 12.15 10.23
5/24/2022 10:00:00 AM 16.94 62.492 0.24 7.87 24.9 10.29
5/24/2022 10:15:00 AM 16.99 62.582 0.24 7.89 1.96 10.27
5/24/2022 10:30:00 AM 17.03 62.654 0.24 7.91 2.09 10.26
5/24/2022 10:45:00 AM 17.09 62.762 0.24 7.92 2.14 10.25
5/24/2022 11:00:00 AM 17.14 62.852 0.24 7.96 2.13 10.29
5/24/2022 11:15:00 AM 17.21 62.978 0.24 8 2.03 10.37
5/24/2022 11:30:00 AM 17.27 63.086 0.24 8.03 1.89 10.39
5/24/2022 11:45:00 AM 17.33 63.194 0.24 8.05 8.13 10.4
5/24/2022 12:00:00 PM 17.38 63.284 0.24 8.07 27.22 10.39
5/24/2022 12:15:00 PM 17.45 63.41 0.24 8.1 11.89 10.43
5/24/2022 12:30:00 PM 17.5 63.5 0.24 8.09 2.08 10.37
5/24/2022 12:45:00 PM 17.55 63.59 0.24 8.11 1.89 10.35
5/24/2022 1:00:00 PM 17.61 63.698 0.24 8.11 2.69 10.34
5/24/2022 1:15:00 PM 17.67 63.806 0.24 8.11 2.06 10.31
5/24/2022 1:30:00 PM 17.68 63.824 0.24 8.04 2.67 10.11
5/24/2022 1:45:00 PM 17.66 63.788 0.24 7.92 1.96 9.85
5/24/2022 2:00:00 PM 17.69 63.842 0.24 7.91 1.91 9.83
5/24/2022 2:15:00 PM 17.7 63.86 0.247 7.87 2.14 9.73
5/24/2022 2:30:00 PM 17.74 63.932 0.24 7.9 2.13 9.84
5/24/2022 2:45:00 PM 17.73 63.914 0.241 7.81 2.36 9.56
5/24/2022 3:00:00 PM 17.74 63.932 0.241 7.78 1.97 9.51
5/24/2022 3:15:00 PM 17.74 63.932 0.241 7.74 2.03 9.43
5/24/2022 3:30:00 PM 17.77 63.986 0.241 7.75 4.64 9.49
5/24/2022 3:45:00 PM 17.77 63.986 0.241 7.75 2.08 9.44
5/24/2022 4:00:00 PM 17.74 63.932 0.241 7.67 2.65 9.21
5/24/2022 4:15:00 PM 17.73 63.914 0.242 7.63 1.91 9.09
5/24/2022 4:30:00 PM 17.74 63.932 0.242 7.65 2.01 9.23
5/24/2022 4:45:00 PM 17.8 64.04 0.241 7.72 1.86 9.49
5/24/2022 5:00:00 PM 17.78 64.004 0.241 7.71 1.99 9.43
5/24/2022 5:15:00 PM 17.79 64.022 0.242 7.71 1.9 9.43
5/24/2022 5:30:00 PM 17.78 64.004 0.241 7.71 3.99 9.43
5/24/2022 5:45:00 PM 17.8 64.04 0.238 7.74 60.2 9.52
5/24/2022 6:00:00 PM 17.78 64.004 0.242 7.72 15.25 9.46
5/24/2022 6:15:00 PM 17.77 63.986 0.242 7.7 1.96 9.36
5/24/2022 6:30:00 PM 17.76 63.968 0.242 7.66 2.97 9.26
5/24/2022 6:45:00 PM 17.74 63.932 0.246 7.63 1.83 9.18
5/24/2022 7:00:00 PM 17.72 63.896 0.244 7.6 2.3 9.08
5/24/2022 7:15:00 PM 17.7 63.86 0.244 7.58 2.08 9.02
5/24/2022 7:30:00 PM 17.67 63.806 0.246 7.55 2.3 8.94
5/24/2022 7:45:00 PM 17.65 63.77 0.245 7.51 1.81 8.8
5/24/2022 8:00:00 PM 17.62 63.716 0.247 7.48 2.4 8.72
5/24/2022 8:15:00 PM 17.58 63.644 0.249 7.45 24.17 8.63
5/24/2022 8:30:00 PM 17.55 63.59 0.244 7.43 1.78 8.55
5/24/2022 8:45:00 PM 17.52 63.536 0.248 7.41 2.16 8.5
5/24/2022 9:00:00 PM 17.49 63.482 0.244 7.4 2.81 8.46
5/24/2022 9:15:00 PM 17.45 63.41 0.245 7.38 2.27 8.43
5/24/2022 9:30:00 PM 17.42 63.356 0.246 7.38 2.16 8.42
5/24/2022 9:45:00 PM 17.39 63.302 0.248 7.38 2.28 8.42
5/24/2022 10:00:00 PM 17.35 63.23 0.247 7.37 4.5 8.41
5/24/2022 10:15:00 PM 17.31 63.158 0.249 7.36 11.8 8.42
5/24/2022 10:30:00 PM 17.26 63.068 0.246 7.35 23.26 8.42
5/24/2022 10:45:00 PM 17.21 62.978 0.247 7.35 4.8 8.42
5/24/2022 11:00:00 PM 17.16 62.888 0.243 7.35 8.27 8.43
5/24/2022 11:15:00 PM 17.13 62.834 0.244 7.35 16.09 8.44
5/24/2022 11:30:00 PM 17.08 62.744 0.246 7.35 2.45 8.45
5/24/2022 11:45:00 PM 17.02 62.636 0.248 7.35 2.59 8.46
5/25/2022 12:00:00 AM 16.97 62.546 0.249 7.34 3.82 8.47
5/25/2022 12:15:00 AM 16.91 62.438 0.25 7.34 2.45 8.48
5/25/2022 12:30:00 AM 16.85 62.33 0.25 7.34 6.32 8.49
5/25/2022 12:45:00 AM 16.79 62.222 0.183 7.34 2.2 8.5
5/25/2022 1:00:00 AM 16.74 62.132 0.249 7.34 6.13 8.52
5/25/2022 1:15:00 AM 16.68 62.024 0.249 7.33 2.36 8.53
5/25/2022 1:30:00 AM 16.62 61.916 0.247 7.33 2.23 8.54
5/25/2022 1:45:00 AM 16.56 61.808 0.248 7.32 2.43 8.55
5/25/2022 2:00:00 AM 16.49 61.682 0.247 7.32 10.81 8.56
5/25/2022 2:15:00 AM 16.43 61.574 0.246 7.32 18.26 8.59
5/25/2022 2:30:00 AM 16.36 61.448 0.247 7.32 15.54 8.61
5/25/2022 2:45:00 AM 16.29 61.322 0.248 7.32 2.85 8.62
5/25/2022 3:00:00 AM 16.23 61.214 0.251 7.31 2.92 8.63
5/25/2022 3:15:00 AM 16.18 61.124 0.247 7.31 6.83 8.65
5/25/2022 3:30:00 AM 16.13 61.034 0.133 7.31 2.34 8.67
5/25/2022 3:45:00 AM 16.07 60.926 0.253 7.31 2.23 8.69
5/25/2022 4:00:00 AM 16.02 60.836 0.247 7.31 7.25 8.69
5/25/2022 4:15:00 AM 15.96 60.728 0.246 7.31 3.28 8.71
5/25/2022 4:30:00 AM 15.9 60.62 0.145 7.31 2.49 8.72
5/25/2022 4:45:00 AM 15.84 60.512 0.244 7.31 2.18 8.73
5/25/2022 5:00:00 AM 15.78 60.404 0.244 7.31 21.63 8.75
5/25/2022 5:15:00 AM 15.71 60.278 0.244 7.31 20.88 8.76
5/25/2022 5:30:00 AM 15.64 60.152 0.245 7.3 2.8 8.77
5/25/2022 5:45:00 AM 15.59 60.062 0.247 7.3 8.6 8.8
5/25/2022 6:00:00 AM 15.55 59.99 0.245 7.32 1.76 8.87
5/25/2022 6:15:00 AM 15.52 59.936 0.244 7.32 2.27 8.92
5/25/2022 6:30:00 AM 15.5 59.9 0.247 7.34 5.48 9.01
5/25/2022 6:45:00 AM 15.48 59.864 0.245 7.38 6.8 9.11
5/25/2022 7:00:00 AM 15.47 59.846 0.235 7.37 6.32 9.19
5/25/2022 7:15:00 AM 15.47 59.846 0.244 7.39 12.11 9.29
5/25/2022 7:30:00 AM 15.48 59.864 0.245 7.42 11.8 9.4
5/25/2022 7:45:00 AM 15.5 59.9 0.246 7.45 1.94 9.52
5/25/2022 8:00:00 AM 15.53 59.954 0.247 7.49 3.29 9.67
5/25/2022 8:15:00 AM 15.56 60.008 0.251 7.53 3.18 9.78
5/25/2022 8:30:00 AM 15.62 60.116 0.248 7.57 9.79 9.93
5/25/2022 8:45:00 AM 15.67 60.206 0.247 7.62 19.94 10.06
5/25/2022 9:00:00 AM 15.72 60.296 0.249 7.67 14.44 10.17
5/25/2022 9:15:00 AM 15.77 60.386 0.249 7.7 3.78 10.24
5/25/2022 9:30:00 AM 15.84 60.512 0.248 7.76 1.7 10.35
5/25/2022 9:45:00 AM 15.94 60.692 0.249 7.83 13.33 10.5
5/25/2022 10:00:00 AM 16.02 60.836 0.247 7.87 22.47 10.54
5/25/2022 10:15:00 AM 16.1 60.98 0.208 7.91 89.82 10.6
5/25/2022 10:30:00 AM 16.22 61.196 0.243 7.97 1.96 10.7
5/25/2022 10:45:00 AM 16.36 61.448 0.242 8.05 1.7 10.8
5/25/2022 11:00:00 AM 16.49 61.682 0.242 8.13 1.73 10.85
5/25/2022 11:15:00 AM 16.66 61.988 0.243 8.17 1.66 10.9
5/25/2022 11:30:00 AM 16.82 62.276 0.242 8.19 1.64 10.86
5/25/2022 11:45:00 AM 17.02 62.636 0.243 8.22 1.81 10.84
5/25/2022 12:00:00 PM 17.24 63.032 0.243 8.23 1.08 10.81
5/25/2022 12:15:00 PM 17.47 63.446 0.243 8.23 24.41 10.73
5/25/2022 12:30:00 PM 17.71 63.878 0.243 8.21 12.48 10.65
5/25/2022 12:45:00 PM 17.98 64.364 0.243 8.25 1.89 10.63
5/25/2022 1:00:00 PM 18.26 64.868 0.243 8.25 14.58 10.59
5/25/2022 1:15:00 PM 18.52 65.336 0.242 8.26 20.55 10.54
5/25/2022 1:30:00 PM 18.8 65.84 0.243 8.27 1.6 10.48
5/25/2022 1:45:00 PM 19.07 66.326 0.243 8.28 1.67 10.45
5/25/2022 2:00:00 PM 19.32 66.776 0.243 8.3 2.99 10.39
5/25/2022 2:15:00 PM 19.55 67.19 0.243 8.28 2.47 10.3
5/25/2022 2:30:00 PM 19.77 67.586 0.243 8.31 1.62 10.28
5/25/2022 2:45:00 PM 19.95 67.91 0.239 8.3 5.16 10.25
5/25/2022 3:00:00 PM 20.1 68.18 0.243 8.33 8.25 10.23
5/25/2022 3:15:00 PM 20.23 68.414 0.243 8.34 5.02 10.2
5/25/2022 3:30:00 PM 20.34 68.612 0.243 8.33 28.57 10.13
5/25/2022 3:45:00 PM 20.43 68.774 0.243 8.32 1.58 10.04
5/25/2022 4:00:00 PM 20.51 68.918 0.244 8.3 16.38 9.97
5/25/2022 4:15:00 PM 20.57 69.026 0.243 8.28 1.64 9.86
5/25/2022 4:30:00 PM 20.57 69.026 0.243 8.23 15.29 9.76
5/25/2022 4:45:00 PM 20.55 68.99 0.244 8.19 1.68 9.64
5/25/2022 5:00:00 PM 20.53 68.954 0.244 8.15 8.19 9.56
5/25/2022 5:15:00 PM 20.47 68.846 0.196 8.09 8.54 9.42
5/25/2022 5:30:00 PM 20.49 68.882 0.241 8.06 10.88 9.38
5/25/2022 5:45:00 PM 20.45 68.81 0.244 7.99 3.15 9.25
5/25/2022 6:00:00 PM 20.37 68.666 0.236 7.94 8.82 9.13
5/25/2022 6:15:00 PM 20.32 68.576 0.245 7.89 3.18 9.05
5/25/2022 6:30:00 PM 20.25 68.45 0.245 7.83 5.25 8.9
5/25/2022 6:45:00 PM 20.17 68.306 0.245 7.77 6.21 8.81
5/25/2022 7:00:00 PM 20.09 68.162 0.243 7.71 2.03 8.66
5/25/2022 7:15:00 PM 19.99 67.982 0.243 7.65 1.77 8.5
5/25/2022 7:30:00 PM 19.91 67.838 0.246 7.6 1.74 8.37
5/25/2022 7:45:00 PM 19.82 67.676 0.246 7.56 21.6 8.27
5/25/2022 8:00:00 PM 19.73 67.514 0.247 7.52 1.67 8.17
5/25/2022 8:15:00 PM 19.63 67.334 0.247 7.49 2.18 8.09
5/25/2022 8:30:00 PM 19.52 67.136 0.247 7.46 7.74 8.02
5/25/2022 8:45:00 PM 19.41 66.938 0.247 7.44 8.84 7.99
5/25/2022 9:00:00 PM 19.28 66.704 0.247 7.42 1.93 7.96
5/25/2022 9:15:00 PM 19.16 66.488 0.248 7.41 1.84 7.95
5/25/2022 9:30:00 PM 19.05 66.29 0.248 7.4 16.79 7.95
5/25/2022 9:45:00 PM 18.94 66.092 0.081 7.39 2.27 7.96
5/25/2022 10:00:00 PM 18.84 65.912 0.248 7.38 12.83 7.96
5/25/2022 10:15:00 PM 18.73 65.714 0.249 7.37 6.67 7.98
5/25/2022 10:30:00 PM 18.63 65.534 0.249 7.36 8.62 7.99
5/25/2022 10:45:00 PM 18.55 65.39 0.249 7.36 8.83 8.01
5/25/2022 11:00:00 PM 18.47 65.246 0.249 7.36 2.82 8.03
5/25/2022 11:15:00 PM 18.39 65.102 0.249 7.36 8.29 8.06
5/25/2022 11:30:00 PM 18.3 64.94 0.249 7.36 6.73 8.07
5/25/2022 11:45:00 PM 18.22 64.796 0.196 7.36 6.82 8.09
5/26/2022 12:00:00 AM 18.14 64.652 0.249 7.36 8.28 8.11
5/26/2022 12:15:00 AM 18.06 64.508 0.249 7.35 6.6 8.11
5/26/2022 12:30:00 AM 17.99 64.382 0.249 7.35 4.47 8.13
5/26/2022 12:45:00 AM 17.91 64.238 0.25 7.35 8.66 8.16
5/26/2022 1:00:00 AM 17.84 64.112 0.249 7.35 2.27 8.17
5/26/2022 1:15:00 AM 17.77 63.986 0.249 7.35 10.09 8.19
5/26/2022 1:30:00 AM 17.7 63.86 0.25 7.35 2.87 8.2
5/26/2022 1:45:00 AM 17.65 63.77 0.25 7.35 13.65 8.21
5/26/2022 2:00:00 AM 17.6 63.68 0.25 7.35 7.37 8.23
5/26/2022 2:15:00 AM 17.55 63.59 0.25 7.34 2.28 8.24
5/26/2022 2:30:00 AM 17.5 63.5 0.25 7.34 2.2 8.25
5/26/2022 2:45:00 AM 17.45 63.41 0.25 7.34 2.31 8.27
5/26/2022 3:00:00 AM 17.4 63.32 0.249 7.34 3.08 8.27
5/26/2022 3:15:00 AM 17.33 63.194 0.25 7.34 12.4 8.29
5/26/2022 3:30:00 AM 17.26 63.068 0.11 7.34 2.29 8.31
5/26/2022 3:45:00 AM 17.21 62.978 0.248 7.34 23.05 8.32
5/26/2022 4:00:00 AM 17.16 62.888 0.249 7.34 7.7 8.33
5/26/2022 4:15:00 AM 17.11 62.798 0.249 7.34 28.07 8.34
5/26/2022 4:30:00 AM 17.06 62.708 0.102 7.34 2.44 8.35
5/26/2022 4:45:00 AM 17.01 62.618 0.249 7.34 7.21 8.36
5/26/2022 5:00:00 AM 16.95 62.51 0.248 7.34 2.99 8.38
5/26/2022 5:15:00 AM 16.88 62.384 0.25 7.34 10.78 8.39
5/26/2022 5:30:00 AM 16.81 62.258 0.25 7.33 3.26 8.41
5/26/2022 5:45:00 AM 16.76 62.168 0.249 7.33 14.39 8.43
5/26/2022 6:00:00 AM 16.7 62.06 0.249 7.34 15.82 8.49
5/26/2022 6:15:00 AM 16.66 61.988 0.249 7.34 2.46 8.55
5/26/2022 6:30:00 AM 16.63 61.934 0.239 7.35 9.86 8.63
5/26/2022 6:45:00 AM 16.61 61.898 0.249 7.37 2.93 8.7
5/26/2022 7:00:00 AM 16.59 61.862 0.249 7.39 17.68 8.8
5/26/2022 7:15:00 AM 16.56 61.808 0.251 7.42 1.71 8.97
5/26/2022 7:30:00 AM 16.57 61.826 0.249 7.46 13.58 9.17
5/26/2022 7:45:00 AM 16.55 61.79 0.249 7.48 6.65 9.29
5/26/2022 8:00:00 AM 16.55 61.79 0.253 7.53 1.64 9.44
5/26/2022 8:15:00 AM 16.59 61.862 0.252 7.56 9.4 9.6
5/26/2022 8:30:00 AM 16.6 61.88 0.247 7.61 9.52 9.74
5/26/2022 8:45:00 AM 16.67 62.006 0.231 7.66 7.7 9.9
5/26/2022 9:00:00 AM 16.65 61.97 0.255 7.69 14.08 9.92
5/26/2022 9:15:00 AM 16.67 62.006 0.249 7.72 1.48 10.02
5/26/2022 9:30:00 AM 16.7 62.06 0.251 7.75 12.51 10.06
5/26/2022 9:45:00 AM 16.72 62.096 0.252 7.78 16.86 10.1
5/26/2022 10:00:00 AM 16.85 62.33 0.253 7.83 6.92 10.25
5/26/2022 10:15:00 AM 16.98 62.564 0.248 7.89 1.56 10.35
5/26/2022 10:30:00 AM 17.03 62.654 0.249 7.92 16.05 10.36
5/26/2022 10:45:00 AM 17.11 62.798 0.25 7.98 8.33 10.45
5/26/2022 11:00:00 AM 17.2 62.96 0.251 8.04 19.47 10.53
5/26/2022 11:15:00 AM 17.26 63.068 0.253 8.07 1.59 10.53
5/26/2022 11:30:00 AM 17.42 63.356 0.249 8.14 13.62 10.61
5/26/2022 11:45:00 AM 17.55 63.59 0.248 8.18 8.46 10.66
5/26/2022 12:00:00 PM 17.66 63.788 0.247 8.22 12.32 10.66
5/26/2022 12:15:00 PM 17.75 63.95 0.248 8.24 21.39 10.67
5/26/2022 12:30:00 PM 17.85 64.13 0.248 8.27 1.61 10.68
5/26/2022 12:45:00 PM 17.97 64.346 0.253 8.3 1.56 10.66
5/26/2022 1:00:00 PM 18.3 64.94 0.254 8.34 1.9 10.71
5/26/2022 1:15:00 PM 18.61 65.498 0.248 8.37 1.71 10.72
5/26/2022 1:30:00 PM 18.9 66.02 0.248 8.39 15.5 10.7
5/26/2022 1:45:00 PM 19.12 66.416 0.247 8.4 7.22 10.65
5/26/2022 2:00:00 PM 19.25 66.65 0.137 8.41 1.69 10.59
5/26/2022 2:15:00 PM 19.26 66.668 0.257 8.39 2.83 10.48
5/26/2022 2:30:00 PM 19.3 66.74 0.094 8.4 3.21 10.42
5/26/2022 2:45:00 PM 19.32 66.776 0.248 8.37 2.29 10.28
5/26/2022 3:00:00 PM 19.43 66.974 0.252 8.38 23.09 10.3
5/26/2022 3:15:00 PM 19.46 67.028 0.253 8.35 5.38 10.17
5/26/2022 3:30:00 PM 19.45 67.01 0.248 8.29 12.16 10.02
5/26/2022 3:45:00 PM 19.47 67.046 0.252 8.25 1.79 9.91
5/26/2022 4:00:00 PM 19.48 67.064 0.091 8.21 2.54 9.82
5/26/2022 4:15:00 PM 19.49 67.082 0.26 8.17 15.79 9.75
5/26/2022 4:30:00 PM 19.45 67.01 0.249 8.05 15.14 9.46
5/26/2022 4:45:00 PM 19.48 67.064 0.252 8.02 1.67 9.4
5/26/2022 5:00:00 PM 19.47 67.046 0.21 7.96 6.62 9.29
5/26/2022 5:15:00 PM 19.45 67.01 0.248 7.89 2.66 9.13
5/26/2022 5:30:00 PM 19.41 66.938 0.251 7.81 10.33 8.96
5/26/2022 5:45:00 PM 19.38 66.884 0.254 7.75 10.35 8.8
5/26/2022 6:00:00 PM 19.33 66.794 0.118 7.69 2.3 8.65
5/26/2022 6:15:00 PM 19.29 66.722 0.257 7.63 8.04 8.52
5/26/2022 6:30:00 PM 19.25 66.65 0.108 7.59 3.03 8.42
5/26/2022 6:45:00 PM 19.22 66.596 0.252 7.55 3.6 8.29
5/26/2022 7:00:00 PM 19.19 66.542 0.145 7.52 1.71 8.22
5/26/2022 7:15:00 PM 19.15 66.47 0.218 7.49 6.96 8.15
5/26/2022 7:30:00 PM 19.12 66.416 0.102 7.47 1.91 8.11
5/26/2022 7:45:00 PM 19.08 66.344 0.103 7.45 2.23 8.06
5/26/2022 8:00:00 PM 19.03 66.254 0.198 7.43 8.45 8
5/26/2022 8:15:00 PM 18.97 66.146 0.088 7.42 2.87 7.98
5/26/2022 8:30:00 PM 18.92 66.056 0.252 7.41 7.88 7.95
5/26/2022 8:45:00 PM 18.85 65.93 0.254 7.39 10.75 7.93
5/26/2022 9:00:00 PM 18.79 65.82201 0.258 7.39 1.94 7.92
5/26/2022 9:15:00 PM 18.73 65.714 0.249 7.38 6.68 7.92
5/26/2022 9:30:00 PM 18.67 65.606 0.124 7.37 2.11 7.92
5/26/2022 9:45:00 PM 18.61 65.498 0.263 7.37 2.47 7.94
5/26/2022 10:00:00 PM 18.55 65.39 0.261 7.36 5.39 7.95
5/26/2022 10:15:00 PM 18.5 65.3 0.257 7.36 17.87 7.93
5/26/2022 10:30:00 PM 18.45 65.21 0.26 7.36 14.78 7.97
5/26/2022 10:45:00 PM 18.4 65.12 0.258 7.36 10.63 7.99
5/26/2022 11:00:00 PM 18.34 65.012 0.253 7.36 27.52 8.01
5/26/2022 11:15:00 PM 18.29 64.922 0.179 7.36 9.53 8.01
5/26/2022 11:30:00 PM 18.24 64.832 0.093 7.36 3.2 8.02
5/26/2022 11:45:00 PM 18.18 64.724 0.176 7.36 10.48 8.04
5/27/2022 12:00:00 AM 18.13 64.634 0.263 7.36 19.75 8.06
5/27/2022 12:15:00 AM 18.07 64.526 0.253 7.35 31.44 8.07
5/27/2022 12:30:00 AM 18 64.4 0.258 7.35 26.96 8.08
5/27/2022 12:45:00 AM 17.95 64.31 0.258 7.35 20.67 8.1
5/27/2022 1:00:00 AM 17.89 64.202 0.263 7.35 20.56 8.11
5/27/2022 1:15:00 AM 17.82 64.076 0.253 7.34 2.01 8.13
5/27/2022 1:30:00 AM 17.77 63.986 0.247 7.35 6 8.15
5/27/2022 1:45:00 AM 17.72 63.896 0.262 7.34 8.06 8.16
5/27/2022 2:00:00 AM 17.66 63.788 0.264 7.35 2.17 8.17
5/27/2022 2:15:00 AM 17.61 63.698 0.263 7.34 7.26 8.19
5/27/2022 2:30:00 AM 17.58 63.644 0.263 7.34 3.34 8.19
5/27/2022 2:45:00 AM 17.54 63.572 0.254 7.34 9.93 8.2
5/27/2022 3:00:00 AM 17.52 63.536 0.261 7.34 2.14 8.2
5/27/2022 3:15:00 AM 17.52 63.536 0.109 7.34 2.42 8.22
5/27/2022 3:30:00 AM 17.51 63.518 0.267 7.34 8.89 8.21
5/27/2022 3:45:00 AM 17.5 63.5 0.255 7.34 2.48 8.2
5/27/2022 4:00:00 AM 17.5 63.5 0.254 7.33 2.9 8.2
5/27/2022 4:15:00 AM 17.5 63.5 0.096 7.33 2.57 8.21
5/27/2022 4:30:00 AM 17.51 63.518 0.263 7.34 32.76 8.19
5/27/2022 4:45:00 AM 17.5 63.5 0.231 7.33 6.95 8.21
5/27/2022 5:00:00 AM 17.5 63.5 0.246 7.33 5.54 8.21
5/27/2022 5:15:00 AM 17.48 63.464 0.253 7.33 2.17 8.2
5/27/2022 5:30:00 AM 17.48 63.464 0.256 7.33 5.94 8.21
5/27/2022 5:45:00 AM 17.47 63.446 0.151 7.32 5.64 8.19
5/27/2022 6:00:00 AM 17.47 63.446 0.253 7.33 10.03 8.23
5/27/2022 6:15:00 AM 17.47 63.446 0.245 7.33 11.11 8.25
5/27/2022 6:30:00 AM 17.47 63.446 0.22 7.34 23.5 8.29
5/27/2022 6:45:00 AM 17.48 63.464 0.221 7.36 6.11 8.41
5/27/2022 7:00:00 AM 17.51 63.518 0.082 7.37 2.65 8.48
5/27/2022 7:15:00 AM 17.53 63.554 0.265 7.39 4.67 8.58
5/27/2022 7:30:00 AM 17.55 63.59 0.261 7.4 7.03 8.6
5/27/2022 7:45:00 AM 17.61 63.698 0.263 7.44 2.55 8.75
5/27/2022 8:00:00 AM 17.65 63.77 0.252 7.47 15.36 8.93
5/27/2022 8:15:00 AM 17.7 63.86 0.256 7.5 6.88 9.04
5/27/2022 8:30:00 AM 17.74 63.932 0.252 7.51 11.66 9.04
5/27/2022 8:45:00 AM 17.79 64.022 0.255 7.55 26.13 9.15
5/27/2022 9:00:00 AM 17.84 64.112 0.259 7.58 2.47 9.23
5/27/2022 9:15:00 AM 17.93 64.274 0.252 7.63 19.57 9.43
5/27/2022 9:30:00 AM 18 64.4 0.214 7.67 6.56 9.52
5/27/2022 9:45:00 AM 18.08 64.544 0.217 7.71 7.76 9.61
5/27/2022 10:00:00 AM 18.11 64.598 0.257 7.7 1.72 9.52
5/27/2022 10:15:00 AM 18.17 64.706 0.26 7.72 1.72 9.55
5/27/2022 10:30:00 AM 18.21 64.778 0.259 7.72 1.88 9.51
5/27/2022 10:45:00 AM 18.3 64.94 0.258 7.76 1.75 9.63
5/27/2022 11:00:00 AM 18.34 65.012 0.259 7.76 1.42 9.58
5/27/2022 11:15:00 AM 18.46 65.228 0.259 7.83 1.63 9.77
5/27/2022 11:30:00 AM 18.55 65.39 0.259 7.87 2.02 9.84
5/27/2022 11:45:00 AM 18.68 65.624 0.259 7.94 1.97 9.97
5/27/2022 12:00:00 PM 18.7 65.66 0.259 7.92 1.49 9.8
5/27/2022 12:15:00 PM 18.72 65.696 0.257 7.88 9.95 9.65
5/27/2022 12:30:00 PM 18.72 65.696 0.257 7.83 30.35 9.44
5/27/2022 12:45:00 PM 18.74 65.732 0.26 7.79 30.67 9.38
5/27/2022 1:00:00 PM 18.83 65.894 0.26 7.84 1.49 9.5
5/27/2022 1:15:00 PM 18.94 66.092 0.26 7.88 1.51 9.59
5/27/2022 1:30:00 PM 18.94 66.092 0.262 7.84 1.26 9.47
5/27/2022 1:45:00 PM 18.94 66.092 0.259 7.83 1.65 9.4
5/27/2022 2:00:00 PM 18.95 66.11 0.259 7.82 1.52 9.36
5/27/2022 2:15:00 PM 18.97 66.146 0.259 7.8 1.54 9.29
5/27/2022 2:30:00 PM 18.95 66.11 0.259 7.74 1.9 9.13
5/27/2022 2:45:00 PM 18.96 66.128 0.259 7.73 1.6 9.08
5/27/2022 3:00:00 PM 18.96 66.128 0.259 7.69 1.49 8.99
5/27/2022 3:15:00 PM 18.94 66.092 0.259 7.64 1.79 8.8
5/27/2022 3:30:00 PM 18.96 66.128 0.255 7.64 1.64 8.83
5/27/2022 3:45:00 PM 18.99 66.182 0.255 7.66 1.69 8.94
5/27/2022 4:00:00 PM 19 66.2 0.256 7.66 1.55 8.91
5/27/2022 4:15:00 PM 19.02 66.236 0.258 7.67 1.79 8.98
5/27/2022 4:30:00 PM 19.06 66.308 0.258 7.7 1.77 9.08
5/27/2022 4:45:00 PM 19.1 66.38 0.254 7.73 1.64 9.15
5/27/2022 5:00:00 PM 19.11 66.398 0.253 7.74 1.68 9.14
5/27/2022 5:15:00 PM 19.1 66.38 0.256 7.72 1.59 9.06
5/27/2022 5:30:00 PM 19.12 66.416 0.256 7.72 1.53 9.1
5/27/2022 5:45:00 PM 19.13 66.434 0.254 7.74 1.76 9.12
5/27/2022 6:00:00 PM 19.13 66.434 0.254 7.72 1.84 9.05
5/27/2022 6:15:00 PM 19.11 66.398 0.255 7.71 1.74 9
5/27/2022 6:30:00 PM 19.1 66.38 0.254 7.69 1.65 8.95
5/27/2022 6:45:00 PM 19.09 66.362 0.255 7.68 1.66 8.91
5/27/2022 7:00:00 PM 19.05 66.29 0.255 7.63 15.68 8.73
5/27/2022 7:15:00 PM 19.02 66.236 0.256 7.58 1.83 8.55
5/27/2022 7:30:00 PM 18.98 66.164 0.256 7.55 1.8 8.48
5/27/2022 7:45:00 PM 18.94 66.092 0.255 7.53 2.08 8.39
5/27/2022 8:00:00 PM 18.89 66.002 0.255 7.5 1.87 8.3
5/27/2022 8:15:00 PM 18.83 65.894 0.255 7.47 17.33 8.2
5/27/2022 8:30:00 PM 18.78 65.804 0.257 7.44 1.71 8.12
5/27/2022 8:45:00 PM 18.73 65.714 0.257 7.42 2.02 8.05
5/27/2022 9:00:00 PM 18.68 65.624 0.258 7.41 1.81 8.02
5/27/2022 9:15:00 PM 18.63 65.534 0.256 7.39 2.22 7.98
5/27/2022 9:30:00 PM 18.59 65.462 0.257 7.38 3.1 7.97
5/27/2022 9:45:00 PM 18.55 65.39 0.257 7.37 1.85 7.96
5/27/2022 10:00:00 PM 18.5 65.3 0.257 7.36 1.93 7.95
5/27/2022 10:15:00 PM 18.45 65.21 0.259 7.36 1.9 7.96
5/27/2022 10:30:00 PM 18.41 65.138 0.257 7.35 2.34 7.98
5/27/2022 10:45:00 PM 18.36 65.048 0.257 7.35 24.73 7.99
5/27/2022 11:00:00 PM 18.31 64.958 0.26 7.35 2.05 7.98
5/27/2022 11:15:00 PM 18.28 64.904 0.258 7.34 2.03 7.98
5/27/2022 11:30:00 PM 18.24 64.832 0.259 7.34 2.13 7.98
5/27/2022 11:45:00 PM 18.2 64.76 0.258 7.34 1.91 8
5/28/2022 12:00:00 AM 18.15 64.67 0.257 7.34 1.84 8
5/28/2022 12:15:00 AM 18.11 64.598 0.258 7.34 1.88 8.01
5/28/2022 12:30:00 AM 18.09 64.562 0.256 7.34 2.1 8.03
5/28/2022 12:45:00 AM 18.05 64.49 0.257 7.33 1.85 8.03
5/28/2022 1:00:00 AM 18.01 64.418 0.256 7.33 2.05 8.05
5/28/2022 1:15:00 AM 17.98 64.364 0.256 7.33 1.93 8.06
5/28/2022 1:30:00 AM 17.94 64.292 0.256 7.33 2.83 8.09
5/28/2022 1:45:00 AM 17.91 64.238 0.256 7.33 1.94 8.09
5/28/2022 2:00:00 AM 17.87 64.166 0.256 7.33 2.02 8.09
5/28/2022 2:15:00 AM 17.83 64.094 0.256 7.33 2.02 8.12
5/28/2022 2:30:00 AM 17.8 64.04 0.258 7.33 3.01 8.11
5/28/2022 2:45:00 AM 17.78 64.004 0.259 7.33 2.08 8.12
5/28/2022 3:00:00 AM 17.75 63.95 0.26 7.33 2.15 8.13
5/28/2022 3:15:00 AM 17.71 63.878 0.261 7.32 1.92 8.12
5/28/2022 3:30:00 AM 17.68 63.824 0.261 7.32 2.01 8.13
5/28/2022 3:45:00 AM 17.66 63.788 0.262 7.32 1.94 8.12
5/28/2022 4:00:00 AM 17.62 63.716 0.262 7.32 2.12 8.14
5/28/2022 4:15:00 AM 17.58 63.644 0.262 7.32 3.75 8.15
5/28/2022 4:30:00 AM 17.53 63.554 0.262 7.32 2.34 8.16
5/28/2022 4:45:00 AM 17.5 63.5 0.263 7.32 2.09 8.16
5/28/2022 5:00:00 AM 17.47 63.446 0.263 7.31 2.5 8.18
5/28/2022 5:15:00 AM 17.43 63.374 0.263 7.32 2.39 8.19
5/28/2022 5:30:00 AM 17.41 63.338 0.264 7.31 2.31 8.16
5/28/2022 5:45:00 AM 17.39 63.302 0.264 7.31 3.15 8.19
5/28/2022 6:00:00 AM 17.37 63.266 0.264 7.32 1.83 8.24
5/28/2022 6:15:00 AM 17.37 63.266 0.264 7.33 1.82 8.3
5/28/2022 6:30:00 AM 17.36 63.248 0.264 7.33 2.61 8.33
5/28/2022 6:45:00 AM 17.34 63.212 0.265 7.34 1.72 8.36
5/28/2022 7:00:00 AM 17.34 63.212 0.265 7.35 2.37 8.43
5/28/2022 7:15:00 AM 17.34 63.212 0.261 7.37 2.42 8.55
5/28/2022 7:30:00 AM 17.35 63.23 0.261 7.39 1.71 8.64
5/28/2022 7:45:00 AM 17.37 63.266 0.262 7.41 13.27 8.75
5/28/2022 8:00:00 AM 17.39 63.302 0.26 7.43 18.9 8.81
5/28/2022 8:15:00 AM 17.45 63.41 0.26 7.47 13.87 9
5/28/2022 8:30:00 AM 17.5 63.5 0.261 7.5 22.18 9.11
5/28/2022 8:45:00 AM 17.57 63.626 0.261 7.54 7.81 9.25
5/28/2022 9:00:00 AM 17.59 63.662 0.261 7.55 2.3 9.23
5/28/2022 9:15:00 AM 17.63 63.734 0.261 7.57 1.62 9.28
5/28/2022 9:30:00 AM 17.68 63.824 0.262 7.59 1.67 9.32
5/28/2022 9:45:00 AM 17.74 63.932 0.262 7.61 2.26 9.4
5/28/2022 10:00:00 AM 17.83 64.094 0.262 7.66 2.18 9.52
5/28/2022 10:15:00 AM 17.92 64.256 0.261 7.7 1.56 9.61
5/28/2022 10:30:00 AM 17.98 64.364 0.262 7.73 1.69 9.64
5/28/2022 10:45:00 AM 18.08 64.544 0.262 7.78 1.8 9.74
5/28/2022 11:00:00 AM 18.13 64.634 0.261 7.8 1.86 9.76
5/28/2022 11:15:00 AM 18.19 64.742 0.216 7.83 18.67 9.78
5/28/2022 11:30:00 AM 18.29 64.922 0.261 7.86 6.47 9.82
5/28/2022 11:45:00 AM 18.32 64.976 0.262 7.86 2.15 9.76
5/28/2022 12:00:00 PM 18.47 65.246 0.26 7.9 1.93 9.83
5/28/2022 12:15:00 PM 18.44 65.192 0.26 7.84 2.12 9.55
5/28/2022 12:30:00 PM 18.62 65.516 0.26 7.87 1.8 9.7
5/28/2022 12:45:00 PM 18.74 65.732 0.261 7.88 2.12 9.67
5/28/2022 1:00:00 PM 18.89 66.002 0.26 7.91 1.62 9.67
5/28/2022 1:15:00 PM 18.84 65.912 0.26 7.8 1.79 9.35
5/28/2022 1:30:00 PM 18.86 65.948 0.26 7.83 2.01 9.43
5/28/2022 1:45:00 PM 19.05 66.29 0.255 7.86 1.88 9.52
5/28/2022 2:00:00 PM 19.15 66.47 0.253 7.86 1.84 9.47
5/28/2022 2:15:00 PM 19.27 66.686 0.253 7.86 1.83 9.46
5/28/2022 2:30:00 PM 19.21 66.578 0.253 7.81 1.95 9.3
5/28/2022 2:45:00 PM 19.44 66.992 0.253 7.86 2.31 9.44
5/28/2022 3:00:00 PM 19.51 67.118 0.253 7.87 2.06 9.4
5/28/2022 3:15:00 PM 19.5 67.1 0.253 7.83 2.53 9.24
5/28/2022 3:30:00 PM 19.45 67.01 0.252 7.77 4.95 9.13
5/28/2022 3:45:00 PM 19.52 67.136 0.252 7.8 1.86 9.18
5/28/2022 4:00:00 PM 19.53 67.154 0.252 7.78 2.57 9.14
5/28/2022 4:15:00 PM 19.58 67.244 0.254 7.8 1.99 9.18
5/28/2022 4:30:00 PM 19.57 67.226 0.256 7.8 15.84 9.16
5/28/2022 4:45:00 PM 19.52 67.136 0.25 7.76 17.94 9
5/28/2022 5:00:00 PM 19.51 67.118 0.246 7.76 2.18 9
5/28/2022 5:15:00 PM 19.49 67.082 0.247 7.74 3.76 8.97
5/28/2022 5:30:00 PM 19.45 67.01 0.249 7.72 2.72 8.92
5/28/2022 5:45:00 PM 19.38 66.884 0.256 7.7 3.17 8.87
5/28/2022 6:00:00 PM 19.37 66.866 0.263 7.7 4.14 8.89
5/28/2022 6:15:00 PM 19.19 66.542 0.277 7.66 3.76 8.76
5/28/2022 6:30:00 PM 19.08 66.344 0.285 7.64 4 8.73
5/28/2022 6:45:00 PM 19.03 66.254 0.287 7.63 3.61 8.69
5/28/2022 7:00:00 PM 18.92 66.056 0.283 7.59 3.9 8.55
5/28/2022 7:15:00 PM 18.83 65.894 0.28 7.56 3.7 8.44
5/28/2022 7:30:00 PM 18.77 65.786 0.279 7.54 6.38 8.38
5/28/2022 7:45:00 PM 18.69 65.642 0.28 7.51 4 8.31
5/28/2022 8:00:00 PM 18.61 65.498 0.28 7.49 4.34 8.27
5/28/2022 8:15:00 PM 18.53 65.354 0.279 7.48 4.58 8.24
5/28/2022 8:30:00 PM 18.44 65.192 0.279 7.46 4.38 8.2
5/28/2022 8:45:00 PM 18.35 65.03 0.281 7.45 3.24 8.19
5/28/2022 9:00:00 PM 18.27 64.886 0.283 7.44 3.57 8.17
5/28/2022 9:15:00 PM 18.19 64.742 0.284 7.43 3.47 8.17
5/28/2022 9:30:00 PM 18.13 64.634 0.285 7.43 3.33 8.17
5/28/2022 9:45:00 PM 18.06 64.508 0.285 7.41 3.59 8.16
5/28/2022 10:00:00 PM 18 64.4 0.286 7.41 3.44 8.18
5/28/2022 10:15:00 PM 17.92 64.256 0.287 7.41 3.21 8.19
5/28/2022 10:30:00 PM 17.85 64.13 0.287 7.4 3.4 8.21
5/28/2022 10:45:00 PM 17.77 63.986 0.287 7.39 3.51 8.21
5/28/2022 11:00:00 PM 17.69 63.842 0.284 7.38 3.89 8.22
5/28/2022 11:15:00 PM 17.61 63.698 0.282 7.38 23 8.24
5/28/2022 11:30:00 PM 17.52 63.536 0.277 7.37 4.28 8.25
5/28/2022 11:45:00 PM 17.44 63.392 0.273 7.37 4.11 8.28
5/29/2022 12:00:00 AM 17.35 63.23 0.267 7.36 4.26 8.29
5/29/2022 12:15:00 AM 17.27 63.086 0.263 7.36 4.71 8.32
5/29/2022 12:30:00 AM 17.19 62.942 0.259 7.36 4.1 8.33
5/29/2022 12:45:00 AM 17.11 62.798 0.257 7.35 4.32 8.36
5/29/2022 1:00:00 AM 17.04 62.672 0.255 7.33 4.3 8.36
5/29/2022 1:15:00 AM 16.96 62.528 0.253 7.33 6.01 8.38
5/29/2022 1:30:00 AM 16.89 62.402 0.252 7.33 4.65 8.4
5/29/2022 1:45:00 AM 16.82 62.276 0.252 7.33 4.38 8.43
5/29/2022 2:00:00 AM 16.76 62.168 0.251 7.32 4.64 8.43
5/29/2022 2:15:00 AM 16.69 62.042 0.251 7.33 3.85 8.46
5/29/2022 2:30:00 AM 16.63 61.934 0.247 7.32 10.94 8.47
5/29/2022 2:45:00 AM 16.58 61.844 0.25 7.31 3.39 8.47
5/29/2022 3:00:00 AM 16.52 61.736 0.25 7.32 6.82 8.5
5/29/2022 3:15:00 AM 16.46 61.628 0.25 7.32 3.4 8.51
5/29/2022 3:30:00 AM 16.41 61.538 0.25 7.32 5.54 8.53
5/29/2022 3:45:00 AM 16.35 61.43 0.249 7.32 3.2 8.54
5/29/2022 4:00:00 AM 16.31 61.358 0.249 7.32 3.04 8.56
5/29/2022 4:15:00 AM 16.26 61.268 0.249 7.32 3.4 8.57
5/29/2022 4:30:00 AM 16.22 61.196 0.249 7.32 3.46 8.57
5/29/2022 4:45:00 AM 16.18 61.124 0.249 7.32 3.32 8.59
5/29/2022 5:00:00 AM 16.14 61.052 0.248 7.33 3.75 8.6
5/29/2022 5:15:00 AM 16.1 60.98 0.248 7.33 3.45 8.62
5/29/2022 5:30:00 AM 16.07 60.926 0.248 7.33 3.62 8.62
5/29/2022 5:45:00 AM 16.03 60.854 0.247 7.34 5.99 8.63
5/29/2022 6:00:00 AM 16.01 60.818 0.247 7.34 3.53 8.67
5/29/2022 6:15:00 AM 15.98 60.764 0.247 7.34 2.68 8.7
5/29/2022 6:30:00 AM 15.98 60.764 0.247 7.35 2.68 8.76
5/29/2022 6:45:00 AM 15.97 60.746 0.247 7.36 3.72 8.81
5/29/2022 7:00:00 AM 15.97 60.746 0.208 7.37 5.22 8.87
5/29/2022 7:15:00 AM 15.97 60.746 0.248 7.39 3.19 8.94
5/29/2022 7:30:00 AM 15.99 60.782 0.248 7.41 2.21 9.02
5/29/2022 7:45:00 AM 16 60.8 0.249 7.42 2.42 9.09
5/29/2022 8:00:00 AM 16.03 60.854 0.249 7.45 2.29 9.18
5/29/2022 8:15:00 AM 16.06 60.908 0.25 7.47 1.98 9.27
5/29/2022 8:30:00 AM 16.1 60.98 0.251 7.49 2.23 9.36
5/29/2022 8:45:00 AM 16.13 61.034 0.252 7.52 3.88 9.44
5/29/2022 9:00:00 AM 16.2 61.16 0.252 7.55 2.11 9.55
5/29/2022 9:15:00 AM 16.26 61.268 0.252 7.58 1.9 9.62
5/29/2022 9:30:00 AM 16.34 61.412 0.252 7.6 2.12 9.7
5/29/2022 9:45:00 AM 16.51 61.718 0.252 7.64 1.8 9.77
5/29/2022 10:00:00 AM 16.68 62.024 0.252 7.65 2.27 9.76
5/29/2022 10:15:00 AM 16.83 62.294 0.252 7.66 1.94 9.73
5/29/2022 10:30:00 AM 16.97 62.546 0.253 7.67 1.68 9.72
5/29/2022 10:45:00 AM 17.1 62.78 0.253 7.69 1.86 9.71
5/29/2022 11:00:00 AM 17.25 63.05 0.253 7.7 2.02 9.72
5/29/2022 11:15:00 AM 17.43 63.374 0.253 7.71 2.47 9.71
5/29/2022 11:30:00 AM 17.65 63.77 0.253 7.74 1.82 9.72
5/29/2022 11:45:00 AM 17.88 64.184 0.253 7.75 1.69 9.73
5/29/2022 12:00:00 PM 18.14 64.652 0.253 7.77 1.94 9.72
5/29/2022 12:15:00 PM 18.39 65.102 0.253 7.79 1.65 9.7
5/29/2022 12:30:00 PM 18.66 65.588 0.253 7.81 1.67 9.67
5/29/2022 12:45:00 PM 18.92 66.056 0.253 7.82 3.1 9.63
5/29/2022 1:00:00 PM 19.2 66.56 0.253 7.84 2.25 9.61
5/29/2022 1:15:00 PM 19.46 67.028 0.253 7.84 2.01 9.55
5/29/2022 1:30:00 PM 19.77 67.586 0.253 7.86 1.57 9.5
5/29/2022 1:45:00 PM 20.09 68.162 0.253 7.87 1.7 9.47
5/29/2022 2:00:00 PM 20.36 68.648 0.253 7.88 1.72 9.41
5/29/2022 2:15:00 PM 20.58 69.044 0.253 7.88 1.74 9.35
5/29/2022 2:30:00 PM 20.77 69.386 0.254 7.88 1.82 9.3
5/29/2022 2:45:00 PM 20.97 69.746 0.254 7.88 1.82 9.26
5/29/2022 3:00:00 PM 21.13 70.034 0.254 7.88 1.62 9.19
5/29/2022 3:15:00 PM 21.29 70.32201 0.254 7.88 1.76 9.14
5/29/2022 3:30:00 PM 21.48 70.664 0.254 7.88 1.94 9.13
5/29/2022 3:45:00 PM 21.54 70.772 0.254 7.88 1.59 9.06
5/29/2022 4:00:00 PM 21.55 70.79 0.255 7.86 1.65 8.96
5/29/2022 4:15:00 PM 21.56 70.808 0.254 7.83 1.64 8.88
5/29/2022 4:30:00 PM 21.58 70.844 0.255 7.81 1.59 8.82
5/29/2022 4:45:00 PM 21.6 70.88 0.256 7.78 1.66 8.74
5/29/2022 5:00:00 PM 21.59 70.862 0.256 7.77 1.84 8.66
5/29/2022 5:15:00 PM 21.47 70.646 0.256 7.72 1.6 8.49
5/29/2022 5:30:00 PM 21.48 70.664 0.256 7.7 1.62 8.49
5/29/2022 5:45:00 PM 21.43 70.574 0.256 7.69 1.97 8.44
5/29/2022 6:00:00 PM 21.43 70.574 0.256 7.67 2.49 8.39
5/29/2022 6:15:00 PM 21.38 70.484 0.256 7.65 1.71 8.35
5/29/2022 6:30:00 PM 21.33 70.394 0.257 7.63 1.69 8.27
5/29/2022 6:45:00 PM 21.27 70.286 0.257 7.6 1.98 8.22
5/29/2022 7:00:00 PM 21.19 70.142 0.257 7.56 1.7 8.11
5/29/2022 7:15:00 PM 21.11 69.998 0.258 7.55 1.68 8.02
5/29/2022 7:30:00 PM 21.01 69.818 0.258 7.52 1.72 7.95
5/29/2022 7:45:00 PM 20.93 69.674 0.258 7.49 1.59 7.89
5/29/2022 8:00:00 PM 20.83 69.494 0.257 7.47 1.7 7.83
5/29/2022 8:15:00 PM 20.73 69.314 0.258 7.45 1.86 7.79
5/29/2022 8:30:00 PM 20.63 69.134 0.258 7.44 1.73 7.76
5/29/2022 8:45:00 PM 20.51 68.918 0.258 7.42 2.33 7.75
5/29/2022 9:00:00 PM 20.38 68.684 0.258 7.41 2.01 7.72
5/29/2022 9:15:00 PM 20.25 68.45 0.258 7.4 1.73 7.72
5/29/2022 9:30:00 PM 20.13 68.234 0.258 7.39 1.83 7.73
5/29/2022 9:45:00 PM 19.99 67.982 0.258 7.39 2 7.74
5/29/2022 10:00:00 PM 19.85 67.73 0.258 7.39 1.84 7.78
5/29/2022 10:15:00 PM 19.71 67.478 0.258 7.38 1.94 7.79
5/29/2022 10:30:00 PM 19.58 67.244 0.258 7.38 2.12 7.84
5/29/2022 10:45:00 PM 19.44 66.992 0.258 7.38 2.05 7.85
5/29/2022 11:00:00 PM 19.31 66.758 0.258 7.38 2.04 7.89
5/29/2022 11:15:00 PM 19.18 66.524 0.259 7.38 1.98 7.92
5/29/2022 11:30:00 PM 19.06 66.308 0.267 7.37 2.07 7.93
5/29/2022 11:45:00 PM 18.93 66.074 0.261 7.37 2.02 7.96
5/30/2022 12:00:00 AM 18.81 65.858 0.261 7.37 2.16 7.99
5/30/2022 12:15:00 AM 18.69 65.642 0.26 7.37 1.89 8.02
5/30/2022 12:30:00 AM 18.58 65.444 0.26 7.37 2.05 8.05
5/30/2022 12:45:00 AM 18.47 65.246 0.26 7.36 2.1 8.07
5/30/2022 1:00:00 AM 18.36 65.048 0.261 7.36 2 8.1
5/30/2022 1:15:00 AM 18.25 64.85 0.261 7.36 2 8.13
5/30/2022 1:30:00 AM 18.15 64.67 0.261 7.36 2.05 8.15
5/30/2022 1:45:00 AM 18.05 64.49 0.261 7.36 2.14 8.18
5/30/2022 2:00:00 AM 17.95 64.31 0.261 7.35 2.19 8.2
5/30/2022 2:15:00 AM 17.86 64.148 0.261 7.35 2.08 8.21
5/30/2022 2:30:00 AM 17.76 63.968 0.262 7.35 1.95 8.23
5/30/2022 2:45:00 AM 17.67 63.806 0.262 7.35 1.99 8.26
5/30/2022 3:00:00 AM 17.59 63.662 0.263 7.35 2.01 8.28
5/30/2022 3:15:00 AM 17.5 63.5 0.263 7.34 2.12 8.3
5/30/2022 3:30:00 AM 17.42 63.356 0.264 7.34 1.92 8.31
5/30/2022 3:45:00 AM 17.34 63.212 0.264 7.34 2.17 8.33
5/30/2022 4:00:00 AM 17.27 63.086 0.264 7.34 2.14 8.35
5/30/2022 4:15:00 AM 17.19 62.942 0.264 7.34 2.29 8.37
5/30/2022 4:30:00 AM 17.12 62.816 0.264 7.34 2.22 8.38
5/30/2022 4:45:00 AM 17.06 62.708 0.264 7.34 1.93 8.41
5/30/2022 5:00:00 AM 16.99 62.582 0.264 7.33 2.28 8.41
5/30/2022 5:15:00 AM 16.93 62.474 0.263 7.32 2.54 8.43
5/30/2022 5:30:00 AM 16.87 62.366 0.262 7.33 2.12 8.46
5/30/2022 5:45:00 AM 16.81 62.258 0.261 7.32 1.93 8.47
5/30/2022 6:00:00 AM 16.76 62.168 0.258 7.32 1.88 8.5
5/30/2022 6:15:00 AM 16.7 62.06 0.259 7.33 2.05 8.55
5/30/2022 6:30:00 AM 16.66 61.988 0.257 7.33 2.15 8.6
5/30/2022 6:45:00 AM 16.63 61.934 0.257 7.34 1.73 8.66
5/30/2022 7:00:00 AM 16.61 61.898 0.258 7.35 1.7 8.71
5/30/2022 7:15:00 AM 16.62 61.916 0.259 7.37 1.89 8.81
5/30/2022 7:30:00 AM 16.66 61.988 0.263 7.39 1.95 8.92
5/30/2022 7:45:00 AM 16.71 62.078 0.265 7.41 1.78 9
5/30/2022 8:00:00 AM 16.77 62.186 0.265 7.44 1.88 9.09
5/30/2022 8:15:00 AM 16.86 62.348 0.266 7.47 1.64 9.2
5/30/2022 8:30:00 AM 16.94 62.492 0.266 7.49 1.64 9.25
5/30/2022 8:45:00 AM 17.05 62.69 0.266 7.51 1.84 9.32
5/30/2022 9:00:00 AM 17.16 62.888 0.266 7.53 1.67 9.36
5/30/2022 9:15:00 AM 17.29 63.122 0.265 7.54 1.74 9.36
5/30/2022 9:30:00 AM 17.42 63.356 0.264 7.56 1.84 9.43
5/30/2022 9:45:00 AM 17.55 63.59 0.263 7.59 1.91 9.47
5/30/2022 10:00:00 AM 17.68 63.824 0.262 7.62 1.77 9.55
5/30/2022 10:15:00 AM 17.72 63.896 0.262 7.64 1.37 9.56
5/30/2022 10:30:00 AM 17.81 64.058 0.262 7.67 2.5 9.6
5/30/2022 10:45:00 AM 17.96 64.328 0.261 7.7 2.33 9.64
5/30/2022 11:00:00 AM 18.04 64.472 0.26 7.71 1.56 9.59
5/30/2022 11:15:00 AM 18.13 64.634 0.26 7.72 1.61 9.57
5/30/2022 11:30:00 AM 18.26 64.868 0.26 7.74 1.78 9.6
5/30/2022 11:45:00 AM 18.59 65.462 0.259 7.76 1.42 9.63
5/30/2022 12:00:00 PM 18.84 65.912 0.259 7.79 1.51 9.65
5/30/2022 12:15:00 PM 19.04 66.272 0.258 7.82 1.44 9.69
5/30/2022 12:30:00 PM 19.32 66.776 0.258 7.85 1.36 9.68
5/30/2022 12:45:00 PM 19.61 67.298 0.259 7.86 2.22 9.64
5/30/2022 1:00:00 PM 19.94 67.892 0.258 7.87 1.43 9.61
5/30/2022 1:15:00 PM 20.24 68.432 0.258 7.88 1.42 9.54
5/30/2022 1:30:00 PM 20.58 69.044 0.258 7.9 1.44 9.49
5/30/2022 1:45:00 PM 20.86 69.548 0.258 7.9 1.35 9.43
5/30/2022 2:00:00 PM 21.13 70.034 0.259 7.91 1.52 9.37
5/30/2022 2:15:00 PM 21.37 70.466 0.259 7.91 1.46 9.3
5/30/2022 2:30:00 PM 21.64 70.952 0.259 7.9 1.44 9.24
5/30/2022 2:45:00 PM 21.89 71.402 0.259 7.9 2.38 9.18
5/30/2022 3:00:00 PM 22.08 71.744 0.26 7.89 1.36 9.09
5/30/2022 3:15:00 PM 22.25 72.05 0.26 7.89 1.6 9.05
5/30/2022 3:30:00 PM 22.41 72.338 0.259 7.88 1.5 8.99
5/30/2022 3:45:00 PM 22.48 72.464 0.26 7.86 1.42 8.91
5/30/2022 4:00:00 PM 22.58 72.644 0.262 7.84 1.47 8.84
5/30/2022 4:15:00 PM 22.63 72.734 0.263 7.83 1.33 8.77
5/30/2022 4:30:00 PM 22.68 72.824 0.261 7.82 1.37 8.69
5/30/2022 4:45:00 PM 22.72 72.896 0.261 7.79 1.41 8.6
5/30/2022 5:00:00 PM 22.73 72.914 0.262 7.77 1.61 8.55
5/30/2022 5:15:00 PM 22.73 72.914 0.262 7.74 1.45 8.46
5/30/2022 5:30:00 PM 22.73 72.914 0.262 7.72 1.93 8.37
5/30/2022 5:45:00 PM 22.71 72.878 0.261 7.69 3.96 8.3
5/30/2022 6:00:00 PM 22.67 72.806 0.261 7.67 1.39 8.2
5/30/2022 6:15:00 PM 22.65 72.77 0.261 7.65 1.47 8.16
5/30/2022 6:30:00 PM 22.61 72.698 0.262 7.61 1.38 8.06
5/30/2022 6:45:00 PM 22.56 72.608 0.262 7.6 1.35 8.01
5/30/2022 7:00:00 PM 22.5 72.5 0.262 7.56 1.36 7.88
5/30/2022 7:15:00 PM 22.44 72.392 0.263 7.52 1.74 7.76
5/30/2022 7:30:00 PM 22.39 72.302 0.263 7.5 1.36 7.7
5/30/2022 7:45:00 PM 22.34 72.212 0.263 7.47 1.37 7.6
5/30/2022 8:00:00 PM 22.29 72.122 0.263 7.45 1.41 7.56
5/30/2022 8:15:00 PM 22.23 72.014 0.263 7.43 1.53 7.49
5/30/2022 8:30:00 PM 22.16 71.888 0.263 7.4 1.63 7.4
5/30/2022 8:45:00 PM 22.11 71.798 0.264 7.4 1.63 7.39
5/30/2022 9:00:00 PM 22.05 71.69 0.264 7.38 1.67 7.35
5/30/2022 9:15:00 PM 21.97 71.546 0.264 7.37 1.52 7.34
5/30/2022 9:30:00 PM 21.9 71.42 0.265 7.36 1.71 7.33
5/30/2022 9:45:00 PM 21.81 71.258 0.265 7.35 1.69 7.33
5/30/2022 10:00:00 PM 21.72 71.096 0.265 7.35 1.71 7.35
5/30/2022 10:15:00 PM 21.62 70.916 0.265 7.35 1.64 7.35
5/30/2022 10:30:00 PM 21.51 70.718 0.265 7.34 1.71 7.39
5/30/2022 10:45:00 PM 21.41 70.538 0.266 7.35 1.73 7.41
5/30/2022 11:00:00 PM 21.29 70.32201 0.266 7.34 1.68 7.42
5/30/2022 11:15:00 PM 21.19 70.142 0.266 7.34 1.73 7.46
5/30/2022 11:30:00 PM 21.06 69.908 0.266 7.34 1.8 7.48
5/30/2022 11:45:00 PM 20.94 69.692 0.266 7.34 2.13 7.49
5/31/2022 12:00:00 AM 20.82 69.476 0.266 7.34 1.87 7.53
5/31/2022 12:15:00 AM 20.7 69.26 0.267 7.34 1.77 7.56
5/31/2022 12:30:00 AM 20.59 69.062 0.267 7.34 1.94 7.6
5/31/2022 12:45:00 AM 20.47 68.846 0.267 7.34 1.82 7.61
5/31/2022 1:00:00 AM 20.35 68.63 0.267 7.34 1.93 7.65
5/31/2022 1:15:00 AM 20.23 68.414 0.267 7.33 1.93 7.66
5/31/2022 1:30:00 AM 20.12 68.216 0.268 7.33 1.77 7.69
5/31/2022 1:45:00 AM 20.01 68.018 0.268 7.33 1.87 7.7
5/31/2022 2:00:00 AM 19.91 67.838 0.268 7.33 1.93 7.73
5/31/2022 2:15:00 AM 19.81 67.658 0.268 7.33 1.9 7.75
5/31/2022 2:30:00 AM 19.72 67.496 0.268 7.33 2.01 7.8
5/31/2022 2:45:00 AM 19.62 67.316 0.268 7.33 1.99 7.8
5/31/2022 3:00:00 AM 19.52 67.136 0.269 7.33 1.92 7.83
5/31/2022 3:15:00 AM 19.43 66.974 0.269 7.33 2.03 7.84
5/31/2022 3:30:00 AM 19.35 66.83 0.27 7.32 1.94 7.86
5/31/2022 3:45:00 AM 19.25 66.65 0.267 7.32 2.08 7.88
5/31/2022 4:00:00 AM 19.17 66.506 0.266 7.32 1.97 7.89
5/31/2022 4:15:00 AM 19.09 66.362 0.264 7.32 1.92 7.93
5/31/2022 4:30:00 AM 19.01 66.218 0.262 7.32 1.91 7.95
5/31/2022 4:45:00 AM 18.92 66.056 0.261 7.32 2.08 7.95
5/31/2022 5:00:00 AM 18.84 65.912 0.261 7.32 2.06 7.97
5/31/2022 5:15:00 AM 18.76 65.768 0.261 7.32 2 7.99
5/31/2022 5:30:00 AM 18.69 65.642 0.261 7.32 1.97 8.01
5/31/2022 5:45:00 AM 18.61 65.498 0.261 7.31 2.75 8.01
5/31/2022 6:00:00 AM 18.54 65.372 0.261 7.32 2.02 8.07
5/31/2022 6:15:00 AM 18.49 65.282 0.261 7.33 1.83 8.15
5/31/2022 6:30:00 AM 18.43 65.174 0.261 7.33 1.79 8.19
5/31/2022 6:45:00 AM 18.39 65.102 0.261 7.34 2.14 8.26
5/31/2022 7:00:00 AM 18.35 65.03 0.261 7.35 1.55 8.32
5/31/2022 7:15:00 AM 18.33 64.994 0.261 7.36 1.51 8.4
5/31/2022 7:30:00 AM 18.36 65.048 0.261 7.38 2.3 8.52
5/31/2022 7:45:00 AM 18.41 65.138 0.261 7.4 1.56 8.62
5/31/2022 8:00:00 AM 18.46 65.228 0.261 7.41 1.69 8.69
5/31/2022 8:15:00 AM 18.54 65.372 0.262 7.44 1.49 8.78
5/31/2022 8:30:00 AM 18.62 65.516 0.261 7.45 1.76 8.86
5/31/2022 8:45:00 AM 18.72 65.696 0.264 7.47 1.64 8.9
5/31/2022 9:00:00 AM 18.82 65.876 0.262 7.49 1.49 8.94
5/31/2022 9:15:00 AM 18.93 66.074 0.262 7.51 1.55 8.98
5/31/2022 9:30:00 AM 19.05 66.29 0.262 7.53 1.57 9.01
5/31/2022 9:45:00 AM 19.18 66.524 0.265 7.55 1.76 9.03
5/31/2022 10:00:00 AM 19.32 66.776 0.264 7.57 1.35 9.05
5/31/2022 10:15:00 AM 19.48 67.064 0.269 7.58 1.45 9.06
5/31/2022 10:30:00 AM 19.66 67.388 0.266 7.6 1.54 9.07
5/31/2022 10:45:00 AM 19.85 67.73 0.268 7.62 1.54 9.08
5/31/2022 11:00:00 AM 20.05 68.09 0.266 7.62 3.21 9.05
5/31/2022 11:15:00 AM 20.27 68.486 0.267 7.64 2.07 9.07
5/31/2022 11:30:00 AM 20.5 68.9 0.266 7.66 2.1 9.06
5/31/2022 11:45:00 AM 20.74 69.332 0.266 7.68 1.84 9.04
5/31/2022 12:00:00 PM 20.98 69.764 0.263 7.71 1.67 9.08
5/31/2022 12:15:00 PM 21.22 70.196 0.262 7.72 1.36 9.04
5/31/2022 12:30:00 PM 21.36 70.448 0.262 7.73 1.74 9.04
5/31/2022 12:45:00 PM 21.69 71.042 0.269 7.77 1.59 9.03
5/31/2022 1:00:00 PM 22.03 71.654 0.261 7.78 1.3 9.02
5/31/2022 1:15:00 PM 22.38 72.284 0.262 7.81 1.38 9.04
5/31/2022 1:30:00 PM 22.69 72.842 0.261 7.81 1.3 8.98
5/31/2022 1:45:00 PM 23.02 73.436 0.262 7.82 1.7 8.91
5/31/2022 2:00:00 PM 23.19 73.742 0.267 7.83 1.7 8.86
5/31/2022 2:15:00 PM 23.48 74.264 0.268 7.84 1.44 8.83
5/31/2022 2:30:00 PM 23.65 74.57 0.267 7.84 1.44 8.75
5/31/2022 2:45:00 PM 23.83 74.894 0.267 7.85 1.49 8.74
5/31/2022 3:00:00 PM 24.07 75.326 0.269 7.85 1.51 8.74
5/31/2022 3:15:00 PM 24.2 75.56 0.263 7.87 1.35 8.71
5/31/2022 3:30:00 PM 24.39 75.902 0.263 7.87 2.4 8.64
5/31/2022 3:45:00 PM 24.46 76.028 0.263 7.87 1.34 8.59
5/31/2022 4:00:00 PM 24.52 76.136 0.269 7.86 1.25 8.55
5/31/2022 4:15:00 PM 24.55 76.19 0.27 7.84 1.35 8.47
5/31/2022 4:30:00 PM 24.6 76.28 0.274 7.82 1.44 8.4
5/31/2022 4:45:00 PM 24.6 76.28 0.265 7.78 1.51 8.29
5/31/2022 5:00:00 PM 24.56 76.208 0.265 7.75 1.49 8.19
5/31/2022 5:15:00 PM 24.55 76.19 0.265 7.73 1.45 8.13
5/31/2022 5:30:00 PM 24.51 76.118 0.272 7.7 1.57 8.04
5/31/2022 5:45:00 PM 24.47 76.046 0.276 7.68 2.13 7.98
5/31/2022 6:00:00 PM 24.43 75.974 0.268 7.66 2.2 7.93
5/31/2022 6:15:00 PM 24.36 75.848 0.268 7.64 3.27 7.85
5/31/2022 6:30:00 PM 24.3 75.74 0.269 7.61 1.56 7.77
5/31/2022 6:45:00 PM 24.21 75.578 0.269 7.57 1.59 7.64
5/31/2022 7:00:00 PM 24.17 75.506 0.272 7.55 1.49 7.61
5/31/2022 7:15:00 PM 24.1 75.38 0.272 7.5 1.75 7.43
5/31/2022 7:30:00 PM 24.06 75.308 0.271 7.48 1.62 7.39
5/31/2022 7:45:00 PM 24 75.2 0.271 7.46 1.67 7.33
5/31/2022 8:00:00 PM 23.93 75.074 0.271 7.43 6.39 7.23
5/31/2022 8:15:00 PM 23.87 74.966 0.271 7.42 1.54 7.17
5/31/2022 8:30:00 PM 23.78 74.804 0.272 7.4 1.81 7.11
5/31/2022 8:45:00 PM 23.69 74.642 0.271 7.38 1.92 7.08
5/31/2022 9:00:00 PM 23.6 74.48 0.27 7.37 1.7 7.04
5/31/2022 9:15:00 PM 23.53 74.354 0.27 7.36 1.81 7.03
5/31/2022 9:30:00 PM 23.42 74.156 0.27 7.35 1.85 7.01
5/31/2022 9:45:00 PM 23.32 73.976 0.27 7.35 1.73 7.02
5/31/2022 10:00:00 PM 23.23 73.814 0.27 7.34 1.69 7.03
5/31/2022 10:15:00 PM 23.12 73.616 0.271 7.34 1.66 7.05
5/31/2022 10:30:00 PM 22.99 73.382 0.283 7.34 1.63 7.06
5/31/2022 10:45:00 PM 22.88 73.184 0.272 7.34 1.73 7.08
5/31/2022 11:00:00 PM 22.77 72.986 0.273 7.34 1.69 7.12
5/31/2022 11:15:00 PM 22.64 72.752 0.276 7.34 2.34 7.14
5/31/2022 11:30:00 PM 22.51 72.518 0.272 7.33 1.7 7.16
5/31/2022 11:45:00 PM 22.39 72.302 0.271 7.34 1.83 7.2
6/1/2022 12:00:00 AM 22.26 72.068 0.27 7.34 1.89 7.24
6/1/2022 12:15:00 AM 22.13 71.834 0.269 7.33 2.14 7.23
6/1/2022 12:30:00 AM 22.02 71.636 0.269 7.33 2.12 7.24
6/1/2022 12:45:00 AM 21.91 71.438 0.269 7.33 2.2 7.27
6/1/2022 1:00:00 AM 21.82 71.276 0.269 7.34 2.09 7.33
6/1/2022 1:15:00 AM 21.71 71.078 0.271 7.34 2.11 7.33
6/1/2022 1:30:00 AM 21.6 70.88 0.271 7.33 2.1 7.32
6/1/2022 1:45:00 AM 21.49 70.682 0.27 7.33 1.97 7.33
6/1/2022 2:00:00 AM 21.38 70.484 0.268 7.33 2.62 7.35
6/1/2022 2:15:00 AM 21.28 70.304 0.269 7.33 1.88 7.37
6/1/2022 2:30:00 AM 21.18 70.124 0.27 7.33 2.04 7.4
6/1/2022 2:45:00 AM 21.09 69.962 0.269 7.33 1.91 7.44
6/1/2022 3:00:00 AM 21.02 69.836 0.268 7.34 1.93 7.47
6/1/2022 3:15:00 AM 20.94 69.692 0.27 7.33 1.96 7.48
6/1/2022 3:30:00 AM 20.87 69.566 0.269 7.33 2.05 7.5
6/1/2022 3:45:00 AM 20.82 69.476 0.27 7.33 2.04 7.52
6/1/2022 4:00:00 AM 20.75 69.35 0.271 7.33 2.39 7.52
6/1/2022 4:15:00 AM 20.69 69.242 0.273 7.33 2.11 7.55
6/1/2022 4:30:00 AM 20.62 69.116 0.273 7.33 2.64 7.54
6/1/2022 4:45:00 AM 20.58 69.044 0.273 7.34 2.35 7.6
6/1/2022 5:00:00 AM 20.5 68.9 0.273 7.33 1.97 7.6
6/1/2022 5:15:00 AM 20.44 68.792 0.273 7.33 1.83 7.61
6/1/2022 5:30:00 AM 20.39 68.702 0.271 7.34 1.74 7.64
6/1/2022 5:45:00 AM 20.33 68.594 0.271 7.33 1.65 7.65
6/1/2022 6:00:00 AM 20.27 68.486 0.271 7.33 1.71 7.69
6/1/2022 6:15:00 AM 20.23 68.414 0.271 7.34 1.73 7.73
6/1/2022 6:30:00 AM 20.19 68.342 0.271 7.36 1.8 7.82
6/1/2022 6:45:00 AM 20.17 68.306 0.272 7.37 2.03 7.89
6/1/2022 7:00:00 AM 20.15 68.27 0.275 7.38 2.01 7.97
6/1/2022 7:15:00 AM 20.13 68.234 0.276 7.4 1.65 8.06
6/1/2022 7:30:00 AM 20.15 68.27 0.279 7.42 2.34 8.17
6/1/2022 7:45:00 AM 20.16 68.288 0.28 7.43 1.63 8.26
6/1/2022 8:00:00 AM 20.17 68.306 0.281 7.45 1.67 8.33
6/1/2022 8:15:00 AM 20.29 68.522 0.281 7.48 1.79 8.48
6/1/2022 8:30:00 AM 20.37 68.666 0.282 7.51 1.6 8.57
6/1/2022 8:45:00 AM 20.46 68.828 0.282 7.52 2.16 8.59
6/1/2022 9:00:00 AM 20.55 68.99 0.282 7.55 1.54 8.69
6/1/2022 9:15:00 AM 20.56 69.008 0.282 7.55 1.56 8.69
6/1/2022 9:30:00 AM 20.64 69.152 0.282 7.57 3.53 8.73
6/1/2022 9:45:00 AM 20.79 69.422 0.28 7.59 2.36 8.74
6/1/2022 10:00:00 AM 20.88 69.584 0.279 7.62 1.55 8.82
6/1/2022 10:15:00 AM 20.96 69.728 0.278 7.63 1.69 8.84
6/1/2022 10:30:00 AM 21.07 69.926 0.278 7.64 1.43 8.85
6/1/2022 10:45:00 AM 21.23 70.214 0.277 7.68 1.57 8.91
6/1/2022 11:00:00 AM 21.28 70.304 0.276 7.68 2.11 8.88
6/1/2022 11:15:00 AM 21.37 70.466 0.276 7.69 1.39 8.87
6/1/2022 11:30:00 AM 21.6 70.88 0.276 7.73 1.49 8.92
6/1/2022 11:45:00 AM 21.8 71.24 0.274 7.74 1.85 8.93
6/1/2022 12:00:00 PM 22.05 71.69 0.275 7.77 1.48 8.96
6/1/2022 12:15:00 PM 22.28 72.104 0.275 7.79 1.45 8.98
6/1/2022 12:30:00 PM 22.53 72.554 0.275 7.81 1.5 8.98
6/1/2022 12:45:00 PM 22.77 72.986 0.275 7.85 1.78 8.99
6/1/2022 1:00:00 PM 23.03 73.454 0.276 7.86 1.61 8.98
6/1/2022 1:15:00 PM 23.28 73.904 0.276 7.89 1.44 8.97
6/1/2022 1:30:00 PM 23.51 74.318 0.276 7.91 1.4 8.95
6/1/2022 1:45:00 PM 23.52 74.336 0.277 7.88 1.39 8.77
6/1/2022 2:00:00 PM 23.53 74.354 0.277 7.83 2.52 8.59
6/1/2022 2:15:00 PM 23.43 74.174 0.276 7.73 2.5 8.22
6/1/2022 2:30:00 PM 23.51 74.318 0.276 7.73 2.61 8.31
6/1/2022 2:45:00 PM 23.59 74.462 0.276 7.76 1.9 8.35
6/1/2022 3:00:00 PM 23.58 74.444 0.276 7.75 1.75 8.32
6/1/2022 3:15:00 PM 23.68 74.624 0.277 7.76 2.44 8.4
6/1/2022 3:30:00 PM 23.73 74.714 0.277 7.79 1.71 8.49
6/1/2022 3:45:00 PM 23.84 74.912 0.277 7.82 1.61 8.55
6/1/2022 4:00:00 PM 23.94 75.092 0.278 7.86 1.43 8.58
6/1/2022 4:15:00 PM 23.87 74.966 0.278 7.81 1.8 8.37
6/1/2022 4:30:00 PM 23.75 74.75 0.285 7.73 1.64 8.12
6/1/2022 4:45:00 PM 23.61 74.498 0.295 7.66 2.04 7.85
6/1/2022 5:00:00 PM 23.34 74.012 0.303 7.6 5.14 7.69
6/1/2022 5:15:00 PM 22.58 72.644 0.28 7.55 11.79 7.78
6/1/2022 5:30:00 PM 22.37 72.266 0.253 7.45 123.39 7.72
6/1/2022 5:45:00 PM 21.43 70.574 0.207 7.37 177.33 7.84
6/1/2022 6:00:00 PM 20.95 69.71 0.228 7.33 134.31 7.88
6/1/2022 6:15:00 PM 21.04 69.872 0.263 7.31 183.81 7.73
6/1/2022 6:30:00 PM 20.65 69.17 0.235 7.28 290.54 7.85
6/1/2022 6:45:00 PM 20.63 69.134 0.213 7.23 284.94 7.89
6/1/2022 7:00:00 PM 20.62 69.116 0.209 7.21 266.31 7.94
6/1/2022 7:15:00 PM 20.38 68.684 0.184 7.18 257.67 8.04
6/1/2022 7:30:00 PM 20.32 68.576 0.184 7.19 208.23 8.1
6/1/2022 7:45:00 PM 20.4 68.72 0.2 7.21 197.04 8.15
6/1/2022 8:00:00 PM 20.39 68.702 0.187 7.19 295.94 8.14
6/1/2022 8:15:00 PM 20.26 68.468 0.174 7.16 287.57 8.18
6/1/2022 8:30:00 PM 20.11 68.198 0.158 7.1 328.09 8.23
6/1/2022 8:45:00 PM 19.97 67.946 0.141 7.06 367.95 8.27
6/1/2022 9:00:00 PM 19.86 67.748 0.133 7.02 333.06 8.31
6/1/2022 9:15:00 PM 19.73 67.514 0.127 6.99 346.13 8.33
6/1/2022 9:30:00 PM 19.68 67.424 0.129 6.99 268.98 8.35
6/1/2022 9:45:00 PM 19.63 67.334 0.138 7 206.28 8.36
6/1/2022 10:00:00 PM 19.59 67.262 0.142 7.01 187.56 8.37
6/1/2022 10:15:00 PM 19.57 67.226 0.135 7.01 190.2 8.37
6/1/2022 10:30:00 PM 19.56 67.208 0.136 7.01 186.52 8.37
6/1/2022 10:45:00 PM 19.54 67.172 0.135 7 179.04 8.37
6/1/2022 11:00:00 PM 19.52 67.136 0.136 7 160.68 8.37
6/1/2022 11:15:00 PM 19.49 67.082 0.135 7.01 139.4 8.37
6/1/2022 11:30:00 PM 19.47 67.046 0.138 7.02 123.82 8.37
6/1/2022 11:45:00 PM 19.46 67.028 0.138 7.03 106.47 8.38
6/2/2022 12:00:00 AM 19.44 66.992 0.149 7.05 94.4 8.38
6/2/2022 12:15:00 AM 19.42 66.956 0.141 7.06 85.04 8.38
6/2/2022 12:30:00 AM 19.43 66.974 0.144 7.08 74.86 8.39
6/2/2022 12:45:00 AM 19.42 66.956 0.147 7.08 69.21 8.39
6/2/2022 1:00:00 AM 19.42 66.956 0.15 7.09 64.43 8.39
6/2/2022 1:15:00 AM 19.43 66.974 0.152 7.11 59.41 8.39
6/2/2022 1:30:00 AM 19.45 67.01 0.154 7.12 53.6 8.38
6/2/2022 1:45:00 AM 19.49 67.082 0.158 7.14 45.81 8.38
6/2/2022 2:00:00 AM 19.51 67.118 0.161 7.15 47.57 8.37
6/2/2022 2:15:00 AM 19.55 67.19 0.16 7.15 42.14 8.36
6/2/2022 2:30:00 AM 19.57 67.226 0.161 7.16 40.17 8.35
6/2/2022 2:45:00 AM 19.58 67.244 0.166 7.17 38.34 8.35
6/2/2022 3:00:00 AM 19.6 67.28 0.164 7.18 36.23 8.34
6/2/2022 3:15:00 AM 19.61 67.298 0.166 7.19 33.64 8.34
6/2/2022 3:30:00 AM 19.62 67.316 0.169 7.19 28.11 8.33
6/2/2022 3:45:00 AM 19.62 67.316 0.17 7.21 31.35 8.33
6/2/2022 4:00:00 AM 19.62 67.316 0.172 7.21 29.57 8.33
6/2/2022 4:15:00 AM 19.62 67.316 0.174 7.22 27.76 8.33
6/2/2022 4:30:00 AM 19.62 67.316 0.176 7.23 25.27 8.32
6/2/2022 4:45:00 AM 19.61 67.298 0.178 7.23 23.37 8.32
6/2/2022 5:00:00 AM 19.62 67.316 0.179 7.24 24.86 8.32
6/2/2022 5:15:00 AM 19.61 67.298 0.18 7.24 21.11 8.32
6/2/2022 5:30:00 AM 19.62 67.316 0.183 7.25 20.79 8.32
6/2/2022 5:45:00 AM 19.61 67.298 0.183 7.25 20.61 8.32
6/2/2022 6:00:00 AM 19.6 67.28 0.186 7.25 18.16 8.33
6/2/2022 6:15:00 AM 19.61 67.298 0.188 7.25 17.64 8.33
6/2/2022 6:30:00 AM 19.6 67.28 0.188 7.26 16.62 8.33
6/2/2022 6:45:00 AM 19.6 67.28 0.186 7.26 16.86 8.34
6/2/2022 7:00:00 AM 19.59 67.262 0.187 7.26 14.11 8.34
6/2/2022 7:15:00 AM 19.59 67.262 0.186 7.26 16.78 8.35
6/2/2022 7:30:00 AM 19.6 67.28 0.187 7.26 15.82 8.36
6/2/2022 7:45:00 AM 19.61 67.298 0.187 7.27 15.91 8.35
6/2/2022 8:00:00 AM 19.64 67.352 0.188 7.27 14.51 8.35
6/2/2022 8:15:00 AM 19.68 67.424 0.188 7.27 14.9 8.35
6/2/2022 8:30:00 AM 19.71 67.478 0.189 7.27 13.58 8.35
6/2/2022 8:45:00 AM 19.74 67.532 0.19 7.28 14.39 8.35
6/2/2022 9:00:00 AM 19.75 67.55 0.19 7.29 115.65 8.34
6/2/2022 9:15:00 AM 19.77 67.586 0.19 7.29 78.75 8.37
6/2/2022 9:30:00 AM 19.8 67.64 0.191 7.31 12.66 8.4
6/2/2022 9:45:00 AM 19.82 67.676 0.191 7.32 13.08 8.43
6/2/2022 10:00:00 AM 19.82 67.676 0.191 7.34 12.29 8.43
6/2/2022 10:15:00 AM 19.83 67.694 0.192 7.34 12.24 8.43
6/2/2022 10:30:00 AM 19.84 67.712 0.192 7.35 11.92 8.45
6/2/2022 10:45:00 AM 19.86 67.748 0.192 7.36 11.6 8.46
6/2/2022 11:00:00 AM 19.89 67.802 0.193 7.37 11.51 8.48
6/2/2022 11:15:00 AM 19.93 67.874 0.193 7.38 11.22 8.5
6/2/2022 11:30:00 AM 19.96 67.92799 0.194 7.39 11.02 8.52
6/2/2022 11:45:00 AM 19.98 67.964 0.194 7.39 11.04 8.52
6/2/2022 12:00:00 PM 20.01 68.018 0.196 7.4 10.65 8.52
6/2/2022 12:15:00 PM 20.04 68.07201 0.198 7.4 10.55 8.52
6/2/2022 12:30:00 PM 20.07 68.126 0.2 7.4 10.7 8.52
6/2/2022 12:45:00 PM 20.12 68.216 0.201 7.41 9.83 8.51
6/2/2022 1:00:00 PM 20.16 68.288 0.2 7.41 9.44 8.51
6/2/2022 1:15:00 PM 20.21 68.378 0.197 7.42 9.37 8.51
6/2/2022 1:30:00 PM 20.26 68.468 0.197 7.42 9.12 8.51
6/2/2022 1:45:00 PM 20.31 68.558 0.197 7.42 9.41 8.5
6/2/2022 2:00:00 PM 20.35 68.63 0.198 7.43 8.68 8.5
6/2/2022 2:15:00 PM 20.39 68.702 0.198 7.43 9.8 8.49
6/2/2022 2:30:00 PM 20.42 68.756 0.198 7.43 8.48 8.49
6/2/2022 2:45:00 PM 20.47 68.846 0.199 7.44 8.81 8.49
6/2/2022 3:00:00 PM 20.51 68.918 0.199 7.45 8.89 8.5
6/2/2022 3:15:00 PM 20.54 68.972 0.2 7.45 8.91 8.5
6/2/2022 3:30:00 PM 20.57 69.026 0.201 7.46 8.09 8.49
6/2/2022 3:45:00 PM 20.61 69.098 0.201 7.46 8.78 8.48
6/2/2022 4:00:00 PM 20.65 69.17 0.202 7.46 8.34 8.48
6/2/2022 4:15:00 PM 20.68 69.224 0.202 7.46 8.57 8.46
6/2/2022 4:30:00 PM 20.7 69.26 0.202 7.46 8.2 8.46
6/2/2022 4:45:00 PM 20.73 69.314 0.203 7.47 8.2 8.45
6/2/2022 5:00:00 PM 20.74 69.332 0.203 7.46 7.82 8.43
6/2/2022 5:15:00 PM 20.76 69.368 0.203 7.46 7.68 8.42
6/2/2022 5:30:00 PM 20.76 69.368 0.204 7.46 8.06 8.39
6/2/2022 5:45:00 PM 20.76 69.368 0.204 7.45 8.12 8.37
6/2/2022 6:00:00 PM 20.75 69.35 0.205 7.45 8.01 8.36
6/2/2022 6:15:00 PM 20.71 69.278 0.205 7.44 7.87 8.33
6/2/2022 6:30:00 PM 20.68 69.224 0.205 7.43 7.96 8.3
6/2/2022 6:45:00 PM 20.65 69.17 0.206 7.42 7.53 8.29
6/2/2022 7:00:00 PM 20.61 69.098 0.206 7.41 7.74 8.27
6/2/2022 7:15:00 PM 20.56 69.008 0.206 7.41 7.73 8.26
6/2/2022 7:30:00 PM 20.52 68.936 0.207 7.4 7.84 8.23
6/2/2022 7:45:00 PM 20.47 68.846 0.207 7.39 8.06 8.21
6/2/2022 8:00:00 PM 20.43 68.774 0.208 7.38 13.93 8.19
6/2/2022 8:15:00 PM 20.38 68.684 0.208 7.37 8.32 8.17
6/2/2022 8:30:00 PM 20.34 68.612 0.208 7.37 7.19 8.16
6/2/2022 8:45:00 PM 20.3 68.54 0.208 7.36 7.06 8.15
6/2/2022 9:00:00 PM 20.26 68.468 0.209 7.36 7.73 8.14
6/2/2022 9:15:00 PM 20.22 68.396 0.209 7.35 7.29 8.14
6/2/2022 9:30:00 PM 20.19 68.342 0.209 7.35 7.46 8.14
6/2/2022 9:45:00 PM 20.15 68.27 0.21 7.35 7.61 8.13
6/2/2022 10:00:00 PM 20.12 68.216 0.21 7.35 7.2 8.14
6/2/2022 10:15:00 PM 20.1 68.18 0.215 7.34 7.53 8.14
6/2/2022 10:30:00 PM 20.08 68.144 0.216 7.34 7.25 8.14
6/2/2022 10:45:00 PM 20.06 68.108 0.217 7.34 7.09 8.14
6/2/2022 11:00:00 PM 20.04 68.07201 0.217 7.34 7.06 8.15
6/2/2022 11:15:00 PM 20.01 68.018 0.217 7.34 6.89 8.15
6/2/2022 11:30:00 PM 19.99 67.982 0.217 7.34 7.06 8.16
6/2/2022 11:45:00 PM 19.97 67.946 0.216 7.34 6.89 8.15
6/3/2022 12:00:00 AM 19.95 67.91 0.215 7.33 7.12 8.16
6/3/2022 12:15:00 AM 19.93 67.874 0.214 7.34 6.94 8.16
6/3/2022 12:30:00 AM 19.9 67.82 0.212 7.34 7.04 8.17
6/3/2022 12:45:00 AM 19.87 67.766 0.212 7.34 6.71 8.17
6/3/2022 1:00:00 AM 19.84 67.712 0.212 7.34 6.64 8.17
6/3/2022 1:15:00 AM 19.81 67.658 0.212 7.34 6.48 8.18
6/3/2022 1:30:00 AM 19.79 67.622 0.212 7.35 6.52 8.18
6/3/2022 1:45:00 AM 19.75 67.55 0.213 7.35 6.77 8.19
6/3/2022 2:00:00 AM 19.72 67.496 0.213 7.35 6.63 8.2
6/3/2022 2:15:00 AM 19.68 67.424 0.213 7.35 6.25 8.21
6/3/2022 2:30:00 AM 19.63 67.334 0.213 7.35 6.34 8.22
6/3/2022 2:45:00 AM 19.59 67.262 0.213 7.35 6.09 8.21
6/3/2022 3:00:00 AM 19.54 67.172 0.213 7.35 6.54 8.24
6/3/2022 3:15:00 AM 19.5 67.1 0.214 7.35 6.26 8.24
6/3/2022 3:30:00 AM 19.45 67.01 0.214 7.35 6.03 8.26
6/3/2022 3:45:00 AM 19.39 66.902 0.214 7.35 6.08 8.26
6/3/2022 4:00:00 AM 19.35 66.83 0.214 7.35 6.77 8.28
6/3/2022 4:15:00 AM 19.29 66.722 0.214 7.35 6.22 8.29
6/3/2022 4:30:00 AM 19.24 66.632 0.214 7.35 5.93 8.3
6/3/2022 4:45:00 AM 19.18 66.524 0.215 7.35 5.94 8.31
6/3/2022 5:00:00 AM 19.13 66.434 0.215 7.35 6.51 8.32
6/3/2022 5:15:00 AM 19.08 66.344 0.215 7.35 6.14 8.32
6/3/2022 5:30:00 AM 19.03 66.254 0.216 7.35 6.29 8.34
6/3/2022 5:45:00 AM 18.98 66.164 0.216 7.35 5.97 8.35
6/3/2022 6:00:00 AM 18.94 66.092 0.216 7.35 7.04 8.37
6/3/2022 6:15:00 AM 18.89 66.002 0.217 7.35 10.43 8.37
6/3/2022 6:30:00 AM 18.86 65.948 0.217 7.35 5.67 8.4
6/3/2022 6:45:00 AM 18.82 65.876 0.217 7.35 11.52 8.42
6/3/2022 7:00:00 AM 18.78 65.804 0.218 7.36 7.76 8.45
6/3/2022 7:15:00 AM 18.75 65.75 0.218 7.36 6.1 8.47
6/3/2022 7:30:00 AM 18.75 65.75 0.218 7.38 5.3 8.54
6/3/2022 7:45:00 AM 18.75 65.75 0.219 7.39 5.12 8.59
6/3/2022 8:00:00 AM 18.7 65.66 0.219 7.39 5.21 8.59
6/3/2022 8:15:00 AM 18.72 65.696 0.219 7.4 5.83 8.61
6/3/2022 8:30:00 AM 18.72 65.696 0.22 7.4 4.93 8.63
6/3/2022 8:45:00 AM 18.71 65.67799 0.22 7.41 6.54 8.62
6/3/2022 9:00:00 AM 18.73 65.714 0.22 7.41 16.16 8.66
6/3/2022 9:15:00 AM 18.78 65.804 0.22 7.42 5.71 8.68
6/3/2022 9:30:00 AM 18.8 65.84 0.22 7.43 8.95 8.68
6/3/2022 9:45:00 AM 18.84 65.912 0.22 7.43 6.68 8.69
6/3/2022 10:00:00 AM 18.88 65.984 0.22 7.44 4.36 8.71
6/3/2022 10:15:00 AM 18.96 66.128 0.22 7.44 4.41 8.72
6/3/2022 10:30:00 AM 19.04 66.272 0.22 7.45 4.49 8.74
6/3/2022 10:45:00 AM 19.14 66.452 0.22 7.46 4.42 8.74
6/3/2022 11:00:00 AM 19.25 66.65 0.219 7.47 3.97 8.74
6/3/2022 11:15:00 AM 19.37 66.866 0.219 7.48 4.05 8.74
6/3/2022 11:30:00 AM 19.52 67.136 0.219 7.49 4.16 8.74
6/3/2022 11:45:00 AM 19.67 67.406 0.219 7.5 4.05 8.75
6/3/2022 12:00:00 PM 19.83 67.694 0.219 7.51 4.04 8.73
6/3/2022 12:15:00 PM 20.01 68.018 0.219 7.52 3.98 8.73
6/3/2022 12:30:00 PM 20.17 68.306 0.219 7.53 4.01 8.72
6/3/2022 12:45:00 PM 20.34 68.612 0.219 7.53 3.75 8.7
6/3/2022 1:00:00 PM 20.53 68.954 0.219 7.54 3.71 8.7
6/3/2022 1:15:00 PM 20.71 69.278 0.219 7.55 4.1 8.68
6/3/2022 1:30:00 PM 20.87 69.566 0.219 7.55 3.89 8.66
6/3/2022 1:45:00 PM 21.03 69.854 0.219 7.56 3.77 8.64
6/3/2022 2:00:00 PM 21.17 70.106 0.22 7.56 4.18 8.61
6/3/2022 2:15:00 PM 21.32 70.376 0.22 7.56 3.81 8.59
6/3/2022 2:30:00 PM 21.44 70.592 0.22 7.56 5.28 8.56
6/3/2022 2:45:00 PM 21.54 70.772 0.221 7.57 4.06 8.54
6/3/2022 3:00:00 PM 21.62 70.916 0.221 7.57 3.81 8.51
6/3/2022 3:15:00 PM 21.69 71.042 0.236 7.56 4.1 8.48
6/3/2022 3:30:00 PM 21.68 71.024 0.222 7.56 3.85 8.46
6/3/2022 3:45:00 PM 21.65 70.97 0.222 7.55 3.82 8.42
6/3/2022 4:00:00 PM 21.6 70.88 0.222 7.55 3.89 8.39
6/3/2022 4:15:00 PM 21.57 70.826 0.223 7.54 3.71 8.36
6/3/2022 4:30:00 PM 21.53 70.754 0.223 7.53 4.32 8.33
6/3/2022 4:45:00 PM 21.53 70.754 0.224 7.53 3.83 8.33
6/3/2022 5:00:00 PM 21.48 70.664 0.224 7.52 3.98 8.29
6/3/2022 5:15:00 PM 21.45 70.61 0.224 7.52 3.99 8.28
6/3/2022 5:30:00 PM 21.37 70.466 0.225 7.51 3.79 8.26
6/3/2022 5:45:00 PM 21.29 70.32201 0.225 7.5 3.87 8.24
6/3/2022 6:00:00 PM 21.2 70.16 0.225 7.49 3.72 8.21
6/3/2022 6:15:00 PM 21.1 69.98 0.225 7.48 3.79 8.2
6/3/2022 6:30:00 PM 21.02 69.836 0.225 7.47 3.89 8.18
6/3/2022 6:45:00 PM 20.92 69.656 0.226 7.46 3.89 8.16
6/3/2022 7:00:00 PM 20.82 69.476 0.226 7.45 4.16 8.15
6/3/2022 7:15:00 PM 20.72 69.296 0.226 7.44 4.17 8.13
6/3/2022 7:30:00 PM 20.64 69.152 0.226 7.43 4.02 8.11
6/3/2022 7:45:00 PM 20.54 68.972 0.226 7.42 4.31 8.1
6/3/2022 8:00:00 PM 20.44 68.792 0.226 7.41 4.04 8.09
6/3/2022 8:15:00 PM 20.34 68.612 0.226 7.41 3.88 8.09
6/3/2022 8:30:00 PM 20.24 68.432 0.226 7.4 4.28 8.1
6/3/2022 8:45:00 PM 20.14 68.252 0.227 7.39 4.09 8.1
6/3/2022 9:00:00 PM 20.04 68.07201 0.227 7.39 4.24 8.09
6/3/2022 9:15:00 PM 19.95 67.91 0.227 7.38 4.13 8.09
6/3/2022 9:30:00 PM 19.86 67.748 0.227 7.38 4.21 8.1
6/3/2022 9:45:00 PM 19.77 67.586 0.227 7.38 4.05 8.11
6/3/2022 10:00:00 PM 19.68 67.424 0.227 7.37 4.47 8.13
6/3/2022 10:15:00 PM 19.59 67.262 0.227 7.37 4.05 8.14
6/3/2022 10:30:00 PM 19.5 67.1 0.227 7.37 4.62 8.16
6/3/2022 10:45:00 PM 19.42 66.956 0.227 7.37 4.13 8.17
6/3/2022 11:00:00 PM 19.34 66.812 0.227 7.36 4.26 8.17
6/3/2022 11:15:00 PM 19.27 66.686 0.227 7.36 5.06 8.18
6/3/2022 11:30:00 PM 19.19 66.542 0.227 7.36 4.09 8.22
6/3/2022 11:45:00 PM 19.12 66.416 0.227 7.36 4.36 8.23
6/4/2022 12:00:00 AM 19.04 66.272 0.227 7.36 3.96 8.24
6/4/2022 12:15:00 AM 18.97 66.146 0.227 7.35 4.53 8.26
6/4/2022 12:30:00 AM 18.9 66.02 0.228 7.35 4.33 8.26
6/4/2022 12:45:00 AM 18.83 65.894 0.228 7.35 4.26 8.27
6/4/2022 1:00:00 AM 18.76 65.768 0.228 7.35 4.18 8.31
6/4/2022 1:15:00 AM 18.7 65.66 0.228 7.34 3.95 8.31
6/4/2022 1:30:00 AM 18.63 65.534 0.228 7.32 4.28 8.33
6/4/2022 1:45:00 AM 18.56 65.408 0.228 7.32 4.11 8.32
6/4/2022 2:00:00 AM 18.5 65.3 0.23 7.32 3.85 8.36
6/4/2022 2:15:00 AM 18.44 65.192 0.229 7.32 4.02 8.37
6/4/2022 2:30:00 AM 18.37 65.066 0.229 7.32 4.02 8.38
6/4/2022 2:45:00 AM 18.31 64.958 0.229 7.32 3.81 8.4
6/4/2022 3:00:00 AM 18.24 64.832 0.229 7.32 3.81 8.42
6/4/2022 3:15:00 AM 18.18 64.724 0.229 7.32 3.73 8.43
6/4/2022 3:30:00 AM 18.1 64.58 0.233 7.32 3.76 8.42
6/4/2022 3:45:00 AM 18.04 64.472 0.234 7.32 3.89 8.45
6/4/2022 4:00:00 AM 17.96 64.328 0.233 7.31 3.74 8.45
6/4/2022 4:15:00 AM 17.9 64.22 0.233 7.32 3.98 8.48
6/4/2022 4:30:00 AM 17.83 64.094 0.234 7.31 3.88 8.5
6/4/2022 4:45:00 AM 17.76 63.968 0.235 7.31 3.88 8.49
6/4/2022 5:00:00 AM 17.69 63.842 0.235 7.31 4.98 8.51
6/4/2022 5:15:00 AM 17.62 63.716 0.234 7.31 4.25 8.52
6/4/2022 5:30:00 AM 17.55 63.59 0.233 7.3 3.69 8.55
6/4/2022 5:45:00 AM 17.48 63.464 0.235 7.31 4.34 8.57
6/4/2022 6:00:00 AM 17.42 63.356 0.234 7.31 4.02 8.58
6/4/2022 6:15:00 AM 17.36 63.248 0.234 7.31 3.84 8.61
6/4/2022 6:30:00 AM 17.3 63.14 0.244 7.32 3.74 8.64
6/4/2022 6:45:00 AM 17.25 63.05 0.24 7.32 3.96 8.67
6/4/2022 7:00:00 AM 17.22 62.996 0.24 7.33 3.92 8.71
6/4/2022 7:15:00 AM 17.18 62.924 0.24 7.34 4.78 8.75
6/4/2022 7:30:00 AM 17.18 62.924 0.24 7.35 4.86 8.8
6/4/2022 7:45:00 AM 17.19 62.942 0.24 7.36 3.48 8.84
6/4/2022 8:00:00 AM 17.21 62.978 0.241 7.37 3.32 8.88
6/4/2022 8:15:00 AM 17.24 63.032 0.241 7.39 3.36 8.92
6/4/2022 8:30:00 AM 17.28 63.104 0.242 7.39 3.79 8.94
6/4/2022 8:45:00 AM 17.33 63.194 0.244 7.41 3.59 8.96
6/4/2022 9:00:00 AM 17.4 63.32 0.243 7.41 102.86 8.98
6/4/2022 9:15:00 AM 17.47 63.446 0.234 7.42 4.41 8.97
6/4/2022 9:30:00 AM 17.55 63.59 0.234 7.44 2.94 9
6/4/2022 9:45:00 AM 17.64 63.752 0.236 7.45 3 9
6/4/2022 10:00:00 AM 17.74 63.932 0.236 7.46 5.11 9.02
6/4/2022 10:15:00 AM 17.85 64.13 0.237 7.47 5.5 9.03
6/4/2022 10:30:00 AM 17.98 64.364 0.238 7.48 4.98 9.01
6/4/2022 10:45:00 AM 18.12 64.616 0.238 7.48 2.85 9.01
6/4/2022 11:00:00 AM 18.29 64.922 0.238 7.5 3.74 9.02
6/4/2022 11:15:00 AM 18.48 65.264 0.238 7.51 82.63 9.03
6/4/2022 11:30:00 AM 18.67 65.606 0.238 7.51 7.43 9.01
6/4/2022 11:45:00 AM 18.88 65.984 0.238 7.53 2.61 9.01
6/4/2022 12:00:00 PM 19.1 66.38 0.238 7.54 2.87 8.98
6/4/2022 12:15:00 PM 19.32 66.776 0.238 7.55 2.49 8.96
6/4/2022 12:30:00 PM 19.56 67.208 0.238 7.56 2.51 8.94
6/4/2022 12:45:00 PM 19.78 67.604 0.238 7.56 2.78 8.92
6/4/2022 1:00:00 PM 20.04 68.07201 0.239 7.58 2.73 8.9
6/4/2022 1:15:00 PM 20.28 68.504 0.238 7.59 2.97 8.87
6/4/2022 1:30:00 PM 20.51 68.918 0.239 7.59 2.94 8.84
6/4/2022 1:45:00 PM 20.72 69.296 0.239 7.6 3.75 8.8
6/4/2022 2:00:00 PM 20.92 69.656 0.239 7.6 3.14 8.77
6/4/2022 2:15:00 PM 21.12 70.016 0.24 7.61 2.71 8.75
6/4/2022 2:30:00 PM 21.29 70.32201 0.24 7.62 3.68 8.72
6/4/2022 2:45:00 PM 21.43 70.574 0.241 7.61 3.34 8.68
6/4/2022 3:00:00 PM 21.55 70.79 0.241 7.62 2.57 8.65
6/4/2022 3:15:00 PM 21.65 70.97 0.241 7.62 2.34 8.62
6/4/2022 3:30:00 PM 21.72 71.096 0.241 7.61 2.57 8.56
6/4/2022 3:45:00 PM 21.78 71.204 0.239 7.6 2.29 8.53
6/4/2022 4:00:00 PM 21.79 71.222 0.236 7.6 2.47 8.49
6/4/2022 4:15:00 PM 21.79 71.222 0.236 7.59 2.61 8.43
6/4/2022 4:30:00 PM 21.77 71.186 0.235 7.58 2.4 8.41
6/4/2022 4:45:00 PM 21.74 71.132 0.235 7.57 2.51 8.37
6/4/2022 5:00:00 PM 21.69 71.042 0.237 7.57 2.93 8.34
6/4/2022 5:15:00 PM 21.59 70.862 0.236 7.55 2.92 8.3
6/4/2022 5:30:00 PM 21.51 70.718 0.236 7.55 2.75 8.26
6/4/2022 5:45:00 PM 21.45 70.61 0.236 7.54 2.69 8.24
6/4/2022 6:00:00 PM 21.34 70.412 0.237 7.52 2.79 8.2
6/4/2022 6:15:00 PM 21.24 70.232 0.237 7.52 2.64 8.2
6/4/2022 6:30:00 PM 21.14 70.052 0.237 7.51 2.72 8.18
6/4/2022 6:45:00 PM 21.03 69.854 0.239 7.49 3.49 8.16
6/4/2022 7:00:00 PM 20.92 69.656 0.245 7.48 4.41 8.13
6/4/2022 7:15:00 PM 20.78 69.404 0.238 7.47 2.74 8.11
6/4/2022 7:30:00 PM 20.65 69.17 0.165 7.45 3.59 8.08
6/4/2022 7:45:00 PM 20.5 68.9 0.238 7.45 2.56 8.08
6/4/2022 8:00:00 PM 20.35 68.63 0.239 7.43 3.12 8.08
6/4/2022 8:15:00 PM 20.21 68.378 0.236 7.42 11.57 8.07
6/4/2022 8:30:00 PM 20.06 68.108 0.241 7.41 5.22 8.07
6/4/2022 8:45:00 PM 19.9 67.82 0.239 7.41 4.05 8.09
6/4/2022 9:00:00 PM 19.74 67.532 0.242 7.4 4.53 8.09
6/4/2022 9:15:00 PM 19.58 67.244 0.24 7.39 3.4 8.11
6/4/2022 9:30:00 PM 19.43 66.974 0.249 7.39 5.72 8.13
6/4/2022 9:45:00 PM 19.27 66.686 0.248 7.38 4.86 8.16
6/4/2022 10:00:00 PM 19.11 66.398 0.248 7.38 3.71 8.17
6/4/2022 10:15:00 PM 18.96 66.128 0.249 7.38 3.34 8.21
6/4/2022 10:30:00 PM 18.81 65.858 0.248 7.38 3.22 8.25
6/4/2022 10:45:00 PM 18.67 65.606 0.248 7.37 3.21 8.27
6/4/2022 11:00:00 PM 18.53 65.354 0.248 7.37 3.58 8.29
6/4/2022 11:15:00 PM 18.4 65.12 0.248 7.38 3.5 8.34
6/4/2022 11:30:00 PM 18.28 64.904 0.244 7.38 3.29 8.36
6/4/2022 11:45:00 PM 18.16 64.688 0.24 7.37 3.58 8.38
6/5/2022 12:00:00 AM 18.05 64.49 0.24 7.37 3.36 8.39
6/5/2022 12:15:00 AM 17.95 64.31 0.24 7.37 3.32 8.43
6/5/2022 12:30:00 AM 17.85 64.13 0.24 7.37 3.43 8.44
6/5/2022 12:45:00 AM 17.76 63.968 0.241 7.37 3.17 8.46
6/5/2022 1:00:00 AM 17.66 63.788 0.241 7.36 3.18 8.48
6/5/2022 1:15:00 AM 17.56 63.608 0.241 7.37 3.6 8.51
6/5/2022 1:30:00 AM 17.46 63.428 0.241 7.36 3.35 8.52
6/5/2022 1:45:00 AM 17.37 63.266 0.241 7.37 3.21 8.55
6/5/2022 2:00:00 AM 17.29 63.122 0.241 7.35 3.23 8.56
6/5/2022 2:15:00 AM 17.2 62.96 0.241 7.35 3.32 8.58
6/5/2022 2:30:00 AM 17.11 62.798 0.241 7.33 3.42 8.59
6/5/2022 2:45:00 AM 17.02 62.636 0.241 7.33 3.26 8.61
6/5/2022 3:00:00 AM 16.94 62.492 0.241 7.33 3.45 8.63
6/5/2022 3:15:00 AM 16.86 62.348 0.242 7.33 3.15 8.66
6/5/2022 3:30:00 AM 16.77 62.186 0.241 7.33 3.15 8.67
6/5/2022 3:45:00 AM 16.69 62.042 0.241 7.34 3.07 8.69
6/5/2022 4:00:00 AM 16.6 61.88 0.242 7.34 3.38 8.73
6/5/2022 4:15:00 AM 16.52 61.736 0.242 7.35 3.17 8.75
6/5/2022 4:30:00 AM 16.44 61.592 0.242 7.32 3.29 8.76
6/5/2022 4:45:00 AM 16.36 61.448 0.242 7.33 3.4 8.77
6/5/2022 5:00:00 AM 16.27 61.286 0.242 7.32 3.46 8.78
6/5/2022 5:15:00 AM 16.2 61.16 0.242 7.32 3.55 8.8
6/5/2022 5:30:00 AM 16.12 61.016 0.242 7.33 3.04 8.83
6/5/2022 5:45:00 AM 16.04 60.872 0.242 7.32 3.34 8.85
6/5/2022 6:00:00 AM 15.96 60.728 0.242 7.32 3.15 8.89
6/5/2022 6:15:00 AM 15.9 60.62 0.242 7.32 3.2 8.92
6/5/2022 6:30:00 AM 15.84 60.512 0.242 7.33 3.05 8.97
6/5/2022 6:45:00 AM 15.79 60.422 0.243 7.34 3.06 9
6/5/2022 7:00:00 AM 15.76 60.368 0.243 7.35 3.13 9.06
6/5/2022 7:15:00 AM 15.73 60.314 0.16 7.36 6.34 9.12
6/5/2022 7:30:00 AM 15.74 60.332 0.243 7.38 3.11 9.18
6/5/2022 7:45:00 AM 15.75 60.35 0.243 7.39 3.09 9.23
6/5/2022 8:00:00 AM 15.79 60.422 0.243 7.41 2.91 9.28
6/5/2022 8:15:00 AM 15.82 60.476 0.241 7.43 5.04 9.34
6/5/2022 8:30:00 AM 15.85 60.53 0.243 7.44 4.76 9.37
6/5/2022 8:45:00 AM 15.89 60.602 0.243 7.47 2.93 9.43
6/5/2022 9:00:00 AM 15.93 60.674 0.243 7.48 2.89 9.46
6/5/2022 9:15:00 AM 16 60.8 0.243 7.5 3.03 9.5
6/5/2022 9:30:00 AM 16.11 60.998 0.243 7.52 2.84 9.54
6/5/2022 9:45:00 AM 16.2 61.16 0.243 7.54 2.89 9.58
6/5/2022 10:00:00 AM 16.26 61.268 0.243 7.56 2.94 9.6
6/5/2022 10:15:00 AM 16.36 61.448 0.243 7.57 2.75 9.63
6/5/2022 10:30:00 AM 16.46 61.628 0.243 7.59 2.67 9.64
6/5/2022 10:45:00 AM 16.6 61.88 0.243 7.61 2.6 9.66
6/5/2022 11:00:00 AM 16.68 62.024 0.243 7.62 2.71 9.67
6/5/2022 11:15:00 AM 16.78 62.204 0.248 7.63 2.64 9.69
6/5/2022 11:30:00 AM 16.9 62.42 0.252 7.65 2.76 9.71
6/5/2022 11:45:00 AM 17.01 62.618 0.253 7.67 2.88 9.7
6/5/2022 12:00:00 PM 17.16 62.888 0.253 7.68 2.6 9.7
6/5/2022 12:15:00 PM 17.3 63.14 0.253 7.69 3.03 9.68
6/5/2022 12:30:00 PM 17.52 63.536 0.257 7.69 2.62 9.64
6/5/2022 12:45:00 PM 17.73 63.914 0.277 7.69 4.32 9.6
6/5/2022 1:00:00 PM 17.93 64.274 0.258 7.71 2.51 9.59
6/5/2022 1:15:00 PM 18.13 64.634 0.258 7.71 2.75 9.54
6/5/2022 1:30:00 PM 18.37 65.066 0.258 7.72 2.6 9.51
6/5/2022 1:45:00 PM 18.63 65.534 0.259 7.72 3.4 9.46
6/5/2022 2:00:00 PM 18.86 65.948 0.259 7.72 2.7 9.4
6/5/2022 2:15:00 PM 19.1 66.38 0.259 7.72 2.6 9.36
6/5/2022 2:30:00 PM 19.31 66.758 0.259 7.72 2.72 9.29
6/5/2022 2:45:00 PM 19.5 67.1 0.259 7.71 2.65 9.24
6/5/2022 3:00:00 PM 19.66 67.388 0.259 7.71 3.48 9.19
6/5/2022 3:15:00 PM 19.83 67.694 0.261 7.71 2.77 9.13
6/5/2022 3:30:00 PM 19.96 67.92799 0.26 7.7 3.31 9.07
6/5/2022 3:45:00 PM 20.05 68.09 0.261 7.7 2.55 9.02
6/5/2022 4:00:00 PM 20.1 68.18 0.262 7.68 2.56 8.96
6/5/2022 4:15:00 PM 20.16 68.288 0.262 7.68 2.51 8.92
6/5/2022 4:30:00 PM 20.19 68.342 0.262 7.67 2.68 8.87
6/5/2022 4:45:00 PM 20.22 68.396 0.262 7.66 2.93 8.82
6/5/2022 5:00:00 PM 20.22 68.396 0.268 7.64 3.14 8.76
6/5/2022 5:15:00 PM 20.21 68.378 0.255 7.63 2.66 8.72
6/5/2022 5:30:00 PM 20.2 68.36 0.269 7.62 2.75 8.66
6/5/2022 5:45:00 PM 20.17 68.306 0.255 7.6 2.79 8.62
6/5/2022 6:00:00 PM 20.15 68.27 0.263 7.59 2.9 8.58
6/5/2022 6:15:00 PM 20.12 68.216 0.264 7.57 3.31 8.54
6/5/2022 6:30:00 PM 20.08 68.144 0.272 7.56 2.66 8.49
6/5/2022 6:45:00 PM 20.03 68.054 0.259 7.55 2.67 8.45
6/5/2022 7:00:00 PM 19.98 67.964 0.256 7.53 2.74 8.41
6/5/2022 7:15:00 PM 19.92 67.856 0.257 7.51 2.83 8.35
6/5/2022 7:30:00 PM 19.85 67.73 0.258 7.5 2.63 8.31
6/5/2022 7:45:00 PM 19.79 67.622 0.256 7.48 2.68 8.27
6/5/2022 8:00:00 PM 19.71 67.478 0.257 7.47 3.41 8.24
6/5/2022 8:15:00 PM 19.62 67.316 0.259 7.46 3.11 8.23
6/5/2022 8:30:00 PM 19.53 67.154 0.259 7.45 2.73 8.21
6/5/2022 8:45:00 PM 19.43 66.974 0.256 7.44 2.92 8.21
6/5/2022 9:00:00 PM 19.32 66.776 0.276 7.43 2.59 8.19
6/5/2022 9:15:00 PM 19.21 66.578 0.263 7.43 2.9 8.19
6/5/2022 9:30:00 PM 19.09 66.362 0.264 7.42 3.42 8.2
6/5/2022 9:45:00 PM 18.99 66.182 0.264 7.42 2.83 8.23
6/5/2022 10:00:00 PM 18.86 65.948 0.266 7.41 2.79 8.24
6/5/2022 10:15:00 PM 18.75 65.75 0.267 7.41 2.94 8.26
6/5/2022 10:30:00 PM 18.64 65.552 0.268 7.41 2.92 8.28
6/5/2022 10:45:00 PM 18.53 65.354 0.268 7.4 3.7 8.3
6/5/2022 11:00:00 PM 18.41 65.138 0.267 7.4 3.32 8.32
6/5/2022 11:15:00 PM 18.3 64.94 0.261 7.4 3.06 8.36
6/5/2022 11:30:00 PM 18.19 64.742 0.256 7.4 3.18 8.38
6/5/2022 11:45:00 PM 18.08 64.544 0.255 7.4 2.85 8.39
6/6/2022 12:00:00 AM 17.97 64.346 0.254 7.39 3.07 8.41
6/6/2022 12:15:00 AM 17.87 64.166 0.25 7.39 3.49 8.45
6/6/2022 12:30:00 AM 17.76 63.968 0.249 7.39 2.85 8.46
6/6/2022 12:45:00 AM 17.66 63.788 0.248 7.39 3.09 8.49
6/6/2022 1:00:00 AM 17.57 63.626 0.248 7.38 3.21 8.51
6/6/2022 1:15:00 AM 17.48 63.464 0.248 7.38 2.96 8.53
6/6/2022 1:30:00 AM 17.4 63.32 0.248 7.38 2.88 8.55
6/6/2022 1:45:00 AM 17.33 63.194 0.248 7.38 3.14 8.57
6/6/2022 2:00:00 AM 17.25 63.05 0.248 7.37 3.19 8.59
6/6/2022 2:15:00 AM 17.18 62.924 0.248 7.37 3 8.6
6/6/2022 2:30:00 AM 17.11 62.798 0.248 7.37 3.45 8.62
6/6/2022 2:45:00 AM 17.04 62.672 0.248 7.37 2.95 8.63
6/6/2022 3:00:00 AM 16.98 62.564 0.248 7.37 3.01 8.65
6/6/2022 3:15:00 AM 16.91 62.438 0.248 7.36 2.93 8.66
6/6/2022 3:30:00 AM 16.84 62.312 0.248 7.36 2.8 8.67
6/6/2022 3:45:00 AM 16.77 62.186 0.248 7.35 3.38 8.69
6/6/2022 4:00:00 AM 16.7 62.06 0.248 7.35 3.14 8.71
6/6/2022 4:15:00 AM 16.64 61.952 0.248 7.35 2.89 8.72
6/6/2022 4:30:00 AM 16.58 61.844 0.248 7.34 3.39 8.72
6/6/2022 4:45:00 AM 16.52 61.736 0.247 7.34 3.24 8.75
6/6/2022 5:00:00 AM 16.45 61.61 0.247 7.34 2.9 8.77
6/6/2022 5:15:00 AM 16.39 61.502 0.248 7.34 3.28 8.79
6/6/2022 5:30:00 AM 16.32 61.376 0.247 7.34 2.96 8.79
6/6/2022 5:45:00 AM 16.27 61.286 0.248 7.34 3.77 8.82
6/6/2022 6:00:00 AM 16.2 61.16 0.247 7.34 3.98 8.85
6/6/2022 6:15:00 AM 16.15 61.07 0.247 7.35 2.91 8.89
6/6/2022 6:30:00 AM 16.1 60.98 0.248 7.35 5.94 8.93
6/6/2022 6:45:00 AM 16.07 60.926 0.248 7.36 2.87 8.97
6/6/2022 7:00:00 AM 16.04 60.872 0.248 7.37 2.82 9.03
6/6/2022 7:15:00 AM 16.02 60.836 0.248 7.38 3.03 9.08
6/6/2022 7:30:00 AM 16.04 60.872 0.248 7.4 3.37 9.16
6/6/2022 7:45:00 AM 16.08 60.944 0.248 7.42 3.88 9.23
6/6/2022 8:00:00 AM 16.12 61.016 0.248 7.44 2.56 9.29
6/6/2022 8:15:00 AM 16.19 61.142 0.248 7.46 3.75 9.34
6/6/2022 8:30:00 AM 16.25 61.25 0.251 7.47 2.73 9.38
6/6/2022 8:45:00 AM 16.33 61.394 0.248 7.48 2.96 9.41
6/6/2022 9:00:00 AM 16.42 61.556 0.248 7.5 2.5 9.43
6/6/2022 9:15:00 AM 16.52 61.736 0.248 7.52 2.52 9.45
6/6/2022 9:30:00 AM 16.62 61.916 0.257 7.53 2.58 9.46
6/6/2022 9:45:00 AM 16.74 62.132 0.26 7.54 2.6 9.47
6/6/2022 10:00:00 AM 16.86 62.348 0.262 7.56 2.62 9.48
6/6/2022 10:15:00 AM 17 62.6 0.265 7.58 2.45 9.49
6/6/2022 10:30:00 AM 17.13 62.834 0.267 7.58 2.48 9.48
6/6/2022 10:45:00 AM 17.28 63.104 0.271 7.6 2.45 9.49
6/6/2022 11:00:00 AM 17.45 63.41 0.267 7.61 2.52 9.49
6/6/2022 11:15:00 AM 17.64 63.752 0.266 7.63 2.64 9.48
6/6/2022 11:30:00 AM 17.85 64.13 0.266 7.64 2.37 9.47
6/6/2022 11:45:00 AM 18.08 64.544 0.267 7.66 2.56 9.46
6/6/2022 12:00:00 PM 18.33 64.994 0.265 7.67 2.45 9.46
6/6/2022 12:15:00 PM 18.57 65.426 0.264 7.69 2.46 9.45
6/6/2022 12:30:00 PM 18.82 65.876 0.265 7.7 2.68 9.42
6/6/2022 12:45:00 PM 19.1 66.38 0.266 7.72 2.55 9.42
6/6/2022 1:00:00 PM 19.39 66.902 0.265 7.74 2.46 9.4
6/6/2022 1:15:00 PM 19.67 67.406 0.264 7.74 2.4 9.35
6/6/2022 1:30:00 PM 19.93 67.874 0.263 7.75 2.47 9.31
6/6/2022 1:45:00 PM 20.22 68.396 0.261 7.76 2.57 9.27
6/6/2022 2:00:00 PM 20.47 68.846 0.262 7.76 2.43 9.23
6/6/2022 2:15:00 PM 20.72 69.296 0.262 7.78 2.42 9.19
6/6/2022 2:30:00 PM 20.93 69.674 0.262 7.78 2.44 9.16
6/6/2022 2:45:00 PM 21.12 70.016 0.263 7.78 2.62 9.12
6/6/2022 3:00:00 PM 21.32 70.376 0.262 7.8 2.78 9.11
6/6/2022 3:15:00 PM 21.38 70.484 0.262 7.8 2.37 9.06
6/6/2022 3:30:00 PM 21.5 70.7 0.261 7.8 2.48 9.02
6/6/2022 3:45:00 PM 21.58 70.844 0.261 7.79 2.39 8.96
6/6/2022 4:00:00 PM 21.6 70.88 0.261 7.79 2.56 8.95
6/6/2022 4:15:00 PM 21.6 70.88 0.262 7.79 2.43 8.9
6/6/2022 4:30:00 PM 21.65 70.97 0.261 7.78 2.39 8.88
6/6/2022 4:45:00 PM 21.67 71.006 0.259 7.78 2.48 8.83
6/6/2022 5:00:00 PM 21.64 70.952 0.258 7.76 2.51 8.78
6/6/2022 5:15:00 PM 21.62 70.916 0.258 7.74 2.49 8.73
6/6/2022 5:30:00 PM 21.59 70.862 0.257 7.72 2.51 8.68
6/6/2022 5:45:00 PM 21.55 70.79 0.258 7.71 2.49 8.63
6/6/2022 6:00:00 PM 21.5 70.7 0.255 7.68 2.41 8.57
6/6/2022 6:15:00 PM 21.49 70.682 0.256 7.67 2.4 8.54
6/6/2022 6:30:00 PM 21.45 70.61 0.256 7.65 2.19 8.5
6/6/2022 6:45:00 PM 21.41 70.538 0.256 7.64 2.44 8.46
6/6/2022 7:00:00 PM 21.35 70.43 0.257 7.61 2.49 8.38
6/6/2022 7:15:00 PM 21.29 70.32201 0.255 7.59 2.41 8.32
6/6/2022 7:30:00 PM 21.21 70.17799 0.253 7.57 2.4 8.24
6/6/2022 7:45:00 PM 21.14 70.052 0.254 7.54 2.44 8.16
6/6/2022 8:00:00 PM 21.06 69.908 0.254 7.52 2.58 8.1
6/6/2022 8:15:00 PM 20.97 69.746 0.256 7.5 2.3 8.06
6/6/2022 8:30:00 PM 20.88 69.584 0.258 7.48 2.42 8.01
6/6/2022 8:45:00 PM 20.78 69.404 0.262 7.46 2.48 7.97
6/6/2022 9:00:00 PM 20.68 69.224 0.264 7.45 2.46 7.95
6/6/2022 9:15:00 PM 20.57 69.026 0.268 7.44 2.75 7.94
6/6/2022 9:30:00 PM 20.47 68.846 0.273 7.43 2.64 7.94
6/6/2022 9:45:00 PM 20.36 68.648 0.276 7.42 2.73 7.94
6/6/2022 10:00:00 PM 20.25 68.45 0.278 7.42 2.6 7.95
6/6/2022 10:15:00 PM 20.15 68.27 0.28 7.42 2.6 7.98
6/6/2022 10:30:00 PM 20.03 68.054 0.281 7.41 2.75 7.99
6/6/2022 10:45:00 PM 19.92 67.856 0.279 7.41 3.19 8
6/6/2022 11:00:00 PM 19.81 67.658 0.279 7.41 2.55 8.04
6/6/2022 11:15:00 PM 19.69 67.442 0.28 7.41 2.64 8.06
6/6/2022 11:30:00 PM 19.57 67.226 0.28 7.4 2.82 8.08
6/6/2022 11:45:00 PM 19.46 67.028 0.276 7.4 2.7 8.11
6/7/2022 12:00:00 AM 19.35 66.83 0.269 7.39 2.87 8.11
6/7/2022 12:15:00 AM 19.25 66.65 0.268 7.4 2.9 8.15
6/7/2022 12:30:00 AM 19.15 66.47 0.262 7.39 3.66 8.17
6/7/2022 12:45:00 AM 19.06 66.308 0.262 7.39 2.65 8.19
6/7/2022 1:00:00 AM 18.98 66.164 0.262 7.39 2.86 8.19
6/7/2022 1:15:00 AM 18.91 66.038 0.262 7.39 2.66 8.22
6/7/2022 1:30:00 AM 18.84 65.912 0.262 7.39 2.5 8.24
6/7/2022 1:45:00 AM 18.77 65.786 0.262 7.39 2.8 8.26
6/7/2022 2:00:00 AM 18.68 65.624 0.262 7.39 2.8 8.27
6/7/2022 2:15:00 AM 18.6 65.48 0.263 7.39 2.96 8.28
6/7/2022 2:30:00 AM 18.52 65.336 0.263 7.39 2.65 8.3
6/7/2022 2:45:00 AM 18.44 65.192 0.264 7.39 2.7 8.33
6/7/2022 3:00:00 AM 18.37 65.066 0.263 7.38 3.11 8.33
6/7/2022 3:15:00 AM 18.3 64.94 0.262 7.39 2.8 8.35
6/7/2022 3:30:00 AM 18.23 64.814 0.261 7.39 3.14 8.37
6/7/2022 3:45:00 AM 18.16 64.688 0.262 7.39 2.78 8.38
6/7/2022 4:00:00 AM 18.09 64.562 0.262 7.39 2.85 8.39
6/7/2022 4:15:00 AM 18.02 64.436 0.261 7.39 3.11 8.41
6/7/2022 4:30:00 AM 17.94 64.292 0.26 7.38 3.18 8.41
6/7/2022 4:45:00 AM 17.87 64.166 0.26 7.39 2.81 8.44
6/7/2022 5:00:00 AM 17.8 64.04 0.261 7.38 2.83 8.45
6/7/2022 5:15:00 AM 17.72 63.896 0.26 7.38 3.13 8.46
6/7/2022 5:30:00 AM 17.65 63.77 0.262 7.38 3.05 8.48
6/7/2022 5:45:00 AM 17.57 63.626 0.262 7.37 2.71 8.49
6/7/2022 6:00:00 AM 17.53 63.554 0.262 7.38 3.1 8.56
6/7/2022 6:15:00 AM 17.48 63.464 0.26 7.39 2.56 8.63
6/7/2022 6:30:00 AM 17.43 63.374 0.263 7.4 3.43 8.7
6/7/2022 6:45:00 AM 17.4 63.32 0.262 7.4 3.31 8.75
6/7/2022 7:00:00 AM 17.37 63.266 0.261 7.41 3.23 8.83
6/7/2022 7:15:00 AM 17.37 63.266 0.26 7.43 4.15 8.94
6/7/2022 7:30:00 AM 17.41 63.338 0.263 7.46 3.04 9.08
6/7/2022 7:45:00 AM 17.43 63.374 0.271 7.48 2.49 9.15
6/7/2022 8:00:00 AM 17.48 63.464 0.274 7.51 2.66 9.24
6/7/2022 8:15:00 AM 17.49 63.482 0.274 7.53 2.57 9.28
6/7/2022 8:30:00 AM 17.54 63.572 0.276 7.55 3.97 9.34
6/7/2022 8:45:00 AM 17.6 63.68 0.277 7.57 2.61 9.38
6/7/2022 9:00:00 AM 17.64 63.752 0.279 7.59 2.68 9.43
6/7/2022 9:15:00 AM 17.74 63.932 0.278 7.61 2.43 9.49
6/7/2022 9:30:00 AM 17.8 64.04 0.28 7.63 2.47 9.54
6/7/2022 9:45:00 AM 17.82 64.076 0.28 7.65 2.3 9.57
6/7/2022 10:00:00 AM 17.86 64.148 0.282 7.67 2.51 9.58
6/7/2022 10:15:00 AM 17.92 64.256 0.283 7.69 2.19 9.62
6/7/2022 10:30:00 AM 18.04 64.472 0.282 7.71 2.46 9.65
6/7/2022 10:45:00 AM 18.17 64.706 0.284 7.74 2.2 9.68
6/7/2022 11:00:00 AM 18.28 64.904 0.282 7.76 2.23 9.7
6/7/2022 11:15:00 AM 18.36 65.048 0.282 7.78 2.46 9.7
6/7/2022 11:30:00 AM 18.47 65.246 0.282 7.8 2.69 9.72
6/7/2022 11:45:00 AM 18.64 65.552 0.282 7.82 2.19 9.75
6/7/2022 12:00:00 PM 18.84 65.912 0.283 7.85 2.1 9.77
6/7/2022 12:15:00 PM 18.97 66.146 0.282 7.86 2.59 9.75
6/7/2022 12:30:00 PM 19.03 66.254 0.283 7.87 2.11 9.72
6/7/2022 12:45:00 PM 19.01 66.218 0.283 7.84 2.29 9.57
6/7/2022 1:00:00 PM 19 66.2 0.284 7.8 2.21 9.44
6/7/2022 1:15:00 PM 19.01 66.218 0.285 7.77 2.2 9.31
6/7/2022 1:30:00 PM 19.04 66.272 0.285 7.74 2.13 9.23
6/7/2022 1:45:00 PM 19.07 66.326 0.284 7.72 2.17 9.18
6/7/2022 2:00:00 PM 19.12 66.416 0.285 7.72 3.23 9.17
6/7/2022 2:15:00 PM 19.17 66.506 0.285 7.71 4.95 9.17
6/7/2022 2:30:00 PM 19.16 66.488 0.286 7.69 3.65 9.05
6/7/2022 2:45:00 PM 19.17 66.506 0.287 7.67 2.09 8.99
6/7/2022 3:00:00 PM 19.17 66.506 0.288 7.65 1.94 8.88
6/7/2022 3:15:00 PM 19.17 66.506 0.288 7.63 2.17 8.86
6/7/2022 3:30:00 PM 19.2 66.56 0.288 7.63 2.16 8.87
6/7/2022 3:45:00 PM 19.22 66.596 0.288 7.63 4.25 8.88
6/7/2022 4:00:00 PM 19.26 66.668 0.289 7.65 2.11 8.94
6/7/2022 4:15:00 PM 19.24 66.632 0.289 7.63 2.06 8.83
6/7/2022 4:30:00 PM 19.25 66.65 0.288 7.61 1.99 8.8
6/7/2022 4:45:00 PM 19.24 66.632 0.288 7.59 2.02 8.69
6/7/2022 5:00:00 PM 19.22 66.596 0.286 7.56 2.53 8.58
6/7/2022 5:15:00 PM 19.25 66.65 0.286 7.57 2.12 8.66
6/7/2022 5:30:00 PM 19.23 66.614 0.286 7.54 2.03 8.54
6/7/2022 5:45:00 PM 19.24 66.632 0.287 7.54 2.15 8.58
6/7/2022 6:00:00 PM 19.22 66.596 0.288 7.53 2.45 8.48
6/7/2022 6:15:00 PM 19.19 66.542 0.289 7.51 2.34 8.45
6/7/2022 6:30:00 PM 19.19 66.542 0.288 7.51 2.7 8.48
6/7/2022 6:45:00 PM 19.18 66.524 0.288 7.51 1.94 8.49
6/7/2022 7:00:00 PM 19.17 66.506 0.287 7.5 2.36 8.49
6/7/2022 7:15:00 PM 19.15 66.47 0.287 7.49 2.59 8.41
6/7/2022 7:30:00 PM 19.13 66.434 0.286 7.47 2 8.32
6/7/2022 7:45:00 PM 19.1 66.38 0.286 7.45 2.39 8.28
6/7/2022 8:00:00 PM 19.05 66.29 0.286 7.44 2.82 8.23
6/7/2022 8:15:00 PM 19 66.2 0.287 7.42 2.79 8.21
6/7/2022 8:30:00 PM 18.98 66.164 0.286 7.41 2.94 8.19
6/7/2022 8:45:00 PM 18.94 66.092 0.286 7.41 2.75 8.18
6/7/2022 9:00:00 PM 18.91 66.038 0.286 7.4 2.84 8.17
6/7/2022 9:15:00 PM 18.88 65.984 0.285 7.4 3.09 8.17
6/7/2022 9:30:00 PM 18.84 65.912 0.285 7.4 3.11 8.18
6/7/2022 9:45:00 PM 18.8 65.84 0.286 7.4 2.82 8.19
6/7/2022 10:00:00 PM 18.77 65.786 0.286 7.39 3.07 8.19
6/7/2022 10:15:00 PM 18.73 65.714 0.288 7.39 2.82 8.21
6/7/2022 10:30:00 PM 18.71 65.67799 0.287 7.39 2.89 8.22
6/7/2022 10:45:00 PM 18.69 65.642 0.286 7.39 2.64 8.22
6/7/2022 11:00:00 PM 18.67 65.606 0.286 7.39 3.06 8.23
6/7/2022 11:15:00 PM 18.65 65.57 0.285 7.39 3 8.24
6/7/2022 11:30:00 PM 18.63 65.534 0.285 7.39 3.14 8.24
6/7/2022 11:45:00 PM 18.6 65.48 0.286 7.39 2.89 8.25
6/8/2022 12:00:00 AM 18.58 65.444 0.286 7.39 3.19 8.27
6/8/2022 12:15:00 AM 18.55 65.39 0.287 7.39 2.72 8.27
6/8/2022 12:30:00 AM 18.53 65.354 0.289 7.39 3.27 8.28
6/8/2022 12:45:00 AM 18.5 65.3 0.289 7.39 3.2 8.3
6/8/2022 1:00:00 AM 18.45 65.21 0.289 7.39 3 8.3
6/8/2022 1:15:00 AM 18.42 65.156 0.288 7.38 3.29 8.3
6/8/2022 1:30:00 AM 18.39 65.102 0.289 7.38 3.08 8.3
6/8/2022 1:45:00 AM 18.37 65.066 0.288 7.38 3.19 8.32
6/8/2022 2:00:00 AM 18.36 65.048 0.291 7.39 3.22 8.32
6/8/2022 2:15:00 AM 18.34 65.012 0.291 7.38 3.16 8.33
6/8/2022 2:30:00 AM 18.33 64.994 0.293 7.39 2.88 8.34
6/8/2022 2:45:00 AM 18.31 64.958 0.293 7.38 3.08 8.34
6/8/2022 3:00:00 AM 18.3 64.94 0.295 7.39 3.09 8.37
6/8/2022 3:15:00 AM 18.28 64.904 0.295 7.39 2.95 8.37
6/8/2022 3:30:00 AM 18.26 64.868 0.296 7.39 3.18 8.36
6/8/2022 3:45:00 AM 18.25 64.85 0.295 7.39 3.08 8.37
6/8/2022 4:00:00 AM 18.23 64.814 0.296 7.38 2.95 8.37
6/8/2022 4:15:00 AM 18.21 64.778 0.295 7.39 2.93 8.38
6/8/2022 4:30:00 AM 18.2 64.76 0.296 7.38 2.91 8.38
6/8/2022 4:45:00 AM 18.19 64.742 0.296 7.39 2.8 8.39
6/8/2022 5:00:00 AM 18.17 64.706 0.293 7.39 3.19 8.39
6/8/2022 5:15:00 AM 18.14 64.652 0.292 7.4 2.96 8.4
6/8/2022 5:30:00 AM 18.09 64.562 0.291 7.4 3.43 8.41
6/8/2022 5:45:00 AM 18.05 64.49 0.289 7.41 4.18 8.44
6/8/2022 6:00:00 AM 17.99 64.382 0.287 7.41 3.02 8.47
6/8/2022 6:15:00 AM 17.95 64.31 0.289 7.42 3.05 8.53
6/8/2022 6:30:00 AM 17.89 64.202 0.288 7.43 3.1 8.56
6/8/2022 6:45:00 AM 17.83 64.094 0.29 7.43 3.13 8.59
6/8/2022 7:00:00 AM 17.79 64.022 0.289 7.44 5.68 8.62
6/8/2022 7:15:00 AM 17.76 63.968 0.29 7.45 2.95 8.67
6/8/2022 7:30:00 AM 17.77 63.986 0.29 7.46 2.57 8.77
6/8/2022 7:45:00 AM 17.79 64.022 0.293 7.48 3.67 8.86
6/8/2022 8:00:00 AM 17.8 64.04 0.296 7.49 3.64 8.9
6/8/2022 8:15:00 AM 17.84 64.112 0.297 7.51 2.92 8.97
6/8/2022 8:30:00 AM 17.87 64.166 0.298 7.52 2.93 9.05
6/8/2022 8:45:00 AM 17.79 64.022 0.296 7.52 2.54 9.01
6/8/2022 9:00:00 AM 17.92 64.256 0.297 7.55 2.45 9.15
6/8/2022 9:15:00 AM 18.01 64.418 0.298 7.57 2.59 9.21
6/8/2022 9:30:00 AM 18.07 64.526 0.295 7.58 2.82 9.22
6/8/2022 9:45:00 AM 18.13 64.634 0.294 7.59 2.41 9.24
6/8/2022 10:00:00 AM 18.2 64.76 0.293 7.61 2.42 9.29
6/8/2022 10:15:00 AM 18.16 64.688 0.29 7.61 2.2 9.24
6/8/2022 10:30:00 AM 18.28 64.904 0.29 7.63 2.35 9.33
6/8/2022 10:45:00 AM 18.41 65.138 0.289 7.65 2.11 9.38
6/8/2022 11:00:00 AM 18.45 65.21 0.288 7.67 2.11 9.38
6/8/2022 11:15:00 AM 18.48 65.264 0.288 7.67 5.33 9.35
6/8/2022 11:30:00 AM 18.58 65.444 0.288 7.69 2.14 9.41
6/8/2022 11:45:00 AM 18.8 65.84 0.288 7.71 2.23 9.46
6/8/2022 12:00:00 PM 18.97 66.146 0.287 7.74 2.5 9.47
6/8/2022 12:15:00 PM 19.14 66.452 0.286 7.77 2.23 9.49
6/8/2022 12:30:00 PM 19.32 66.776 0.286 7.78 2.24 9.48
6/8/2022 12:45:00 PM 19.6 67.28 0.287 7.81 2.16 9.53
6/8/2022 1:00:00 PM 19.87 67.766 0.286 7.83 2.02 9.5
6/8/2022 1:15:00 PM 20.05 68.09 0.287 7.84 7.67 9.45
6/8/2022 1:30:00 PM 20.13 68.234 0.287 7.84 2.32 9.4
6/8/2022 1:45:00 PM 20.37 68.666 0.287 7.85 2.1 9.39
6/8/2022 2:00:00 PM 20.55 68.99 0.286 7.86 3.1 9.35
6/8/2022 2:15:00 PM 20.7 69.26 0.286 7.86 3.18 9.31
6/8/2022 2:30:00 PM 20.84 69.512 0.286 7.86 2.69 9.29
6/8/2022 2:45:00 PM 20.99 69.782 0.285 7.87 1.89 9.27
6/8/2022 3:00:00 PM 21.12 70.016 0.285 7.87 2.06 9.2
6/8/2022 3:15:00 PM 21.25 70.25 0.284 7.86 1.98 9.15
6/8/2022 3:30:00 PM 21.35 70.43 0.283 7.85 2.05 9.08
6/8/2022 3:45:00 PM 21.43 70.574 0.283 7.84 2.1 9.01
6/8/2022 4:00:00 PM 21.46 70.628 0.283 7.82 1.79 8.94
6/8/2022 4:15:00 PM 21.46 70.628 0.282 7.81 1.89 8.88
6/8/2022 4:30:00 PM 21.43 70.574 0.283 7.8 1.85 8.83
6/8/2022 4:45:00 PM 21.41 70.538 0.282 7.77 1.9 8.78
6/8/2022 5:00:00 PM 21.38 70.484 0.28 7.76 2.03 8.73
6/8/2022 5:15:00 PM 21.34 70.412 0.28 7.73 1.93 8.67
6/8/2022 5:30:00 PM 21.3 70.34 0.281 7.72 1.9 8.62
6/8/2022 5:45:00 PM 21.26 70.268 0.281 7.7 2.07 8.57
6/8/2022 6:00:00 PM 21.2 70.16 0.28 7.68 2.22 8.51
6/8/2022 6:15:00 PM 21.17 70.106 0.281 7.66 1.99 8.48
6/8/2022 6:30:00 PM 21.13 70.034 0.28 7.65 2 8.45
6/8/2022 6:45:00 PM 21.03 69.854 0.281 7.61 2.09 8.33
6/8/2022 7:00:00 PM 20.97 69.746 0.28 7.59 1.94 8.29
6/8/2022 7:15:00 PM 20.9 69.62 0.278 7.57 2.11 8.22
6/8/2022 7:30:00 PM 20.85 69.53 0.278 7.55 2.02 8.2
6/8/2022 7:45:00 PM 20.78 69.404 0.279 7.54 2.27 8.16
6/8/2022 8:00:00 PM 20.71 69.278 0.279 7.52 2.28 8.11
6/8/2022 8:15:00 PM 20.63 69.134 0.279 7.51 2.08 8.07
6/8/2022 8:30:00 PM 20.55 68.99 0.278 7.49 2.24 8.02
6/8/2022 8:45:00 PM 20.45 68.81 0.28 7.48 2.36 8
6/8/2022 9:00:00 PM 20.35 68.63 0.28 7.46 2.75 7.97
6/8/2022 9:15:00 PM 20.25 68.45 0.28 7.45 2.97 7.96
6/8/2022 9:30:00 PM 20.14 68.252 0.28 7.45 2.32 7.97
6/8/2022 9:45:00 PM 20.02 68.036 0.28 7.44 2.55 7.97
6/8/2022 10:00:00 PM 19.91 67.838 0.28 7.44 2.45 7.99
6/8/2022 10:15:00 PM 19.8 67.64 0.28 7.43 2.35 8
6/8/2022 10:30:00 PM 19.69 67.442 0.281 7.43 2.54 8.02
6/8/2022 10:45:00 PM 19.58 67.244 0.281 7.42 2.39 8.04
6/8/2022 11:00:00 PM 19.48 67.064 0.281 7.42 2.67 8.05
6/8/2022 11:15:00 PM 19.38 66.884 0.281 7.41 2.87 8.07
6/8/2022 11:30:00 PM 19.28 66.704 0.279 7.41 2.5 8.09
6/8/2022 11:45:00 PM 19.2 66.56 0.279 7.41 2.51 8.11
6/9/2022 12:00:00 AM 19.12 66.416 0.279 7.4 2.33 8.12
6/9/2022 12:15:00 AM 19.05 66.29 0.282 7.4 2.47 8.14
6/9/2022 12:30:00 AM 18.97 66.146 0.281 7.4 2.59 8.14
6/9/2022 12:45:00 AM 18.91 66.038 0.278 7.4 2.5 8.17
6/9/2022 1:00:00 AM 18.84 65.912 0.282 7.4 2.49 8.17
6/9/2022 1:15:00 AM 18.79 65.82201 0.279 7.4 2.47 8.18
6/9/2022 1:30:00 AM 18.72 65.696 0.276 7.4 2.64 8.2
6/9/2022 1:45:00 AM 18.66 65.588 0.274 7.4 2.64 8.21
6/9/2022 2:00:00 AM 18.6 65.48 0.278 7.39 2.84 8.22
6/9/2022 2:15:00 AM 18.49 65.282 0.267 7.4 3.21 8.27
6/9/2022 2:30:00 AM 18.44 65.192 0.262 7.39 4.52 8.27
6/9/2022 2:45:00 AM 18.36 65.048 0.258 7.39 4.57 8.29
6/9/2022 3:00:00 AM 18.28 64.904 0.256 7.38 8.15 8.3
6/9/2022 3:15:00 AM 18.19 64.742 0.249 7.37 7.68 8.34
6/9/2022 3:30:00 AM 18.08 64.544 0.243 7.36 10.6 8.35
6/9/2022 3:45:00 AM 17.97 64.346 0.238 7.35 14.01 8.39
6/9/2022 4:00:00 AM 17.88 64.184 0.235 7.34 18.6 8.42
6/9/2022 4:15:00 AM 17.78 64.004 0.229 7.34 20.89 8.45
6/9/2022 4:30:00 AM 17.72 63.896 0.23 7.34 22.27 8.47
6/9/2022 4:45:00 AM 17.64 63.752 0.241 7.34 24.56 8.49
6/9/2022 5:00:00 AM 17.48 63.464 0.241 7.33 38.79 8.54
6/9/2022 5:15:00 AM 17.38 63.284 0.225 7.33 54.39 8.6
6/9/2022 5:30:00 AM 17.34 63.212 0.202 7.32 56.8 8.64
6/9/2022 5:45:00 AM 17.35 63.23 0.195 7.32 49.04 8.65
6/9/2022 6:00:00 AM 17.32 63.176 0.191 7.32 42.72 8.65
6/9/2022 6:15:00 AM 17.23 63.014 0.189 7.31 47.66 8.68
6/9/2022 6:30:00 AM 17.12 62.816 0.195 7.31 50.66 8.72
6/9/2022 6:45:00 AM 17.05 62.69 0.201 7.31 53.41 8.75
6/9/2022 7:00:00 AM 17.05 62.69 0.218 7.33 47.62 8.76
6/9/2022 7:15:00 AM 17.09 62.762 0.247 7.35 42.73 8.77
6/9/2022 7:30:00 AM 17.12 62.816 0.263 7.36 46.59 8.78
6/9/2022 7:45:00 AM 17.23 63.014 0.251 7.37 42.24 8.76
6/9/2022 8:00:00 AM 17.39 63.302 0.252 7.38 38.38 8.74
6/9/2022 8:15:00 AM 17.51 63.518 0.249 7.39 35.02 8.74
6/9/2022 8:30:00 AM 17.6 63.68 0.245 7.39 31.08 8.74
6/9/2022 8:45:00 AM 17.7 63.86 0.242 7.4 30.06 8.76
6/9/2022 9:00:00 AM 17.76 63.968 0.24 7.41 27.13 8.75
6/9/2022 9:15:00 AM 17.85 64.13 0.238 7.43 23.63 8.75
6/9/2022 9:30:00 AM 17.93 64.274 0.24 7.43 20.64 8.74
6/9/2022 9:45:00 AM 18.01 64.418 0.24 7.44 18.79 8.71
6/9/2022 10:00:00 AM 18.11 64.598 0.242 7.45 17.39 8.7
6/9/2022 10:15:00 AM 18.25 64.85 0.243 7.46 16.95 8.72
6/9/2022 10:30:00 AM 18.39 65.102 0.245 7.48 15.1 8.72
6/9/2022 10:45:00 AM 18.55 65.39 0.243 7.49 14.47 8.75
6/9/2022 11:00:00 AM 18.73 65.714 0.243 7.51 13.6 8.76
6/9/2022 11:15:00 AM 18.89 66.002 0.244 7.53 12.18 8.78
6/9/2022 11:30:00 AM 19.07 66.326 0.243 7.55 11.54 8.81
6/9/2022 11:45:00 AM 19.18 66.524 0.241 7.56 10.93 8.77
6/9/2022 12:00:00 PM 19.3 66.74 0.242 7.56 11.01 8.76
6/9/2022 12:15:00 PM 19.35 66.83 0.242 7.56 9.99 8.69
6/9/2022 12:30:00 PM 19.42 66.956 0.241 7.56 9.5 8.66
6/9/2022 12:45:00 PM 19.51 67.118 0.241 7.57 9.27 8.69
6/9/2022 1:00:00 PM 19.72 67.496 0.243 7.59 8.88 8.77
6/9/2022 1:15:00 PM 19.84 67.712 0.213 7.62 8.3 8.82
6/9/2022 1:30:00 PM 19.98 67.964 0.212 7.64 8.33 8.87
6/9/2022 1:45:00 PM 20.06 68.108 0.212 7.65 8.05 8.86
6/9/2022 2:00:00 PM 20.15 68.27 0.211 7.66 7.72 8.86
6/9/2022 2:15:00 PM 20.2 68.36 0.211 7.67 7.87 8.85
6/9/2022 2:30:00 PM 20.19 68.342 0.212 7.66 7.77 8.8
6/9/2022 2:45:00 PM 20.23 68.414 0.212 7.67 7.28 8.81
6/9/2022 3:00:00 PM 20.26 68.468 0.212 7.67 6.84 8.79
6/9/2022 3:15:00 PM 20.21 68.378 0.213 7.64 7.04 8.68
6/9/2022 3:30:00 PM 20.23 68.414 0.212 7.65 6.81 8.72
6/9/2022 3:45:00 PM 20.24 68.432 0.213 7.65 6.83 8.72
6/9/2022 4:00:00 PM 20.28 68.504 0.213 7.66 6.57 8.74
6/9/2022 4:15:00 PM 20.26 68.468 0.214 7.65 6.42 8.72
6/9/2022 4:30:00 PM 20.16 68.288 0.215 7.63 6.18 8.67
6/9/2022 4:45:00 PM 20.1 68.18 0.215 7.63 6.04 8.67
6/9/2022 5:00:00 PM 20.05 68.09 0.215 7.62 6.51 8.64
6/9/2022 5:15:00 PM 20.01 68.018 0.217 7.61 6.04 8.63
6/9/2022 5:30:00 PM 19.95 67.91 0.223 7.6 5.92 8.58
6/9/2022 5:45:00 PM 19.89 67.802 0.229 7.58 6.1 8.53
6/9/2022 6:00:00 PM 19.85 67.73 0.233 7.57 5.72 8.54
6/9/2022 6:15:00 PM 19.83 67.694 0.232 7.58 5.99 8.58
6/9/2022 6:30:00 PM 19.76 67.568 0.235 7.57 6.24 8.54
6/9/2022 6:45:00 PM 19.69 67.442 0.236 7.56 5.76 8.5
6/9/2022 7:00:00 PM 19.6 67.28 0.229 7.54 5.99 8.44
6/9/2022 7:15:00 PM 19.53 67.154 0.232 7.52 6.51 8.42
6/9/2022 7:30:00 PM 19.47 67.046 0.235 7.52 5.64 8.41
6/9/2022 7:45:00 PM 19.44 66.992 0.238 7.51 5.97 8.41
6/9/2022 8:00:00 PM 19.39 66.902 0.242 7.5 5.74 8.39
6/9/2022 8:15:00 PM 19.34 66.812 0.238 7.49 5.81 8.37
6/9/2022 8:30:00 PM 19.3 66.74 0.239 7.49 5.87 8.36
6/9/2022 8:45:00 PM 19.26 66.668 0.243 7.47 5.75 8.35
6/9/2022 9:00:00 PM 19.21 66.578 0.241 7.47 5.65 8.33
6/9/2022 9:15:00 PM 19.17 66.506 0.245 7.46 5.54 8.33
6/9/2022 9:30:00 PM 19.12 66.416 0.243 7.46 5.81 8.32
6/9/2022 9:45:00 PM 19.08 66.344 0.246 7.45 6.13 8.33
6/9/2022 10:00:00 PM 19.04 66.272 0.245 7.45 6.23 8.33
6/9/2022 10:15:00 PM 19.02 66.236 0.254 7.44 5.6 8.32
6/9/2022 10:30:00 PM 18.99 66.182 0.248 7.44 6.02 8.32
6/9/2022 10:45:00 PM 18.97 66.146 0.228 7.44 5.53 8.33
6/9/2022 11:00:00 PM 18.95 66.11 0.237 7.43 6 8.33
6/9/2022 11:15:00 PM 18.9 66.02 0.242 7.43 6.08 8.34
6/9/2022 11:30:00 PM 18.87 65.966 0.242 7.43 5.89 8.34
6/9/2022 11:45:00 PM 18.82 65.876 0.242 7.43 5.92 8.35
6/10/2022 12:00:00 AM 18.77 65.786 0.236 7.42 5.92 8.36
6/10/2022 12:15:00 AM 18.71 65.67799 0.236 7.42 5.59 8.37
6/10/2022 12:30:00 AM 18.65 65.57 0.234 7.42 5.8 8.38
6/10/2022 12:45:00 AM 18.59 65.462 0.236 7.42 5.45 8.4
6/10/2022 1:00:00 AM 18.53 65.354 0.233 7.42 5.42 8.4
6/10/2022 1:15:00 AM 18.47 65.246 0.232 7.42 5.78 8.41
6/10/2022 1:30:00 AM 18.42 65.156 0.233 7.42 5.64 8.43
6/10/2022 1:45:00 AM 18.37 65.066 0.233 7.41 5.47 8.44
6/10/2022 2:00:00 AM 18.32 64.976 0.231 7.41 5.32 8.45
6/10/2022 2:15:00 AM 18.27 64.886 0.232 7.41 5.26 8.46
6/10/2022 2:30:00 AM 18.22 64.796 0.231 7.41 5.2 8.46
6/10/2022 2:45:00 AM 18.17 64.706 0.232 7.4 5.25 8.47
6/10/2022 3:00:00 AM 18.12 64.616 0.232 7.41 5.39 8.49
6/10/2022 3:15:00 AM 18.07 64.526 0.231 7.4 4.94 8.48
6/10/2022 3:30:00 AM 18.02 64.436 0.232 7.4 5.04 8.49
6/10/2022 3:45:00 AM 17.96 64.328 0.233 7.4 4.95 8.51
6/10/2022 4:00:00 AM 17.9 64.22 0.231 7.4 4.88 8.52
6/10/2022 4:15:00 AM 17.84 64.112 0.231 7.39 5.07 8.52
6/10/2022 4:30:00 AM 17.78 64.004 0.231 7.39 4.77 8.54
6/10/2022 4:45:00 AM 17.73 63.914 0.233 7.39 5.39 8.55
6/10/2022 5:00:00 AM 17.67 63.806 0.232 7.38 4.73 8.56
6/10/2022 5:15:00 AM 17.62 63.716 0.23 7.38 4.88 8.57
6/10/2022 5:30:00 AM 17.57 63.626 0.231 7.38 4.91 8.59
6/10/2022 5:45:00 AM 17.52 63.536 0.233 7.38 4.93 8.6
6/10/2022 6:00:00 AM 17.47 63.446 0.233 7.38 4.58 8.63
6/10/2022 6:15:00 AM 17.43 63.374 0.233 7.38 4.55 8.65
6/10/2022 6:30:00 AM 17.39 63.302 0.232 7.38 4.65 8.67
6/10/2022 6:45:00 AM 17.36 63.248 0.229 7.38 4.53 8.7
6/10/2022 7:00:00 AM 17.34 63.212 0.23 7.39 4.34 8.73
6/10/2022 7:15:00 AM 17.33 63.194 0.227 7.4 4.19 8.76
6/10/2022 7:30:00 AM 17.33 63.194 0.225 7.41 4.36 8.82
6/10/2022 7:45:00 AM 17.36 63.248 0.223 7.42 4.28 8.88
6/10/2022 8:00:00 AM 17.4 63.32 0.223 7.44 4.3 8.92
6/10/2022 8:15:00 AM 17.44 63.392 0.229 7.45 4.25 8.95
6/10/2022 8:30:00 AM 17.48 63.464 0.228 7.47 3.69 8.99
6/10/2022 8:45:00 AM 17.54 63.572 0.224 7.48 3.8 9.02
6/10/2022 9:00:00 AM 17.6 63.68 0.224 7.49 3.98 9.04
6/10/2022 9:15:00 AM 17.66 63.788 0.224 7.51 3.78 9.07
6/10/2022 9:30:00 AM 17.73 63.914 0.224 7.52 3.7 9.08
6/10/2022 9:45:00 AM 17.82 64.076 0.225 7.53 3.51 9.1
6/10/2022 10:00:00 AM 17.92 64.256 0.225 7.54 3.5 9.12
6/10/2022 10:15:00 AM 18.03 64.454 0.225 7.56 3.45 9.13
6/10/2022 10:30:00 AM 18.15 64.67 0.225 7.57 3.4 9.15
6/10/2022 10:45:00 AM 18.28 64.904 0.225 7.59 3.73 9.16
6/10/2022 11:00:00 AM